Time,TemperatureF,DewpointF,PressureIn,WindDirection,WindDirectionDegrees,WindSpeedMPH,WindSpeedGustMPH,Humidity,HourlyPrecipIn,Conditions,Clouds,dailyrainin,SoftwareType,DateUTC
2013-08-01 00:00:00,57.7,48.8,29.91,South,180,4.0,4.9,72,0.00,,,0.00,VWS V14.01,2013-08-01 07:00:00,
2013-08-01 00:01:00,57.7,48.8,29.91,WNW,292,3.1,4.0,72,0.00,,,0.00,VWS V14.01,2013-08-01 07:01:00,
2013-08-01 00:02:00,57.7,48.8,29.91,WSW,248,2.2,3.1,72,0.00,,,0.00,VWS V14.01,2013-08-01 07:02:00,
2013-08-01 00:03:00,57.7,48.8,29.91,SSW,202,3.1,3.1,72,0.00,,,0.00,VWS V14.01,2013-08-01 07:03:00,
2013-08-01 00:04:00,57.7,48.8,29.91,SSW,202,3.6,4.5,72,0.00,,,0.00,VWS V14.01,2013-08-01 07:04:00,
2013-08-01 00:05:00,57.7,48.8,29.91,SSW,202,3.1,3.6,72,0.00,,,0.00,VWS V14.01,2013-08-01 07:05:00,
2013-08-01 00:06:00,57.7,48.8,29.91,ESE,112,2.7,3.1,72,0.00,,,0.00,VWS V14.01,2013-08-01 07:06:00,
2013-08-01 00:07:00,57.7,48.8,29.91,South,180,0.0,4.0,72,0.00,,,0.00,VWS V14.01,2013-08-01 07:07:00,
2013-08-01 00:08:00,57.7,48.8,29.91,NW,315,0.0,3.1,72,0.00,,,0.00,VWS V14.01,2013-08-01 07:08:00,
2013-08-01 00:09:00,57.7,48.8,29.91,SSW,202,0.0,0.0,72,0.00,,,0.00,VWS V14.01,2013-08-01 07:09:00,
2013-08-01 00:10:00,57.7,48.8,29.91,WNW,292,3.1,3.6,72,0.00,,,0.00,VWS V14.01,2013-08-01 07:10:00,
2013-08-01 00:11:00,57.7,48.8,29.91,NW,315,0.0,3.1,72,0.00,,,0.00,VWS V14.01,2013-08-01 07:11:00,
2013-08-01 00:12:00,57.7,48.8,29.91,SSE,158,0.0,0.0,72,0.00,,,0.00,VWS V14.01,2013-08-01 07:12:00,
2013-08-01 00:13:00,57.7,49.2,29.91,South,180,5.4,5.4,73,0.00,,,0.00,VWS V14.01,2013-08-01 07:13:00,
2013-08-01 00:14:00,57.7,48.8,29.91,SSW,202,2.7,4.0,72,0.00,,,0.00,VWS V14.01,2013-08-01 07:14:00,
2013-08-01 00:15:00,57.7,49.2,29.91,South,180,3.6,4.0,73,0.00,,,0.00,VWS V14.01,2013-08-01 07:15:00,
2013-08-01 00:16:00,57.7,49.2,29.91,South,180,5.4,5.4,73,0.00,,,0.00,VWS V14.01,2013-08-01 07:16:00,
2013-08-01 00:17:00,57.7,49.2,29.91,SSE,158,4.0,5.4,73,0.00,,,0.00,VWS V14.01,2013-08-01 07:17:00,
2013-08-01 00:18:00,57.7,49.2,29.91,SSE,158,4.9,5.8,73,0.00,,,0.00,VWS V14.01,2013-08-01 07:18:00,
2013-08-01 00:19:00,57.7,49.2,29.91,SSW,202,0.0,4.0,73,0.00,,,0.00,VWS V14.01,2013-08-01 07:19:00,
2013-08-01 00:20:00,57.7,49.2,29.91,SSW,202,3.1,3.6,73,0.00,,,0.00,VWS V14.01,2013-08-01 07:20:00,
2013-08-01 00:21:00,57.7,49.2,29.91,SSE,158,4.9,5.8,73,0.00,,,0.00,VWS V14.01,2013-08-01 07:21:00,
2013-08-01 00:22:00,57.7,49.2,29.91,South,180,3.6,4.9,73,0.00,,,0.00,VWS V14.01,2013-08-01 07:22:00,
2013-08-01 00:23:00,57.6,49.0,29.91,SSW,202,5.8,5.8,73,0.00,,,0.00,VWS V14.01,2013-08-01 07:23:00,
2013-08-01 00:24:00,57.7,49.2,29.91,SSW,202,2.2,4.9,73,0.00,,,0.00,VWS V14.01,2013-08-01 07:24:00,
2013-08-01 00:25:00,57.6,49.0,29.91,WNW,292,2.7,3.1,73,0.00,,,0.00,VWS V14.01,2013-08-01 07:25:00,
2013-08-01 00:26:00,57.6,49.0,29.91,SSW,202,2.2,2.7,73,0.00,,,0.00,VWS V14.01,2013-08-01 07:26:00,
2013-08-01 00:27:00,57.6,49.0,29.91,South,180,5.8,5.8,73,0.00,,,0.00,VWS V14.01,2013-08-01 07:27:00,
2013-08-01 00:28:00,57.6,49.0,29.91,SSE,158,4.9,5.8,73,0.00,,,0.00,VWS V14.01,2013-08-01 07:28:00,
2013-08-01 00:29:00,57.6,49.0,29.91,South,180,3.6,3.6,73,0.00,,,0.00,VWS V14.01,2013-08-01 07:29:00,
2013-08-01 00:30:00,57.6,49.0,29.91,SSW,202,4.9,7.2,73,0.00,,,0.00,VWS V14.01,2013-08-01 07:30:00,
2013-08-01 00:31:00,57.6,49.0,29.91,SSE,158,3.1,4.9,73,0.00,,,0.00,VWS V14.01,2013-08-01 07:31:00,
2013-08-01 00:32:00,57.6,49.0,29.91,WSW,248,2.2,3.6,73,0.00,,,0.00,VWS V14.01,2013-08-01 07:32:00,
2013-08-01 00:33:00,57.6,49.0,29.91,South,180,0.0,3.1,73,0.00,,,0.00,VWS V14.01,2013-08-01 07:33:00,
2013-08-01 00:34:00,57.6,49.3,29.91,SSW,202,0.0,2.7,74,0.00,,,0.00,VWS V14.01,2013-08-01 07:34:00,
2013-08-01 00:35:00,57.6,49.0,29.91,SSW,202,3.6,4.0,73,0.00,,,0.00,VWS V14.01,2013-08-01 07:35:00,
2013-08-01 00:36:00,57.6,49.3,29.91,South,180,2.7,5.8,74,0.00,,,0.00,VWS V14.01,2013-08-01 07:36:00,
2013-08-01 00:37:00,57.6,49.3,29.91,ESE,112,2.2,2.7,74,0.00,,,0.00,VWS V14.01,2013-08-01 07:37:00,
2013-08-01 00:38:00,57.6,49.3,29.91,WSW,248,0.0,4.0,74,0.00,,,0.00,VWS V14.01,2013-08-01 07:38:00,
2013-08-01 00:39:00,57.6,49.3,29.91,WSW,248,3.6,4.5,74,0.00,,,0.00,VWS V14.01,2013-08-01 07:39:00,
2013-08-01 00:40:00,57.6,49.3,29.91,SSE,158,0.0,4.0,74,0.00,,,0.00,VWS V14.01,2013-08-01 07:40:00,
2013-08-01 00:41:00,57.6,49.3,29.91,SSE,158,0.0,0.0,74,0.00,,,0.00,VWS V14.01,2013-08-01 07:41:00,
2013-08-01 00:42:00,57.6,49.3,29.91,WSW,248,3.6,4.5,74,0.00,,,0.00,VWS V14.01,2013-08-01 07:42:00,
2013-08-01 00:43:00,57.6,49.3,29.91,ESE,112,3.6,4.0,74,0.00,,,0.00,VWS V14.01,2013-08-01 07:43:00,
2013-08-01 00:44:00,57.6,49.3,29.91,SSW,202,4.0,4.0,74,0.00,,,0.00,VWS V14.01,2013-08-01 07:44:00,
2013-08-01 00:45:00,57.6,49.3,29.91,SSE,158,0.0,2.7,74,0.00,,,0.00,VWS V14.01,2013-08-01 07:45:00,
2013-08-01 00:46:00,57.6,49.3,29.91,SE,135,2.7,4.9,74,0.00,,,0.00,VWS V14.01,2013-08-01 07:46:00,
2013-08-01 00:47:00,57.6,49.3,29.91,SSW,202,4.0,4.0,74,0.00,,,0.00,VWS V14.01,2013-08-01 07:47:00,
2013-08-01 00:48:00,57.6,49.3,29.91,SSE,158,4.9,5.4,74,0.00,,,0.00,VWS V14.01,2013-08-01 07:48:00,
2013-08-01 00:49:00,57.4,49.2,29.91,SSW,202,3.6,3.6,74,0.00,,,0.00,VWS V14.01,2013-08-01 07:49:00,
2013-08-01 00:50:00,57.4,49.2,29.91,SSE,158,0.0,2.7,74,0.00,,,0.00,VWS V14.01,2013-08-01 07:50:00,
2013-08-01 00:51:00,57.6,49.3,29.91,South,180,0.0,2.2,74,0.00,,,0.00,VWS V14.01,2013-08-01 07:51:00,
2013-08-01 00:52:00,57.4,49.2,29.91,SSW,202,3.6,3.6,74,0.00,,,0.00,VWS V14.01,2013-08-01 07:52:00,
2013-08-01 00:53:00,57.4,49.2,29.91,South,180,2.2,4.0,74,0.00,,,0.00,VWS V14.01,2013-08-01 07:53:00,
2013-08-01 00:54:00,57.4,49.2,29.91,SSW,202,3.1,3.6,74,0.00,,,0.00,VWS V14.01,2013-08-01 07:54:00,
2013-08-01 00:55:00,57.4,49.2,29.91,WSW,248,2.7,4.0,74,0.00,,,0.00,VWS V14.01,2013-08-01 07:55:00,
2013-08-01 00:56:00,57.4,49.2,29.91,SSW,202,0.0,4.0,74,0.00,,,0.00,VWS V14.01,2013-08-01 07:56:00,
2013-08-01 00:57:00,57.4,49.2,29.91,SSW,202,3.1,3.6,74,0.00,,,0.00,VWS V14.01,2013-08-01 07:57:00,
2013-08-01 00:58:00,57.4,49.2,29.91,SSW,202,3.6,5.4,74,0.00,,,0.00,VWS V14.01,2013-08-01 07:58:00,
2013-08-01 00:59:00,57.4,49.2,29.91,SSE,158,3.1,3.1,74,0.00,,,0.00,VWS V14.01,2013-08-01 07:59:00,
2013-08-01 01:00:00,57.4,49.2,29.91,ENE,68,0.0,2.7,74,0.00,,,0.00,VWS V14.01,2013-08-01 08:00:00,
2013-08-01 01:01:00,57.4,49.2,29.91,SSW,202,0.0,0.0,74,0.00,,,0.00,VWS V14.01,2013-08-01 08:01:00,
2013-08-01 01:02:00,57.4,49.2,29.91,SSE,158,3.1,3.1,74,0.00,,,0.00,VWS V14.01,2013-08-01 08:02:00,
2013-08-01 01:03:00,57.4,49.2,29.91,SSE,158,3.1,4.0,74,0.00,,,0.00,VWS V14.01,2013-08-01 08:03:00,
2013-08-01 01:04:00,57.4,49.2,29.91,SW,225,0.0,3.1,74,0.00,,,0.00,VWS V14.01,2013-08-01 08:04:00,
2013-08-01 01:05:00,57.4,49.2,29.91,SSE,158,0.0,4.0,74,0.00,,,0.00,VWS V14.01,2013-08-01 08:05:00,
2013-08-01 01:06:00,57.4,49.2,29.91,South,180,0.0,3.1,74,0.00,,,0.00,VWS V14.01,2013-08-01 08:06:00,
2013-08-01 01:07:00,57.4,49.2,29.91,SSW,202,2.7,3.6,74,0.00,,,0.00,VWS V14.01,2013-08-01 08:07:00,
2013-08-01 01:08:00,57.4,49.2,29.91,SSE,158,0.0,4.0,74,0.00,,,0.00,VWS V14.01,2013-08-01 08:08:00,
2013-08-01 01:09:00,57.4,49.2,29.91,SSW,202,3.1,4.0,74,0.00,,,0.00,VWS V14.01,2013-08-01 08:09:00,
2013-08-01 01:10:00,57.4,49.2,29.91,South,180,0.0,2.7,74,0.00,,,0.00,VWS V14.01,2013-08-01 08:10:00,
2013-08-01 01:11:00,57.4,49.2,29.91,SSE,158,4.9,4.9,74,0.00,,,0.00,VWS V14.01,2013-08-01 08:11:00,
2013-08-01 01:12:00,57.4,49.2,29.91,SSE,158,2.7,4.9,74,0.00,,,0.00,VWS V14.01,2013-08-01 08:12:00,
2013-08-01 01:13:00,57.4,49.2,29.91,South,180,0.0,2.7,74,0.00,,,0.00,VWS V14.01,2013-08-01 08:13:00,
2013-08-01 01:14:00,57.4,49.2,29.91,SSW,202,3.1,3.6,74,0.00,,,0.00,VWS V14.01,2013-08-01 08:14:00,
2013-08-01 01:15:00,57.4,49.2,29.91,SSW,202,3.1,3.6,74,0.00,,,0.00,VWS V14.01,2013-08-01 08:15:00,
2013-08-01 01:16:00,57.4,49.2,29.91,South,180,0.0,3.1,74,0.00,,,0.00,VWS V14.01,2013-08-01 08:16:00,
2013-08-01 01:17:00,57.4,49.2,29.91,South,180,2.7,3.6,74,0.00,,,0.00,VWS V14.01,2013-08-01 08:17:00,
2013-08-01 01:18:00,57.4,49.2,29.91,SSW,202,3.1,4.0,74,0.00,,,0.00,VWS V14.01,2013-08-01 08:18:00,
2013-08-01 01:19:00,57.4,49.2,29.91,South,180,0.0,3.1,74,0.00,,,0.00,VWS V14.01,2013-08-01 08:19:00,
2013-08-01 01:20:00,57.4,49.2,29.91,South,180,4.0,4.9,74,0.00,,,0.00,VWS V14.01,2013-08-01 08:20:00,
2013-08-01 01:21:00,57.4,49.2,29.91,NNW,338,0.0,0.0,74,0.00,,,0.00,VWS V14.01,2013-08-01 08:21:00,
2013-08-01 01:22:00,57.4,49.2,29.91,SE,135,3.1,3.1,74,0.00,,,0.00,VWS V14.01,2013-08-01 08:22:00,
2013-08-01 01:23:00,57.4,49.2,29.91,WSW,248,3.6,3.6,74,0.00,,,0.00,VWS V14.01,2013-08-01 08:23:00,
2013-08-01 01:24:00,57.4,49.2,29.91,NNW,338,0.0,3.6,74,0.00,,,0.00,VWS V14.01,2013-08-01 08:24:00,
2013-08-01 01:25:00,57.4,49.2,29.91,SSW,202,4.0,4.0,74,0.00,,,0.00,VWS V14.01,2013-08-01 08:25:00,
2013-08-01 01:26:00,57.4,49.2,29.91,SSW,202,0.0,0.0,74,0.00,,,0.00,VWS V14.01,2013-08-01 08:26:00,
2013-08-01 01:27:00,57.4,49.2,29.91,SSW,202,2.7,4.0,74,0.00,,,0.00,VWS V14.01,2013-08-01 08:27:00,
2013-08-01 01:28:00,57.4,49.2,29.91,SSW,202,0.0,4.0,74,0.00,,,0.00,VWS V14.01,2013-08-01 08:28:00,
2013-08-01 01:29:00,57.4,49.2,29.91,SSE,158,0.0,0.0,74,0.00,,,0.00,VWS V14.01,2013-08-01 08:29:00,
2013-08-01 01:30:00,57.4,49.2,29.91,South,180,3.1,3.1,74,0.00,,,0.00,VWS V14.01,2013-08-01 08:30:00,
2013-08-01 01:31:00,57.4,49.2,29.91,South,180,2.7,4.0,74,0.00,,,0.00,VWS V14.01,2013-08-01 08:31:00,
2013-08-01 01:32:00,57.4,49.2,29.91,WSW,248,0.0,3.6,74,0.00,,,0.00,VWS V14.01,2013-08-01 08:32:00,
2013-08-01 01:33:00,57.4,49.2,29.91,ESE,112,0.0,2.7,74,0.00,,,0.00,VWS V14.01,2013-08-01 08:33:00,
2013-08-01 01:34:00,57.4,49.2,29.91,SSW,202,0.0,2.7,74,0.00,,,0.00,VWS V14.01,2013-08-01 08:34:00,
2013-08-01 01:35:00,57.4,49.2,29.91,WSW,248,0.0,3.6,74,0.00,,,0.00,VWS V14.01,2013-08-01 08:35:00,
2013-08-01 01:36:00,57.4,49.2,29.91,ESE,112,2.7,2.7,74,0.00,,,0.00,VWS V14.01,2013-08-01 08:36:00,
2013-08-01 01:37:00,57.2,49.0,29.91,SSE,158,3.1,3.1,74,0.00,,,0.00,VWS V14.01,2013-08-01 08:37:00,
2013-08-01 01:38:00,57.2,49.0,29.91,SSE,158,5.4,5.4,74,0.00,,,0.00,VWS V14.01,2013-08-01 08:38:00,
2013-08-01 01:39:00,57.2,49.0,29.91,SSW,202,4.0,5.4,74,0.00,,,0.00,VWS V14.01,2013-08-01 08:39:00,
2013-08-01 01:40:00,57.2,49.0,29.91,SSE,158,3.1,4.0,74,0.00,,,0.00,VWS V14.01,2013-08-01 08:40:00,
2013-08-01 01:41:00,57.2,49.0,29.91,SSE,158,2.7,4.0,74,0.00,,,0.00,VWS V14.01,2013-08-01 08:41:00,
2013-08-01 01:42:00,57.2,49.0,29.91,SSW,202,2.7,3.6,74,0.00,,,0.00,VWS V14.01,2013-08-01 08:42:00,
2013-08-01 01:43:00,57.2,49.0,29.91,SSE,158,3.1,3.1,74,0.00,,,0.00,VWS V14.01,2013-08-01 08:43:00,
2013-08-01 01:44:00,57.2,49.0,29.91,SW,225,0.0,3.6,74,0.00,,,0.00,VWS V14.01,2013-08-01 08:44:00,
2013-08-01 01:45:00,57.2,49.0,29.91,SSE,158,3.1,3.1,74,0.00,,,0.00,VWS V14.01,2013-08-01 08:45:00,
2013-08-01 01:46:00,57.2,49.0,29.91,SSW,202,3.6,3.6,74,0.00,,,0.00,VWS V14.01,2013-08-01 08:46:00,
2013-08-01 01:47:00,57.2,49.0,29.91,SSE,158,4.5,4.5,74,0.00,,,0.00,VWS V14.01,2013-08-01 08:47:00,
2013-08-01 01:48:00,57.2,49.0,29.91,SSE,158,3.1,4.9,74,0.00,,,0.00,VWS V14.01,2013-08-01 08:48:00,
2013-08-01 01:49:00,57.2,49.0,29.91,South,180,0.0,3.1,74,0.00,,,0.00,VWS V14.01,2013-08-01 08:49:00,
2013-08-01 01:50:00,57.2,49.0,29.91,SE,135,4.0,5.4,74,0.00,,,0.00,VWS V14.01,2013-08-01 08:50:00,
2013-08-01 01:51:00,57.2,49.0,29.91,South,180,3.1,4.0,74,0.00,,,0.00,VWS V14.01,2013-08-01 08:51:00,
2013-08-01 01:52:00,57.2,49.0,29.91,South,180,0.0,3.1,74,0.00,,,0.00,VWS V14.01,2013-08-01 08:52:00,
2013-08-01 01:53:00,57.2,49.0,29.91,South,180,0.0,0.0,74,0.00,,,0.00,VWS V14.01,2013-08-01 08:53:00,
2013-08-01 01:54:00,57.2,49.0,29.91,SSW,202,0.0,0.0,74,0.00,,,0.00,VWS V14.01,2013-08-01 08:54:00,
2013-08-01 01:55:00,57.2,49.0,29.91,SSW,202,2.2,3.6,74,0.00,,,0.00,VWS V14.01,2013-08-01 08:55:00,
2013-08-01 01:56:00,57.2,49.0,29.91,SSW,202,0.0,2.2,74,0.00,,,0.00,VWS V14.01,2013-08-01 08:56:00,
2013-08-01 01:57:00,57.2,49.0,29.91,SSW,202,0.0,0.0,74,0.00,,,0.00,VWS V14.01,2013-08-01 08:57:00,
2013-08-01 01:58:00,57.2,49.0,29.91,South,180,2.7,4.5,74,0.00,,,0.00,VWS V14.01,2013-08-01 08:58:00,
2013-08-01 01:59:00,57.2,49.0,29.91,South,180,0.0,2.7,74,0.00,,,0.00,VWS V14.01,2013-08-01 08:59:00,
2013-08-01 02:01:00,57.0,48.8,29.91,SSW,202,0.0,3.1,74,0.00,,,0.00,VWS V14.01,2013-08-01 09:01:00,
2013-08-01 02:02:00,57.2,49.0,29.91,SSW,202,0.0,0.0,74,0.00,,,0.00,VWS V14.01,2013-08-01 09:02:00,
2013-08-01 02:03:00,57.2,49.0,29.91,SSW,202,0.0,0.0,74,0.00,,,0.00,VWS V14.01,2013-08-01 09:03:00,
2013-08-01 02:04:00,57.0,48.8,29.91,SSW,202,0.0,3.1,74,0.00,,,0.00,VWS V14.01,2013-08-01 09:04:00,
2013-08-01 02:05:00,57.0,48.8,29.91,SSW,202,0.0,2.2,74,0.00,,,0.00,VWS V14.01,2013-08-01 09:05:00,
2013-08-01 02:06:00,57.0,48.8,29.91,South,180,0.0,3.6,74,0.00,,,0.00,VWS V14.01,2013-08-01 09:06:00,
2013-08-01 02:07:00,57.0,48.8,29.91,SSE,158,0.0,2.7,74,0.00,,,0.00,VWS V14.01,2013-08-01 09:07:00,
2013-08-01 02:08:00,57.0,48.8,29.91,South,180,2.2,3.1,74,0.00,,,0.00,VWS V14.01,2013-08-01 09:08:00,
2013-08-01 02:09:00,57.0,48.8,29.91,SSE,158,2.7,3.1,74,0.00,,,0.00,VWS V14.01,2013-08-01 09:09:00,
2013-08-01 02:10:00,57.2,49.0,29.91,SSE,158,0.0,2.7,74,0.00,,,0.00,VWS V14.01,2013-08-01 09:10:00,
2013-08-01 02:11:00,57.2,49.0,29.91,South,180,0.0,0.0,74,0.00,,,0.00,VWS V14.01,2013-08-01 09:11:00,
2013-08-01 02:12:00,57.2,49.0,29.91,South,180,0.0,0.0,74,0.00,,,0.00,VWS V14.01,2013-08-01 09:12:00,
2013-08-01 02:13:00,57.0,48.8,29.91,South,180,4.0,4.0,74,0.00,,,0.00,VWS V14.01,2013-08-01 09:13:00,
2013-08-01 02:14:00,57.0,48.8,29.91,SSE,158,0.0,2.2,74,0.00,,,0.00,VWS V14.01,2013-08-01 09:14:00,
2013-08-01 02:15:00,57.0,48.8,29.91,South,180,3.1,4.0,74,0.00,,,0.00,VWS V14.01,2013-08-01 09:15:00,
2013-08-01 02:16:00,57.0,48.8,29.91,South,180,4.0,4.0,74,0.00,,,0.00,VWS V14.01,2013-08-01 09:16:00,
2013-08-01 02:17:00,57.2,49.0,29.91,SSW,202,0.0,4.0,74,0.00,,,0.00,VWS V14.01,2013-08-01 09:17:00,
2013-08-01 02:18:00,57.0,48.8,29.91,SSW,202,0.0,0.0,74,0.00,,,0.00,VWS V14.01,2013-08-01 09:18:00,
2013-08-01 02:19:00,57.0,48.8,29.91,South,180,2.2,4.0,74,0.00,,,0.00,VWS V14.01,2013-08-01 09:19:00,
2013-08-01 02:20:00,57.0,48.8,29.91,SSW,202,0.0,2.7,74,0.00,,,0.00,VWS V14.01,2013-08-01 09:20:00,
2013-08-01 02:21:00,57.0,48.8,29.91,SSW,202,0.0,0.0,74,0.00,,,0.00,VWS V14.01,2013-08-01 09:21:00,
2013-08-01 02:22:00,57.0,48.8,29.91,South,180,2.2,3.1,74,0.00,,,0.00,VWS V14.01,2013-08-01 09:22:00,
2013-08-01 02:23:00,57.0,48.8,29.91,South,180,3.1,3.1,74,0.00,,,0.00,VWS V14.01,2013-08-01 09:23:00,
2013-08-01 02:24:00,57.0,48.8,29.91,SSE,158,0.0,0.0,74,0.00,,,0.00,VWS V14.01,2013-08-01 09:24:00,
2013-08-01 02:25:00,57.0,48.8,29.91,SSE,158,0.0,0.0,74,0.00,,,0.00,VWS V14.01,2013-08-01 09:25:00,
2013-08-01 02:26:00,57.0,48.8,29.91,SSE,158,0.0,0.0,74,0.00,,,0.00,VWS V14.01,2013-08-01 09:26:00,
2013-08-01 02:27:00,57.0,48.8,29.91,SSW,202,2.7,3.6,74,0.00,,,0.00,VWS V14.01,2013-08-01 09:27:00,
2013-08-01 02:28:00,57.0,48.8,29.91,SSE,158,2.7,3.1,74,0.00,,,0.00,VWS V14.01,2013-08-01 09:28:00,
2013-08-01 02:29:00,57.0,48.8,29.91,SW,225,0.0,2.7,74,0.00,,,0.00,VWS V14.01,2013-08-01 09:29:00,
2013-08-01 02:30:00,57.2,49.0,29.91,SSW,202,3.6,4.0,74,0.00,,,0.00,VWS V14.01,2013-08-01 09:30:00,
2013-08-01 02:31:00,57.2,49.0,29.91,SE,135,2.7,3.1,74,0.00,,,0.00,VWS V14.01,2013-08-01 09:31:00,
2013-08-01 02:32:00,57.2,49.0,29.91,South,180,4.0,4.9,74,0.00,,,0.00,VWS V14.01,2013-08-01 09:32:00,
2013-08-01 02:33:00,57.2,49.0,29.91,SSW,202,3.6,4.0,74,0.00,,,0.00,VWS V14.01,2013-08-01 09:33:00,
2013-08-01 02:34:00,57.2,49.0,29.91,SSW,202,2.7,3.6,74,0.00,,,0.00,VWS V14.01,2013-08-01 09:34:00,
2013-08-01 02:35:00,57.2,49.0,29.91,South,180,3.1,3.1,74,0.00,,,0.00,VWS V14.01,2013-08-01 09:35:00,
2013-08-01 02:36:00,57.2,49.0,29.91,SSW,202,3.1,3.1,74,0.00,,,0.00,VWS V14.01,2013-08-01 09:36:00,
2013-08-01 02:37:00,57.2,49.0,29.91,SSE,158,3.1,3.1,74,0.00,,,0.00,VWS V14.01,2013-08-01 09:37:00,
2013-08-01 02:38:00,57.2,49.0,29.91,South,180,3.1,3.1,74,0.00,,,0.00,VWS V14.01,2013-08-01 09:38:00,
2013-08-01 02:39:00,57.2,49.0,29.91,South,180,4.0,4.0,74,0.00,,,0.00,VWS V14.01,2013-08-01 09:39:00,
2013-08-01 02:40:00,57.2,49.0,29.91,SSW,202,0.0,2.2,74,0.00,,,0.00,VWS V14.01,2013-08-01 09:40:00,
2013-08-01 02:41:00,57.2,49.0,29.91,SSW,202,3.6,3.6,74,0.00,,,0.00,VWS V14.01,2013-08-01 09:41:00,
2013-08-01 02:42:00,57.2,49.0,29.91,SSW,202,3.1,3.6,74,0.00,,,0.00,VWS V14.01,2013-08-01 09:42:00,
2013-08-01 02:43:00,57.2,49.0,29.91,SSE,158,2.2,4.0,74,0.00,,,0.00,VWS V14.01,2013-08-01 09:43:00,
2013-08-01 02:44:00,57.2,49.0,29.91,South,180,0.0,2.2,74,0.00,,,0.00,VWS V14.01,2013-08-01 09:44:00,
2013-08-01 02:45:00,57.2,49.0,29.91,SSW,202,0.0,0.0,74,0.00,,,0.00,VWS V14.01,2013-08-01 09:45:00,
2013-08-01 02:46:00,57.2,49.0,29.91,WSW,248,2.2,3.1,74,0.00,,,0.00,VWS V14.01,2013-08-01 09:46:00,
2013-08-01 02:47:00,57.2,49.0,29.91,SE,135,2.7,3.6,74,0.00,,,0.00,VWS V14.01,2013-08-01 09:47:00,
2013-08-01 02:48:00,57.2,49.0,29.91,NW,315,3.1,4.9,74,0.00,,,0.00,VWS V14.01,2013-08-01 09:48:00,
2013-08-01 02:49:00,57.2,49.0,29.91,WSW,248,2.2,3.1,74,0.00,,,0.00,VWS V14.01,2013-08-01 09:49:00,
2013-08-01 02:50:00,57.2,48.6,29.91,SSE,158,0.0,2.2,73,0.00,,,0.00,VWS V14.01,2013-08-01 09:50:00,
2013-08-01 02:51:00,57.2,48.6,29.91,SSE,158,4.0,4.9,73,0.00,,,0.00,VWS V14.01,2013-08-01 09:51:00,
2013-08-01 02:52:00,57.0,48.8,29.91,SSW,202,3.1,3.1,74,0.00,,,0.00,VWS V14.01,2013-08-01 09:52:00,
2013-08-01 02:55:00,57.2,48.6,29.91,SSW,202,2.2,2.2,73,0.00,,,0.00,VWS V14.01,2013-08-01 09:55:00,
2013-08-01 02:56:00,57.0,48.8,29.91,SSW,202,0.0,3.1,74,0.00,,,0.00,VWS V14.01,2013-08-01 09:56:00,
2013-08-01 02:57:00,57.0,48.8,29.91,SSE,158,6.3,7.2,74,0.00,,,0.00,VWS V14.01,2013-08-01 09:57:00,
2013-08-01 02:58:00,57.0,48.8,29.91,South,180,0.0,3.1,74,0.00,,,0.00,VWS V14.01,2013-08-01 09:58:00,
2013-08-01 02:59:00,57.0,48.8,29.91,South,180,3.6,3.6,74,0.00,,,0.00,VWS V14.01,2013-08-01 09:59:00,
2013-08-01 03:00:00,57.0,48.8,29.91,South,180,0.0,3.6,74,0.00,,,0.00,VWS V14.01,2013-08-01 10:00:00,
2013-08-01 03:01:00,57.0,48.8,29.91,SSE,158,6.3,7.2,74,0.00,,,0.00,VWS V14.01,2013-08-01 10:01:00,
2013-08-01 03:02:00,57.0,48.8,29.91,SSW,202,2.7,6.3,74,0.00,,,0.00,VWS V14.01,2013-08-01 10:02:00,
2013-08-01 03:03:00,56.8,48.7,29.91,SSE,158,0.0,0.0,74,0.00,,,0.00,VWS V14.01,2013-08-01 10:03:00,
2013-08-01 03:04:00,57.0,48.8,29.91,West,270,0.0,3.6,74,0.00,,,0.00,VWS V14.01,2013-08-01 10:04:00,
2013-08-01 03:05:00,56.8,48.7,29.91,SSW,202,0.0,0.0,74,0.00,,,0.00,VWS V14.01,2013-08-01 10:05:00,
2013-08-01 03:06:00,56.8,48.7,29.91,South,180,0.0,0.0,74,0.00,,,0.00,VWS V14.01,2013-08-01 10:06:00,
2013-08-01 03:07:00,56.8,48.7,29.91,SSE,158,0.0,0.0,74,0.00,,,0.00,VWS V14.01,2013-08-01 10:07:00,
2013-08-01 03:08:00,56.8,48.7,29.91,SSW,202,3.6,3.6,74,0.00,,,0.00,VWS V14.01,2013-08-01 10:08:00,
2013-08-01 03:09:00,56.8,48.7,29.91,South,180,0.0,0.0,74,0.00,,,0.00,VWS V14.01,2013-08-01 10:09:00,
2013-08-01 03:10:00,56.8,48.7,29.91,SSW,202,3.1,3.1,74,0.00,,,0.00,VWS V14.01,2013-08-01 10:10:00,
2013-08-01 03:11:00,56.8,48.7,29.91,SSE,158,0.0,3.6,74,0.00,,,0.00,VWS V14.01,2013-08-01 10:11:00,
2013-08-01 03:12:00,56.8,48.7,29.91,SSW,202,3.6,3.6,74,0.00,,,0.00,VWS V14.01,2013-08-01 10:12:00,
2013-08-01 03:13:00,56.8,48.7,29.91,SSW,202,0.0,3.6,74,0.00,,,0.00,VWS V14.01,2013-08-01 10:13:00,
2013-08-01 03:14:00,56.8,48.7,29.91,SSW,202,2.7,2.7,74,0.00,,,0.00,VWS V14.01,2013-08-01 10:14:00,
2013-08-01 03:15:00,56.8,48.7,29.91,SSW,202,2.7,2.7,74,0.00,,,0.00,VWS V14.01,2013-08-01 10:15:00,
2013-08-01 03:16:00,56.8,48.7,29.91,SSW,202,4.9,4.9,74,0.00,,,0.00,VWS V14.01,2013-08-01 10:16:00,
2013-08-01 03:17:00,56.8,48.7,29.91,SSW,202,0.0,4.9,74,0.00,,,0.00,VWS V14.01,2013-08-01 10:17:00,
2013-08-01 03:18:00,56.8,48.7,29.91,SSW,202,2.7,2.7,74,0.00,,,0.00,VWS V14.01,2013-08-01 10:18:00,
2013-08-01 03:19:00,56.8,48.7,29.91,SSW,202,3.1,4.0,74,0.00,,,0.00,VWS V14.01,2013-08-01 10:19:00,
2013-08-01 03:20:00,56.8,48.7,29.91,SSW,202,0.0,3.6,74,0.00,,,0.00,VWS V14.01,2013-08-01 10:20:00,
2013-08-01 03:21:00,56.7,48.5,29.91,WSW,248,3.1,4.9,74,0.00,,,0.00,VWS V14.01,2013-08-01 10:21:00,
2013-08-01 03:22:00,56.7,48.5,29.91,WSW,248,2.2,4.0,74,0.00,,,0.00,VWS V14.01,2013-08-01 10:22:00,
2013-08-01 03:23:00,56.8,48.7,29.91,WSW,248,2.7,4.0,74,0.00,,,0.00,VWS V14.01,2013-08-01 10:23:00,
2013-08-01 03:24:00,56.8,48.7,29.91,SSW,202,0.0,3.6,74,0.00,,,0.00,VWS V14.01,2013-08-01 10:24:00,
2013-08-01 03:25:00,56.7,48.5,29.91,WSW,248,0.0,0.0,74,0.00,,,0.00,VWS V14.01,2013-08-01 10:25:00,
2013-08-01 03:26:00,56.7,48.5,29.91,SSE,158,3.1,4.0,74,0.00,,,0.00,VWS V14.01,2013-08-01 10:26:00,
2013-08-01 03:27:00,56.7,48.5,29.91,SW,225,2.2,2.2,74,0.00,,,0.00,VWS V14.01,2013-08-01 10:27:00,
2013-08-01 03:28:00,56.7,48.5,29.91,SSE,158,4.9,4.9,74,0.00,,,0.00,VWS V14.01,2013-08-01 10:28:00,
2013-08-01 03:29:00,56.7,48.5,29.91,South,180,4.0,4.9,74,0.00,,,0.00,VWS V14.01,2013-08-01 10:29:00,
2013-08-01 03:30:00,56.7,48.5,29.91,SSE,158,3.1,4.0,74,0.00,,,0.00,VWS V14.01,2013-08-01 10:30:00,
2013-08-01 03:31:00,56.7,48.5,29.91,ESE,112,2.7,5.4,74,0.00,,,0.00,VWS V14.01,2013-08-01 10:31:00,
2013-08-01 03:32:00,56.7,48.8,29.91,SSE,158,3.1,3.1,75,0.00,,,0.00,VWS V14.01,2013-08-01 10:32:00,
2013-08-01 03:33:00,56.7,48.5,29.91,SSW,202,0.0,3.1,74,0.00,,,0.00,VWS V14.01,2013-08-01 10:33:00,
2013-08-01 03:34:00,56.7,48.8,29.91,SSE,158,2.2,2.2,75,0.00,,,0.00,VWS V14.01,2013-08-01 10:34:00,
2013-08-01 03:35:00,56.7,48.8,29.91,SSE,158,3.1,3.1,75,0.00,,,0.00,VWS V14.01,2013-08-01 10:35:00,
2013-08-01 03:36:00,56.7,48.8,29.91,SSE,158,3.1,3.1,75,0.00,,,0.00,VWS V14.01,2013-08-01 10:36:00,
2013-08-01 03:37:00,56.7,48.8,29.91,SSW,202,3.6,4.0,75,0.00,,,0.00,VWS V14.01,2013-08-01 10:37:00,
2013-08-01 03:38:00,56.7,48.8,29.91,SSE,158,6.3,6.3,75,0.00,,,0.00,VWS V14.01,2013-08-01 10:38:00,
2013-08-01 03:39:00,56.7,48.8,29.91,SSW,202,6.3,6.3,75,0.00,,,0.00,VWS V14.01,2013-08-01 10:39:00,
2013-08-01 03:40:00,56.7,48.8,29.91,NNE,22,0.0,4.9,75,0.00,,,0.00,VWS V14.01,2013-08-01 10:40:00,
2013-08-01 03:41:00,56.7,48.8,29.91,SSW,202,4.9,4.9,75,0.00,,,0.00,VWS V14.01,2013-08-01 10:41:00,
2013-08-01 03:42:00,56.7,48.8,29.91,SSW,202,4.0,6.3,75,0.00,,,0.00,VWS V14.01,2013-08-01 10:42:00,
2013-08-01 03:43:00,56.7,48.8,29.91,SSE,158,5.8,5.8,75,0.00,,,0.00,VWS V14.01,2013-08-01 10:43:00,
2013-08-01 03:44:00,56.5,48.7,29.91,SSW,202,0.0,0.0,75,0.00,,,0.00,VWS V14.01,2013-08-01 10:44:00,
2013-08-01 03:45:00,56.7,48.8,29.91,South,180,3.6,6.3,75,0.00,,,0.00,VWS V14.01,2013-08-01 10:45:00,
2013-08-01 03:46:00,56.7,48.8,29.91,SSW,202,3.6,5.4,75,0.00,,,0.00,VWS V14.01,2013-08-01 10:46:00,
2013-08-01 03:47:00,56.7,48.8,29.91,West,270,0.0,3.6,75,0.00,,,0.00,VWS V14.01,2013-08-01 10:47:00,
2013-08-01 03:48:00,56.5,48.7,29.91,SW,225,0.0,2.2,75,0.00,,,0.00,VWS V14.01,2013-08-01 10:48:00,
2013-08-01 03:49:00,56.5,48.7,29.91,SSW,202,6.3,6.3,75,0.00,,,0.00,VWS V14.01,2013-08-01 10:49:00,
2013-08-01 03:50:00,56.5,48.7,29.91,ESE,112,3.1,3.6,75,0.00,,,0.00,VWS V14.01,2013-08-01 10:50:00,
2013-08-01 03:51:00,56.5,48.7,29.91,SSE,158,3.1,5.4,75,0.00,,,0.00,VWS V14.01,2013-08-01 10:51:00,
2013-08-01 03:52:00,56.5,48.7,29.91,SSE,158,3.1,5.8,75,0.00,,,0.00,VWS V14.01,2013-08-01 10:52:00,
2013-08-01 03:53:00,56.5,48.7,29.91,SSW,202,6.3,6.3,75,0.00,,,0.00,VWS V14.01,2013-08-01 10:53:00,
2013-08-01 03:54:00,56.5,48.7,29.91,SSW,202,4.0,6.3,75,0.00,,,0.00,VWS V14.01,2013-08-01 10:54:00,
2013-08-01 03:55:00,56.5,48.7,29.91,South,180,2.2,4.0,75,0.00,,,0.00,VWS V14.01,2013-08-01 10:55:00,
2013-08-01 03:56:00,56.5,48.7,29.88,South,180,3.6,3.6,75,0.00,,,0.00,VWS V14.01,2013-08-01 10:56:00,
2013-08-01 03:57:00,56.5,48.7,29.88,South,180,0.0,6.3,75,0.00,,,0.00,VWS V14.01,2013-08-01 10:57:00,
2013-08-01 03:58:00,56.5,48.7,29.88,SSE,158,0.0,4.0,75,0.00,,,0.00,VWS V14.01,2013-08-01 10:58:00,
2013-08-01 03:59:00,56.5,48.7,29.88,SSE,158,3.6,3.6,75,0.00,,,0.00,VWS V14.01,2013-08-01 10:59:00,
2013-08-01 04:00:00,56.5,48.7,29.88,South,180,3.6,3.6,75,0.00,,,0.00,VWS V14.01,2013-08-01 11:00:00,
2013-08-01 04:01:00,56.5,48.7,29.88,SSE,158,3.6,3.6,75,0.00,,,0.00,VWS V14.01,2013-08-01 11:01:00,
2013-08-01 04:02:00,56.3,48.8,29.88,SSW,202,0.0,4.0,76,0.00,,,0.00,VWS V14.01,2013-08-01 11:02:00,
2013-08-01 04:03:00,56.5,49.0,29.88,SSW,202,0.0,3.6,76,0.00,,,0.00,VWS V14.01,2013-08-01 11:03:00,
2013-08-01 04:04:00,56.5,49.0,29.88,SSW,202,0.0,0.0,76,0.00,,,0.00,VWS V14.01,2013-08-01 11:04:00,
2013-08-01 04:05:00,56.3,48.8,29.88,SSW,202,3.6,4.0,76,0.00,,,0.00,VWS V14.01,2013-08-01 11:05:00,
2013-08-01 04:06:00,56.3,48.8,29.88,SSW,202,0.0,4.0,76,0.00,,,0.00,VWS V14.01,2013-08-01 11:06:00,
2013-08-01 04:07:00,56.3,48.8,29.88,SSW,202,0.0,2.7,76,0.00,,,0.00,VWS V14.01,2013-08-01 11:07:00,
2013-08-01 04:08:00,56.3,48.8,29.91,SSW,202,3.1,3.1,76,0.00,,,0.00,VWS V14.01,2013-08-01 11:08:00,
2013-08-01 04:09:00,56.3,48.8,29.88,SSW,202,3.6,7.2,76,0.00,,,0.00,VWS V14.01,2013-08-01 11:09:00,
2013-08-01 04:10:00,56.3,48.8,29.88,WNW,292,3.6,3.6,76,0.00,,,0.00,VWS V14.01,2013-08-01 11:10:00,
2013-08-01 04:11:00,56.3,48.8,29.91,ENE,68,0.0,3.6,76,0.00,,,0.00,VWS V14.01,2013-08-01 11:11:00,
2013-08-01 04:12:00,56.3,48.8,29.91,SSW,202,3.1,3.1,76,0.00,,,0.00,VWS V14.01,2013-08-01 11:12:00,
2013-08-01 04:13:00,56.3,48.8,29.91,South,180,3.6,5.8,76,0.00,,,0.00,VWS V14.01,2013-08-01 11:13:00,
2013-08-01 04:14:00,56.3,48.8,29.91,SSW,202,2.7,4.9,76,0.00,,,0.00,VWS V14.01,2013-08-01 11:14:00,
2013-08-01 04:15:00,56.3,48.8,29.91,SSE,158,4.9,6.3,76,0.00,,,0.00,VWS V14.01,2013-08-01 11:15:00,
2013-08-01 04:16:00,56.3,48.8,29.91,South,180,4.9,4.9,76,0.00,,,0.00,VWS V14.01,2013-08-01 11:16:00,
2013-08-01 04:17:00,56.3,48.8,29.91,South,180,3.6,5.8,76,0.00,,,0.00,VWS V14.01,2013-08-01 11:17:00,
2013-08-01 04:18:00,56.3,48.8,29.91,South,180,5.4,5.4,76,0.00,,,0.00,VWS V14.01,2013-08-01 11:18:00,
2013-08-01 04:19:00,56.3,48.8,29.91,South,180,2.7,3.6,76,0.00,,,0.00,VWS V14.01,2013-08-01 11:19:00,
2013-08-01 04:20:00,56.3,48.8,29.91,SSE,158,2.7,4.5,76,0.00,,,0.00,VWS V14.01,2013-08-01 11:20:00,
2013-08-01 04:21:00,56.3,48.8,29.91,SW,225,0.0,4.0,76,0.00,,,0.00,VWS V14.01,2013-08-01 11:21:00,
2013-08-01 04:22:00,56.3,48.8,29.91,South,180,5.4,5.4,76,0.00,,,0.00,VWS V14.01,2013-08-01 11:22:00,
2013-08-01 04:23:00,56.3,48.8,29.91,SW,225,0.0,2.7,76,0.00,,,0.00,VWS V14.01,2013-08-01 11:23:00,
2013-08-01 04:24:00,56.3,48.8,29.91,SE,135,0.0,6.3,76,0.00,,,0.00,VWS V14.01,2013-08-01 11:24:00,
2013-08-01 04:25:00,56.3,48.8,29.91,SSE,158,0.0,2.7,76,0.00,,,0.00,VWS V14.01,2013-08-01 11:25:00,
2013-08-01 04:26:00,56.3,48.8,29.91,SSE,158,4.9,4.9,76,0.00,,,0.00,VWS V14.01,2013-08-01 11:26:00,
2013-08-01 04:27:00,56.3,48.8,29.91,SW,225,2.7,4.9,76,0.00,,,0.00,VWS V14.01,2013-08-01 11:27:00,
2013-08-01 04:28:00,56.3,48.8,29.91,SSW,202,0.0,2.7,76,0.00,,,0.00,VWS V14.01,2013-08-01 11:28:00,
2013-08-01 04:29:00,56.3,48.8,29.91,West,270,0.0,0.0,76,0.00,,,0.00,VWS V14.01,2013-08-01 11:29:00,
2013-08-01 04:30:00,56.3,48.8,29.91,SW,225,0.0,2.2,76,0.00,,,0.00,VWS V14.01,2013-08-01 11:30:00,
2013-08-01 04:31:00,56.3,48.8,29.91,South,180,2.7,2.7,76,0.00,,,0.00,VWS V14.01,2013-08-01 11:31:00,
2013-08-01 04:32:00,56.3,48.8,29.91,West,270,0.0,3.1,76,0.00,,,0.00,VWS V14.01,2013-08-01 11:32:00,
2013-08-01 04:33:00,56.3,48.8,29.91,West,270,0.0,0.0,76,0.00,,,0.00,VWS V14.01,2013-08-01 11:33:00,
2013-08-01 04:34:00,56.3,48.8,29.91,SSE,158,0.0,0.0,76,0.00,,,0.00,VWS V14.01,2013-08-01 11:34:00,
2013-08-01 04:35:00,56.3,48.8,29.91,SSW,202,3.1,3.1,76,0.00,,,0.00,VWS V14.01,2013-08-01 11:35:00,
2013-08-01 04:36:00,56.3,48.8,29.91,North,0,3.6,3.6,76,0.00,,,0.00,VWS V14.01,2013-08-01 11:36:00,
2013-08-01 04:37:00,56.3,48.8,29.91,East,90,0.0,0.0,76,0.00,,,0.00,VWS V14.01,2013-08-01 11:37:00,
2013-08-01 04:38:00,56.3,48.8,29.91,SSE,158,5.8,5.8,76,0.00,,,0.00,VWS V14.01,2013-08-01 11:38:00,
2013-08-01 04:39:00,56.3,48.8,29.91,SSE,158,0.0,5.8,76,0.00,,,0.00,VWS V14.01,2013-08-01 11:39:00,
2013-08-01 04:40:00,56.3,48.8,29.91,South,180,2.7,2.7,76,0.00,,,0.00,VWS V14.01,2013-08-01 11:40:00,
2013-08-01 04:41:00,56.3,48.8,29.91,East,90,0.0,4.5,76,0.00,,,0.00,VWS V14.01,2013-08-01 11:41:00,
2013-08-01 04:42:00,56.3,48.8,29.91,SSW,202,2.2,2.2,76,0.00,,,0.00,VWS V14.01,2013-08-01 11:42:00,
2013-08-01 04:43:00,56.3,49.2,29.91,NNE,22,0.0,0.0,77,0.00,,,0.00,VWS V14.01,2013-08-01 11:43:00,
2013-08-01 04:44:00,56.3,48.8,29.91,SSE,158,3.6,3.6,76,0.00,,,0.00,VWS V14.01,2013-08-01 11:44:00,
2013-08-01 04:45:00,56.3,48.8,29.91,SSE,158,0.0,3.6,76,0.00,,,0.00,VWS V14.01,2013-08-01 11:45:00,
2013-08-01 04:46:00,56.3,48.8,29.91,SSE,158,0.0,0.0,76,0.00,,,0.00,VWS V14.01,2013-08-01 11:46:00,
2013-08-01 04:47:00,56.3,49.2,29.91,NNE,22,0.0,0.0,77,0.00,,,0.00,VWS V14.01,2013-08-01 11:47:00,
2013-08-01 04:48:00,56.1,49.0,29.91,SSW,202,4.0,4.9,77,0.00,,,0.00,VWS V14.01,2013-08-01 11:48:00,
2013-08-01 04:49:00,56.3,48.8,29.91,South,180,4.5,6.3,76,0.00,,,0.00,VWS V14.01,2013-08-01 11:49:00,
2013-08-01 04:52:00,56.3,49.2,29.91,SE,135,4.9,5.4,77,0.00,,,0.00,VWS V14.01,2013-08-01 11:52:00,
2013-08-01 04:53:00,56.1,49.0,29.91,SSW,202,2.7,4.9,77,0.00,,,0.00,VWS V14.01,2013-08-01 11:53:00,
2013-08-01 04:54:00,56.1,49.0,29.91,SSW,202,6.3,6.3,77,0.00,,,0.00,VWS V14.01,2013-08-01 11:54:00,
2013-08-01 04:55:00,56.1,49.0,29.91,SW,225,0.0,2.2,77,0.00,,,0.00,VWS V14.01,2013-08-01 11:55:00,
2013-08-01 04:56:00,56.1,49.0,29.91,NNW,338,0.0,2.2,77,0.00,,,0.00,VWS V14.01,2013-08-01 11:56:00,
2013-08-01 04:57:00,56.1,49.0,29.91,SSW,202,0.0,2.7,77,0.00,,,0.00,VWS V14.01,2013-08-01 11:57:00,
2013-08-01 04:58:00,56.1,49.0,29.91,South,180,4.9,6.3,77,0.00,,,0.00,VWS V14.01,2013-08-01 11:58:00,
2013-08-01 04:59:00,56.1,48.7,29.91,SSW,202,4.0,4.9,76,0.00,,,0.00,VWS V14.01,2013-08-01 11:59:00,
2013-08-01 05:00:00,56.1,49.0,29.91,SSE,158,3.6,6.7,77,0.00,,,0.00,VWS V14.01,2013-08-01 12:00:00,
2013-08-01 05:01:00,56.1,48.7,29.91,SE,135,3.6,3.6,76,0.00,,,0.00,VWS V14.01,2013-08-01 12:01:00,
2013-08-01 05:02:00,56.1,48.7,29.91,SSW,202,4.0,4.0,76,0.00,,,0.00,VWS V14.01,2013-08-01 12:02:00,
2013-08-01 05:03:00,56.1,48.7,29.91,South,180,3.1,4.9,76,0.00,,,0.00,VWS V14.01,2013-08-01 12:03:00,
2013-08-01 05:04:00,56.1,48.7,29.91,South,180,2.2,4.0,76,0.00,,,0.00,VWS V14.01,2013-08-01 12:04:00,
2013-08-01 05:05:00,56.1,48.7,29.91,SSE,158,6.3,7.6,76,0.00,,,0.00,VWS V14.01,2013-08-01 12:05:00,
2013-08-01 05:06:00,56.1,48.7,29.91,WSW,248,4.0,6.3,76,0.00,,,0.00,VWS V14.01,2013-08-01 12:06:00,
2013-08-01 05:08:00,56.1,48.7,29.91,South,180,2.2,4.0,76,0.00,,,0.00,VWS V14.01,2013-08-01 12:08:00,
2013-08-01 05:09:00,56.1,48.7,29.91,South,180,2.2,2.2,76,0.00,,,0.00,VWS V14.01,2013-08-01 12:09:00,
2013-08-01 05:10:00,56.1,48.7,29.91,SSE,158,3.1,3.1,76,0.00,,,0.00,VWS V14.01,2013-08-01 12:10:00,
2013-08-01 05:11:00,56.1,48.7,29.91,SSE,158,0.0,3.1,76,0.00,,,0.00,VWS V14.01,2013-08-01 12:11:00,
2013-08-01 05:12:00,56.1,48.7,29.91,SSW,202,0.0,5.4,76,0.00,,,0.00,VWS V14.01,2013-08-01 12:12:00,
2013-08-01 05:13:00,56.1,48.7,29.91,South,180,0.0,0.0,76,0.00,,,0.00,VWS V14.01,2013-08-01 12:13:00,
2013-08-01 05:14:00,56.1,48.7,29.91,SSE,158,0.0,2.2,76,0.00,,,0.00,VWS V14.01,2013-08-01 12:14:00,
2013-08-01 05:15:00,56.3,48.8,29.91,SSE,158,4.0,4.9,76,0.00,,,0.00,VWS V14.01,2013-08-01 12:15:00,
2013-08-01 05:16:00,56.3,48.8,29.91,SSW,202,2.7,3.1,76,0.00,,,0.00,VWS V14.01,2013-08-01 12:16:00,
2013-08-01 05:17:00,56.3,48.8,29.91,South,180,4.9,5.4,76,0.00,,,0.00,VWS V14.01,2013-08-01 12:17:00,
2013-08-01 05:18:00,56.3,48.8,29.91,SSE,158,4.0,4.9,76,0.00,,,0.00,VWS V14.01,2013-08-01 12:18:00,
2013-08-01 05:19:00,56.3,48.8,29.91,South,180,3.1,4.0,76,0.00,,,0.00,VWS V14.01,2013-08-01 12:19:00,
2013-08-01 05:20:00,56.3,48.8,29.91,SW,225,3.1,3.6,76,0.00,,,0.00,VWS V14.01,2013-08-01 12:20:00,
2013-08-01 05:21:00,56.3,48.8,29.91,WSW,248,3.1,8.3,76,0.00,,,0.00,VWS V14.01,2013-08-01 12:21:00,
2013-08-01 05:22:00,56.3,48.8,29.91,SE,135,0.0,4.5,76,0.00,,,0.00,VWS V14.01,2013-08-01 12:22:00,
2013-08-01 05:23:00,56.3,48.8,29.91,South,180,3.1,5.4,76,0.00,,,0.00,VWS V14.01,2013-08-01 12:23:00,
2013-08-01 05:24:00,56.3,48.8,29.91,SW,225,3.1,3.6,76,0.00,,,0.00,VWS V14.01,2013-08-01 12:24:00,
2013-08-01 05:25:00,56.3,48.8,29.91,SSE,158,3.6,4.9,76,0.00,,,0.00,VWS V14.01,2013-08-01 12:25:00,
2013-08-01 05:26:00,56.3,48.8,29.91,SSW,202,0.0,2.7,76,0.00,,,0.00,VWS V14.01,2013-08-01 12:26:00,
2013-08-01 05:27:00,56.3,48.8,29.91,SSW,202,0.0,2.7,76,0.00,,,0.00,VWS V14.01,2013-08-01 12:27:00,
2013-08-01 05:28:00,56.3,48.8,29.91,East,90,0.0,0.0,76,0.00,,,0.00,VWS V14.01,2013-08-01 12:28:00,
2013-08-01 05:29:00,56.3,48.8,29.91,SSE,158,3.6,4.9,76,0.00,,,0.00,VWS V14.01,2013-08-01 12:29:00,
2013-08-01 05:30:00,56.3,48.8,29.91,WSW,248,0.0,3.6,76,0.00,,,0.00,VWS V14.01,2013-08-01 12:30:00,
2013-08-01 05:31:00,56.3,48.8,29.91,ESE,112,0.0,2.7,76,0.00,,,0.00,VWS V14.01,2013-08-01 12:31:00,
2013-08-01 05:32:00,56.3,48.8,29.91,SSE,158,2.7,3.6,76,0.00,,,0.00,VWS V14.01,2013-08-01 12:32:00,
2013-08-01 05:33:00,56.3,48.8,29.91,SSW,202,3.1,3.1,76,0.00,,,0.00,VWS V14.01,2013-08-01 12:33:00,
2013-08-01 05:34:00,56.3,48.8,29.91,SSE,158,2.7,3.6,76,0.00,,,0.00,VWS V14.01,2013-08-01 12:34:00,
2013-08-01 05:35:00,56.3,48.8,29.91,SSW,202,2.7,3.6,76,0.00,,,0.00,VWS V14.01,2013-08-01 12:35:00,
2013-08-01 05:36:00,56.3,48.8,29.91,SSW,202,0.0,2.7,76,0.00,,,0.00,VWS V14.01,2013-08-01 12:36:00,
2013-08-01 05:37:00,56.3,48.8,29.91,ESE,112,2.2,2.7,76,0.00,,,0.00,VWS V14.01,2013-08-01 12:37:00,
2013-08-01 05:38:00,56.3,48.8,29.91,SSE,158,2.7,3.6,76,0.00,,,0.00,VWS V14.01,2013-08-01 12:38:00,
2013-08-01 05:39:00,56.3,48.8,29.91,South,180,2.7,3.6,76,0.00,,,0.00,VWS V14.01,2013-08-01 12:39:00,
2013-08-01 05:40:00,56.5,49.0,29.91,SSW,202,4.9,4.9,76,0.00,,,0.00,VWS V14.01,2013-08-01 12:40:00,
2013-08-01 05:41:00,56.5,49.0,29.91,NW,315,2.2,5.8,76,0.00,,,0.00,VWS V14.01,2013-08-01 12:41:00,
2013-08-01 05:42:00,56.5,49.0,29.91,SSE,158,2.7,2.7,76,0.00,,,0.00,VWS V14.01,2013-08-01 12:42:00,
2013-08-01 05:43:00,56.3,48.8,29.91,ESE,112,2.7,5.4,76,0.00,,,0.00,VWS V14.01,2013-08-01 12:43:00,
2013-08-01 05:44:00,56.3,48.8,29.91,SSE,158,2.7,4.0,76,0.00,,,0.00,VWS V14.01,2013-08-01 12:44:00,
2013-08-01 05:45:00,56.5,49.0,29.91,SSW,202,2.7,2.7,76,0.00,,,0.00,VWS V14.01,2013-08-01 12:45:00,
2013-08-01 05:46:00,56.5,49.0,29.91,South,180,0.0,3.1,76,0.00,,,0.00,VWS V14.01,2013-08-01 12:46:00,
2013-08-01 05:47:00,56.5,49.0,29.91,SSW,202,0.0,3.1,76,0.00,,,0.00,VWS V14.01,2013-08-01 12:47:00,
2013-08-01 05:48:00,56.5,49.0,29.91,SW,225,2.7,4.0,76,0.00,,,0.00,VWS V14.01,2013-08-01 12:48:00,
2013-08-01 05:49:00,56.5,49.0,29.91,SSW,202,2.7,2.7,76,0.00,,,0.00,VWS V14.01,2013-08-01 12:49:00,
2013-08-01 05:50:00,56.5,49.0,29.91,SSW,202,0.0,5.8,76,0.00,,,0.00,VWS V14.01,2013-08-01 12:50:00,
2013-08-01 05:51:00,56.5,49.0,29.91,WSW,248,0.0,2.7,76,0.00,,,0.00,VWS V14.01,2013-08-01 12:51:00,
2013-08-01 05:52:00,56.5,49.0,29.91,South,180,4.9,4.9,76,0.00,,,0.00,VWS V14.01,2013-08-01 12:52:00,
2013-08-01 05:53:00,56.5,49.0,29.91,South,180,5.8,5.8,76,0.00,,,0.00,VWS V14.01,2013-08-01 12:53:00,
2013-08-01 05:54:00,56.5,49.0,29.91,SSW,202,0.0,5.8,76,0.00,,,0.00,VWS V14.01,2013-08-01 12:54:00,
2013-08-01 05:55:00,56.7,49.2,29.91,SSE,158,3.1,4.0,76,0.00,,,0.00,VWS V14.01,2013-08-01 12:55:00,
2013-08-01 05:56:00,56.5,49.0,29.91,SSE,158,0.0,4.0,76,0.00,,,0.00,VWS V14.01,2013-08-01 12:56:00,
2013-08-01 05:57:00,56.5,49.0,29.91,SSE,158,2.7,4.0,76,0.00,,,0.00,VWS V14.01,2013-08-01 12:57:00,
2013-08-01 05:58:00,56.7,49.2,29.91,SSE,158,4.0,4.0,76,0.00,,,0.00,VWS V14.01,2013-08-01 12:58:00,
2013-08-01 05:59:00,56.7,49.2,29.91,SSE,158,3.1,4.0,76,0.00,,,0.00,VWS V14.01,2013-08-01 12:59:00,
2013-08-01 06:00:00,56.7,49.2,29.91,SSW,202,2.7,3.6,76,0.00,,,0.00,VWS V14.01,2013-08-01 13:00:00,
2013-08-01 06:01:00,56.7,49.2,29.91,SSW,202,0.0,0.0,76,0.00,,,0.00,VWS V14.01,2013-08-01 13:01:00,
2013-08-01 06:02:00,56.7,49.2,29.91,SSE,158,0.0,3.1,76,0.00,,,0.00,VWS V14.01,2013-08-01 13:02:00,
2013-08-01 06:03:00,56.7,49.2,29.91,South,180,2.7,5.4,76,0.00,,,0.00,VWS V14.01,2013-08-01 13:03:00,
2013-08-01 06:04:00,56.7,49.2,29.91,SSE,158,4.9,5.4,76,0.00,,,0.00,VWS V14.01,2013-08-01 13:04:00,
2013-08-01 06:05:00,56.7,49.2,29.91,SSW,202,0.0,4.9,76,0.00,,,0.00,VWS V14.01,2013-08-01 13:05:00,
2013-08-01 06:06:00,56.7,49.2,29.91,SSE,158,4.0,4.0,76,0.00,,,0.00,VWS V14.01,2013-08-01 13:06:00,
2013-08-01 06:07:00,56.7,49.2,29.91,SSW,202,3.1,3.1,76,0.00,,,0.00,VWS V14.01,2013-08-01 13:07:00,
2013-08-01 06:08:00,56.7,49.2,29.91,ESE,112,4.9,4.9,76,0.00,,,0.00,VWS V14.01,2013-08-01 13:08:00,
2013-08-01 06:09:00,56.7,49.2,29.91,ESE,112,3.1,5.4,76,0.00,,,0.00,VWS V14.01,2013-08-01 13:09:00,
2013-08-01 06:10:00,56.7,49.2,29.91,SSW,202,2.7,4.0,76,0.00,,,0.00,VWS V14.01,2013-08-01 13:10:00,
2013-08-01 06:11:00,56.5,48.7,29.91,South,180,2.2,3.1,75,0.00,,,0.00,VWS V14.01,2013-08-01 13:11:00,
2013-08-01 06:12:00,56.5,48.7,29.91,SSE,158,3.1,4.0,75,0.00,,,0.00,VWS V14.01,2013-08-01 13:12:00,
2013-08-01 06:13:00,56.7,48.8,29.91,South,180,4.0,4.5,75,0.00,,,0.00,VWS V14.01,2013-08-01 13:13:00,
2013-08-01 06:14:00,56.5,48.7,29.91,South,180,3.1,4.0,75,0.00,,,0.00,VWS V14.01,2013-08-01 13:14:00,
2013-08-01 06:15:00,56.5,48.7,29.91,ESE,112,3.1,3.6,75,0.00,,,0.00,VWS V14.01,2013-08-01 13:15:00,
2013-08-01 06:16:00,56.7,48.8,29.91,SSW,202,3.6,3.6,75,0.00,,,0.00,VWS V14.01,2013-08-01 13:16:00,
2013-08-01 06:17:00,56.7,48.8,29.91,South,180,3.6,3.6,75,0.00,,,0.00,VWS V14.01,2013-08-01 13:17:00,
2013-08-01 06:18:00,56.7,48.8,29.91,NNE,22,3.1,3.1,75,0.00,,,0.00,VWS V14.01,2013-08-01 13:18:00,
2013-08-01 06:19:00,56.7,48.8,29.91,ENE,68,0.0,3.6,75,0.00,,,0.00,VWS V14.01,2013-08-01 13:19:00,
2013-08-01 06:20:00,56.7,48.8,29.91,WSW,248,0.0,2.7,75,0.00,,,0.00,VWS V14.01,2013-08-01 13:20:00,
2013-08-01 06:21:00,56.7,48.8,29.91,South,180,3.6,3.6,75,0.00,,,0.00,VWS V14.01,2013-08-01 13:21:00,
2013-08-01 06:22:00,56.7,48.8,29.91,South,180,4.9,4.9,75,0.00,,,0.00,VWS V14.01,2013-08-01 13:22:00,
2013-08-01 06:23:00,56.7,48.8,29.91,SW,225,2.2,3.1,75,0.00,,,0.00,VWS V14.01,2013-08-01 13:23:00,
2013-08-01 06:24:00,56.7,48.8,29.91,SW,225,0.0,2.2,75,0.00,,,0.00,VWS V14.01,2013-08-01 13:24:00,
2013-08-01 06:25:00,56.7,48.8,29.91,ENE,68,0.0,0.0,75,0.00,,,0.00,VWS V14.01,2013-08-01 13:25:00,
2013-08-01 06:26:00,56.7,48.8,29.91,South,180,4.9,4.9,75,0.00,,,0.00,VWS V14.01,2013-08-01 13:26:00,
2013-08-01 06:27:00,56.7,48.8,29.91,WSW,248,2.7,3.1,75,0.00,,,0.00,VWS V14.01,2013-08-01 13:27:00,
2013-08-01 06:28:00,56.8,49.0,29.91,ESE,112,0.0,3.1,75,0.00,,,0.00,VWS V14.01,2013-08-01 13:28:00,
2013-08-01 06:29:00,56.7,48.8,29.91,SSW,202,2.7,3.1,75,0.00,,,0.00,VWS V14.01,2013-08-01 13:29:00,
2013-08-01 06:30:00,56.7,48.8,29.91,South,180,0.0,3.1,75,0.00,,,0.00,VWS V14.01,2013-08-01 13:30:00,
2013-08-01 06:31:00,56.7,48.8,29.91,WSW,248,2.7,3.1,75,0.00,,,0.00,VWS V14.01,2013-08-01 13:31:00,
2013-08-01 06:32:00,56.7,48.8,29.91,SSW,202,2.7,3.6,75,0.00,,,0.00,VWS V14.01,2013-08-01 13:32:00,
2013-08-01 06:33:00,56.7,48.8,29.91,SSE,158,2.2,4.0,75,0.00,,,0.00,VWS V14.01,2013-08-01 13:33:00,
2013-08-01 06:34:00,56.7,48.8,29.91,SSW,202,4.0,5.4,75,0.00,,,0.00,VWS V14.01,2013-08-01 13:34:00,
2013-08-01 06:35:00,56.7,48.8,29.91,SSE,158,3.6,4.0,75,0.00,,,0.00,VWS V14.01,2013-08-01 13:35:00,
2013-08-01 06:36:00,56.7,48.8,29.91,SSW,202,0.0,3.6,75,0.00,,,0.00,VWS V14.01,2013-08-01 13:36:00,
2013-08-01 06:37:00,56.7,48.8,29.91,SSE,158,2.2,4.0,75,0.00,,,0.00,VWS V14.01,2013-08-01 13:37:00,
2013-08-01 06:38:00,56.7,48.8,29.91,SSW,202,0.0,3.1,75,0.00,,,0.00,VWS V14.01,2013-08-01 13:38:00,
2013-08-01 06:39:00,56.7,48.8,29.91,SSW,202,2.7,5.8,75,0.00,,,0.00,VWS V14.01,2013-08-01 13:39:00,
2013-08-01 06:40:00,56.7,48.8,29.91,South,180,8.3,8.3,75,0.00,,,0.00,VWS V14.01,2013-08-01 13:40:00,
2013-08-01 06:41:00,56.7,48.8,29.91,WSW,248,2.7,8.3,75,0.00,,,0.00,VWS V14.01,2013-08-01 13:41:00,
2013-08-01 06:42:00,56.7,48.8,29.91,SSW,202,0.0,3.1,75,0.00,,,0.00,VWS V14.01,2013-08-01 13:42:00,
2013-08-01 06:43:00,56.5,48.7,29.91,SSE,158,3.1,5.8,75,0.00,,,0.00,VWS V14.01,2013-08-01 13:43:00,
2013-08-01 06:44:00,56.7,48.8,29.91,SSW,202,5.8,5.8,75,0.00,,,0.00,VWS V14.01,2013-08-01 13:44:00,
2013-08-01 06:45:00,56.7,48.8,29.91,SSW,202,4.0,5.8,75,0.00,,,0.00,VWS V14.01,2013-08-01 13:45:00,
2013-08-01 06:46:00,56.5,48.7,29.91,South,180,5.8,7.2,75,0.00,,,0.00,VWS V14.01,2013-08-01 13:46:00,
2013-08-01 06:47:00,56.5,48.7,29.91,WSW,248,3.6,5.8,75,0.00,,,0.00,VWS V14.01,2013-08-01 13:47:00,
2013-08-01 06:48:00,56.5,48.7,29.91,WSW,248,3.6,3.6,75,0.00,,,0.00,VWS V14.01,2013-08-01 13:48:00,
2013-08-01 06:49:00,56.7,48.8,29.91,South,180,2.7,7.6,75,0.00,,,0.00,VWS V14.01,2013-08-01 13:49:00,
2013-08-01 06:50:00,56.5,48.7,29.91,South,180,3.1,3.6,75,0.00,,,0.00,VWS V14.01,2013-08-01 13:50:00,
2013-08-01 06:51:00,56.7,48.8,29.91,ESE,112,0.0,3.1,75,0.00,,,0.00,VWS V14.01,2013-08-01 13:51:00,
2013-08-01 06:52:00,56.7,48.8,29.91,ESE,112,7.6,7.6,75,0.00,,,0.00,VWS V14.01,2013-08-01 13:52:00,
2013-08-01 06:53:00,56.7,48.8,29.91,South,180,2.7,7.6,75,0.00,,,0.00,VWS V14.01,2013-08-01 13:53:00,
2013-08-01 06:54:00,56.5,48.3,29.94,SW,225,0.0,3.1,74,0.00,,,0.00,VWS V14.01,2013-08-01 13:54:00,
2013-08-01 06:55:00,56.7,48.8,29.91,SSW,202,4.9,4.9,75,0.00,,,0.00,VWS V14.01,2013-08-01 13:55:00,
2013-08-01 06:56:00,56.5,48.3,29.91,South,180,3.1,4.9,74,0.00,,,0.00,VWS V14.01,2013-08-01 13:56:00,
2013-08-01 06:57:00,56.5,48.3,29.94,SW,225,3.1,4.0,74,0.00,,,0.00,VWS V14.01,2013-08-01 13:57:00,
2013-08-01 06:58:00,56.5,48.3,29.94,SW,225,0.0,3.1,74,0.00,,,0.00,VWS V14.01,2013-08-01 13:58:00,
2013-08-01 06:59:00,56.5,48.3,29.94,SSW,202,2.2,2.2,74,0.00,,,0.00,VWS V14.01,2013-08-01 13:59:00,
2013-08-01 07:00:00,56.7,48.5,29.94,SSW,202,0.0,4.0,74,0.00,,,0.00,VWS V14.01,2013-08-01 14:00:00,
2013-08-01 07:01:00,56.5,48.3,29.94,NE,45,2.2,4.0,74,0.00,,,0.00,VWS V14.01,2013-08-01 14:01:00,
2013-08-01 07:02:00,56.5,48.3,29.94,NE,45,0.0,2.2,74,0.00,,,0.00,VWS V14.01,2013-08-01 14:02:00,
2013-08-01 07:03:00,56.7,48.5,29.94,SSW,202,3.1,3.1,74,0.00,,,0.00,VWS V14.01,2013-08-01 14:03:00,
2013-08-01 07:05:00,56.7,48.5,29.94,SSW,202,0.0,4.0,74,0.00,,,0.00,VWS V14.01,2013-08-01 14:05:00,
2013-08-01 07:06:00,56.8,48.7,29.94,SW,225,3.1,7.6,74,0.00,,,0.00,VWS V14.01,2013-08-01 14:06:00,
2013-08-01 07:07:00,56.7,48.5,29.94,SSE,158,3.1,4.9,74,0.00,,,0.00,VWS V14.01,2013-08-01 14:07:00,
2013-08-01 07:08:00,56.7,48.5,29.94,South,180,3.6,5.4,74,0.00,,,0.00,VWS V14.01,2013-08-01 14:08:00,
2013-08-01 07:09:00,56.7,48.5,29.94,SSW,202,2.2,3.6,74,0.00,,,0.00,VWS V14.01,2013-08-01 14:09:00,
2013-08-01 07:10:00,56.7,48.5,29.94,SSW,202,2.7,4.0,74,0.00,,,0.00,VWS V14.01,2013-08-01 14:10:00,
2013-08-01 07:11:00,56.8,48.7,29.94,WSW,248,2.2,3.1,74,0.00,,,0.00,VWS V14.01,2013-08-01 14:11:00,
2013-08-01 07:12:00,56.8,48.7,29.94,SSW,202,5.4,5.4,74,0.00,,,0.00,VWS V14.01,2013-08-01 14:12:00,
2013-08-01 07:13:00,56.7,48.5,29.94,SW,225,3.6,5.4,74,0.00,,,0.00,VWS V14.01,2013-08-01 14:13:00,
2013-08-01 07:14:00,56.7,48.5,29.94,South,180,2.2,3.6,74,0.00,,,0.00,VWS V14.01,2013-08-01 14:14:00,
2013-08-01 07:15:00,56.8,48.7,29.94,South,180,2.7,2.7,74,0.00,,,0.00,VWS V14.01,2013-08-01 14:15:00,
2013-08-01 07:16:00,56.8,48.7,29.94,WSW,248,4.0,4.0,74,0.00,,,0.00,VWS V14.01,2013-08-01 14:16:00,
2013-08-01 07:17:00,56.8,48.7,29.94,SSE,158,0.0,4.9,74,0.00,,,0.00,VWS V14.01,2013-08-01 14:17:00,
2013-08-01 07:18:00,56.8,48.7,29.94,SSE,158,4.0,4.9,74,0.00,,,0.00,VWS V14.01,2013-08-01 14:18:00,
2013-08-01 07:19:00,56.8,48.7,29.94,SSW,202,3.1,4.9,74,0.00,,,0.00,VWS V14.01,2013-08-01 14:19:00,
2013-08-01 07:20:00,56.8,48.7,29.94,ENE,68,0.0,3.6,74,0.00,,,0.00,VWS V14.01,2013-08-01 14:20:00,
2013-08-01 07:21:00,56.8,48.7,29.94,WSW,248,4.0,4.0,74,0.00,,,0.00,VWS V14.01,2013-08-01 14:21:00,
2013-08-01 07:22:00,57.0,48.8,29.94,SSE,158,3.6,4.0,74,0.00,,,0.00,VWS V14.01,2013-08-01 14:22:00,
2013-08-01 07:23:00,57.0,48.8,29.94,SSW,202,3.1,3.6,74,0.00,,,0.00,VWS V14.01,2013-08-01 14:23:00,
2013-08-01 07:24:00,57.0,48.5,29.94,SW,225,0.0,0.0,73,0.00,,,0.00,VWS V14.01,2013-08-01 14:24:00,
2013-08-01 07:25:00,56.8,48.7,29.94,SSW,202,2.2,3.1,74,0.00,,,0.00,VWS V14.01,2013-08-01 14:25:00,
2013-08-01 07:26:00,56.8,48.3,29.94,SSE,158,2.7,4.0,73,0.00,,,0.00,VWS V14.01,2013-08-01 14:26:00,
2013-08-01 07:27:00,57.0,48.5,29.94,South,180,3.6,3.6,73,0.00,,,0.00,VWS V14.01,2013-08-01 14:27:00,
2013-08-01 07:28:00,57.0,48.5,29.94,WSW,248,2.7,3.6,73,0.00,,,0.00,VWS V14.01,2013-08-01 14:28:00,
2013-08-01 07:29:00,57.0,48.5,29.94,WSW,248,0.0,2.7,73,0.00,,,0.00,VWS V14.01,2013-08-01 14:29:00,
2013-08-01 07:30:00,57.0,48.5,29.94,SSW,202,7.2,7.2,73,0.00,,,0.00,VWS V14.01,2013-08-01 14:30:00,
2013-08-01 07:31:00,57.0,48.5,29.94,SSE,158,2.7,7.2,73,0.00,,,0.00,VWS V14.01,2013-08-01 14:31:00,
2013-08-01 07:32:00,57.2,48.3,29.94,WSW,248,2.2,2.7,72,0.00,,,0.00,VWS V14.01,2013-08-01 14:32:00,
2013-08-01 07:33:00,57.0,48.5,29.94,SSW,202,4.0,6.3,73,0.00,,,0.00,VWS V14.01,2013-08-01 14:33:00,
2013-08-01 07:34:00,57.0,48.5,29.94,ESE,112,2.7,4.0,73,0.00,,,0.00,VWS V14.01,2013-08-01 14:34:00,
2013-08-01 07:35:00,57.2,48.6,29.94,SSW,202,3.6,3.6,73,0.00,,,0.00,VWS V14.01,2013-08-01 14:35:00,
2013-08-01 07:36:00,57.2,48.3,29.94,South,180,2.7,4.0,72,0.00,,,0.00,VWS V14.01,2013-08-01 14:36:00,
2013-08-01 07:37:00,57.2,48.3,29.94,SW,225,3.6,3.6,72,0.00,,,0.00,VWS V14.01,2013-08-01 14:37:00,
2013-08-01 07:38:00,57.2,48.3,29.94,SSW,202,3.1,4.0,72,0.00,,,0.00,VWS V14.01,2013-08-01 14:38:00,
2013-08-01 07:39:00,57.2,48.3,29.94,NE,45,2.2,4.0,72,0.00,,,0.00,VWS V14.01,2013-08-01 14:39:00,
2013-08-01 07:40:00,57.2,48.3,29.94,ESE,112,0.0,2.7,72,0.00,,,0.00,VWS V14.01,2013-08-01 14:40:00,
2013-08-01 07:41:00,57.2,48.3,29.94,South,180,2.2,3.6,72,0.00,,,0.00,VWS V14.01,2013-08-01 14:41:00,
2013-08-01 07:42:00,57.4,48.4,29.94,SSE,158,3.6,7.6,72,0.00,,,0.00,VWS V14.01,2013-08-01 14:42:00,
2013-08-01 07:43:00,57.2,48.3,29.94,SSW,202,2.7,3.6,72,0.00,,,0.00,VWS V14.01,2013-08-01 14:43:00,
2013-08-01 07:44:00,57.2,48.3,29.94,SW,225,6.3,6.3,72,0.00,,,0.00,VWS V14.01,2013-08-01 14:44:00,
2013-08-01 07:45:00,57.2,48.3,29.94,SSE,158,2.7,6.3,72,0.00,,,0.00,VWS V14.01,2013-08-01 14:45:00,
2013-08-01 07:46:00,57.4,48.4,29.94,South,180,7.6,8.1,72,0.00,,,0.00,VWS V14.01,2013-08-01 14:46:00,
2013-08-01 07:47:00,57.2,47.9,29.94,SSW,202,4.9,10.5,71,0.00,,,0.00,VWS V14.01,2013-08-01 14:47:00,
2013-08-01 07:48:00,57.2,48.3,29.94,SSE,158,5.8,9.2,72,0.00,,,0.00,VWS V14.01,2013-08-01 14:48:00,
2013-08-01 07:49:00,57.2,47.9,29.94,SSW,202,0.0,5.8,71,0.00,,,0.00,VWS V14.01,2013-08-01 14:49:00,
2013-08-01 07:50:00,57.2,47.9,29.94,SSW,202,6.3,6.3,71,0.00,,,0.00,VWS V14.01,2013-08-01 14:50:00,
2013-08-01 07:51:00,57.2,47.9,29.94,SSW,202,4.9,10.5,71,0.00,,,0.00,VWS V14.01,2013-08-01 14:51:00,
2013-08-01 07:52:00,57.2,47.9,29.94,South,180,8.3,8.3,71,0.00,,,0.00,VWS V14.01,2013-08-01 14:52:00,
2013-08-01 07:53:00,57.0,48.1,29.94,SE,135,3.1,6.3,72,0.00,,,0.00,VWS V14.01,2013-08-01 14:53:00,
2013-08-01 07:54:00,57.2,47.9,29.94,SSE,158,4.9,4.9,71,0.00,,,0.00,VWS V14.01,2013-08-01 14:54:00,
2013-08-01 07:55:00,57.2,47.9,29.94,SSE,158,4.0,5.8,71,0.00,,,0.00,VWS V14.01,2013-08-01 14:55:00,
2013-08-01 07:56:00,57.0,48.1,29.94,SSW,202,6.3,6.3,72,0.00,,,0.00,VWS V14.01,2013-08-01 14:56:00,
2013-08-01 07:57:00,57.0,48.1,29.94,SE,135,3.1,6.3,72,0.00,,,0.00,VWS V14.01,2013-08-01 14:57:00,
2013-08-01 07:58:00,57.0,48.1,29.94,SW,225,4.9,6.3,72,0.00,,,0.00,VWS V14.01,2013-08-01 14:58:00,
2013-08-01 07:59:00,57.0,48.1,29.94,SSE,158,2.2,4.9,72,0.00,,,0.00,VWS V14.01,2013-08-01 14:59:00,
2013-08-01 08:00:00,57.0,48.1,29.94,SSE,158,8.7,8.7,72,0.00,,,0.00,VWS V14.01,2013-08-01 15:00:00,
2013-08-01 08:01:00,57.0,48.1,29.94,ESE,112,0.0,8.7,72,0.00,,,0.00,VWS V14.01,2013-08-01 15:01:00,
2013-08-01 08:02:00,57.0,48.1,29.94,SW,225,4.9,6.3,72,0.00,,,0.00,VWS V14.01,2013-08-01 15:02:00,
2013-08-01 08:03:00,57.0,48.1,29.94,SSE,158,5.4,5.4,72,0.00,,,0.00,VWS V14.01,2013-08-01 15:03:00,
2013-08-01 08:04:00,57.0,48.1,29.94,SSW,202,4.0,4.0,72,0.00,,,0.00,VWS V14.01,2013-08-01 15:04:00,
2013-08-01 08:05:00,57.0,48.1,29.94,SE,135,6.3,6.3,72,0.00,,,0.00,VWS V14.01,2013-08-01 15:05:00,
2013-08-01 08:06:00,57.0,48.1,29.94,SSW,202,4.9,6.3,72,0.00,,,0.00,VWS V14.01,2013-08-01 15:06:00,
2013-08-01 08:07:00,57.0,48.1,29.94,SSW,202,3.1,4.9,72,0.00,,,0.00,VWS V14.01,2013-08-01 15:07:00,
2013-08-01 08:08:00,57.0,48.1,29.94,SSW,202,3.1,4.0,72,0.00,,,0.00,VWS V14.01,2013-08-01 15:08:00,
2013-08-01 08:09:00,57.0,48.1,29.94,SW,225,4.0,4.0,72,0.00,,,0.00,VWS V14.01,2013-08-01 15:09:00,
2013-08-01 08:10:00,57.0,48.1,29.94,SE,135,2.7,4.9,72,0.00,,,0.00,VWS V14.01,2013-08-01 15:10:00,
2013-08-01 08:11:00,57.0,48.1,29.94,North,0,0.0,3.6,72,0.00,,,0.00,VWS V14.01,2013-08-01 15:11:00,
2013-08-01 08:12:00,57.2,47.9,29.94,SSE,158,2.7,6.3,71,0.00,,,0.00,VWS V14.01,2013-08-01 15:12:00,
2013-08-01 08:13:00,57.0,48.1,29.94,SW,225,4.0,4.0,72,0.00,,,0.00,VWS V14.01,2013-08-01 15:13:00,
2013-08-01 08:14:00,57.2,47.9,29.94,SSE,158,4.0,5.4,71,0.00,,,0.00,VWS V14.01,2013-08-01 15:14:00,
2013-08-01 08:15:00,57.2,47.9,29.94,ESE,112,3.1,3.1,71,0.00,,,0.00,VWS V14.01,2013-08-01 15:15:00,
2013-08-01 08:16:00,57.0,48.1,29.94,ESE,112,2.2,6.3,72,0.00,,,0.00,VWS V14.01,2013-08-01 15:16:00,
2013-08-01 08:17:00,57.2,47.9,29.94,SSE,158,0.0,2.2,71,0.00,,,0.00,VWS V14.01,2013-08-01 15:17:00,
2013-08-01 08:18:00,57.2,47.9,29.94,SSE,158,2.2,5.4,71,0.00,,,0.00,VWS V14.01,2013-08-01 15:18:00,
2013-08-01 08:19:00,57.2,47.9,29.94,SW,225,4.0,4.0,71,0.00,,,0.00,VWS V14.01,2013-08-01 15:19:00,
2013-08-01 08:20:00,57.2,47.9,29.94,SSW,202,5.4,5.4,71,0.00,,,0.00,VWS V14.01,2013-08-01 15:20:00,
2013-08-01 08:21:00,57.2,47.9,29.94,SSE,158,0.0,0.0,71,0.00,,,0.00,VWS V14.01,2013-08-01 15:21:00,
2013-08-01 08:22:00,57.2,47.9,29.94,WNW,292,0.0,3.6,71,0.00,,,0.00,VWS V14.01,2013-08-01 15:22:00,
2013-08-01 08:23:00,57.2,47.9,29.94,WSW,248,3.1,3.1,71,0.00,,,0.00,VWS V14.01,2013-08-01 15:23:00,
2013-08-01 08:24:00,57.2,47.9,29.94,WNW,292,3.6,4.9,71,0.00,,,0.00,VWS V14.01,2013-08-01 15:24:00,
2013-08-01 08:25:00,57.2,47.9,29.94,SSE,158,0.0,3.6,71,0.00,,,0.00,VWS V14.01,2013-08-01 15:25:00,
2013-08-01 08:26:00,57.2,47.9,29.94,SSW,202,3.1,4.9,71,0.00,,,0.00,VWS V14.01,2013-08-01 15:26:00,
2013-08-01 08:27:00,57.4,48.1,29.94,SSW,202,2.2,2.2,71,0.00,,,0.00,VWS V14.01,2013-08-01 15:27:00,
2013-08-01 08:28:00,57.4,48.1,29.94,ENE,68,0.0,0.0,71,0.00,,,0.00,VWS V14.01,2013-08-01 15:28:00,
2013-08-01 08:29:00,57.4,48.1,29.94,SSE,158,2.7,2.7,71,0.00,,,0.00,VWS V14.01,2013-08-01 15:29:00,
2013-08-01 08:30:00,57.4,48.1,29.94,East,90,0.0,2.7,71,0.00,,,0.00,VWS V14.01,2013-08-01 15:30:00,
2013-08-01 08:31:00,57.4,48.1,29.94,SSW,202,2.2,2.2,71,0.00,,,0.00,VWS V14.01,2013-08-01 15:31:00,
2013-08-01 08:32:00,57.6,48.2,29.94,SSW,202,2.7,5.4,71,0.00,,,0.00,VWS V14.01,2013-08-01 15:32:00,
2013-08-01 08:33:00,57.4,47.7,29.94,NNW,338,4.0,4.0,70,0.00,,,0.00,VWS V14.01,2013-08-01 15:33:00,
2013-08-01 08:34:00,57.4,47.7,29.94,South,180,3.1,3.1,70,0.00,,,0.00,VWS V14.01,2013-08-01 15:34:00,
2013-08-01 08:35:00,57.4,47.7,29.94,South,180,2.7,4.0,70,0.00,,,0.00,VWS V14.01,2013-08-01 15:35:00,
2013-08-01 08:36:00,57.4,47.7,29.94,SSW,202,3.1,5.4,70,0.00,,,0.00,VWS V14.01,2013-08-01 15:36:00,
2013-08-01 08:37:00,57.4,47.7,29.94,NNW,338,4.0,4.0,70,0.00,,,0.00,VWS V14.01,2013-08-01 15:37:00,
2013-08-01 08:38:00,57.6,47.9,29.94,ESE,112,3.1,5.4,70,0.00,,,0.00,VWS V14.01,2013-08-01 15:38:00,
2013-08-01 08:39:00,57.6,47.9,29.97,SSE,158,3.6,4.0,70,0.00,,,0.00,VWS V14.01,2013-08-01 15:39:00,
2013-08-01 08:40:00,57.6,47.9,29.94,ESE,112,0.0,5.4,70,0.00,,,0.00,VWS V14.01,2013-08-01 15:40:00,
2013-08-01 08:41:00,57.6,47.9,29.97,SSW,202,3.1,3.6,70,0.00,,,0.00,VWS V14.01,2013-08-01 15:41:00,
2013-08-01 08:42:00,57.6,47.9,29.97,East,90,0.0,4.9,70,0.00,,,0.00,VWS V14.01,2013-08-01 15:42:00,
2013-08-01 08:43:00,57.6,47.9,29.97,SSE,158,3.6,4.0,70,0.00,,,0.00,VWS V14.01,2013-08-01 15:43:00,
2013-08-01 08:44:00,57.6,47.5,29.97,WSW,248,4.0,4.0,69,0.00,,,0.00,VWS V14.01,2013-08-01 15:44:00,
2013-08-01 08:45:00,57.6,47.5,29.97,SSW,202,2.7,2.7,69,0.00,,,0.00,VWS V14.01,2013-08-01 15:45:00,
2013-08-01 08:46:00,57.4,47.3,29.97,SSW,202,2.7,4.0,69,0.00,,,0.00,VWS V14.01,2013-08-01 15:46:00,
2013-08-01 08:47:00,57.6,47.5,29.97,SW,225,0.0,2.7,69,0.00,,,0.00,VWS V14.01,2013-08-01 15:47:00,
2013-08-01 08:48:00,57.6,47.5,29.97,SSE,158,2.7,2.7,69,0.00,,,0.00,VWS V14.01,2013-08-01 15:48:00,
2013-08-01 08:49:00,57.6,47.5,29.97,SSW,202,2.7,2.7,69,0.00,,,0.00,VWS V14.01,2013-08-01 15:49:00,
2013-08-01 08:50:00,57.6,47.5,29.97,SSW,202,2.7,2.7,69,0.00,,,0.00,VWS V14.01,2013-08-01 15:50:00,
2013-08-01 08:51:00,57.6,47.5,29.97,South,180,2.2,2.2,69,0.00,,,0.00,VWS V14.01,2013-08-01 15:51:00,
2013-08-01 08:52:00,57.6,47.5,29.97,SSE,158,2.2,3.6,69,0.00,,,0.00,VWS V14.01,2013-08-01 15:52:00,
2013-08-01 08:53:00,57.6,47.5,29.97,South,180,0.0,2.2,69,0.00,,,0.00,VWS V14.01,2013-08-01 15:53:00,
2013-08-01 08:54:00,57.6,47.5,29.97,WNW,292,0.0,2.2,69,0.00,,,0.00,VWS V14.01,2013-08-01 15:54:00,
2013-08-01 08:55:00,57.6,47.5,29.97,South,180,2.2,2.2,69,0.00,,,0.00,VWS V14.01,2013-08-01 15:55:00,
2013-08-01 08:56:00,57.7,47.7,29.97,SSE,158,0.0,2.7,69,0.00,,,0.00,VWS V14.01,2013-08-01 15:56:00,
2013-08-01 08:57:00,57.7,47.7,29.97,South,180,0.0,0.0,69,0.00,,,0.00,VWS V14.01,2013-08-01 15:57:00,
2013-08-01 08:58:00,57.6,47.5,29.97,South,180,4.9,5.8,69,0.00,,,0.00,VWS V14.01,2013-08-01 15:58:00,
2013-08-01 08:59:00,57.7,47.7,29.97,SSW,202,5.8,5.8,69,0.00,,,0.00,VWS V14.01,2013-08-01 15:59:00,
2013-08-01 09:00:00,57.6,47.5,29.97,SW,225,4.9,5.8,69,0.00,,,0.00,VWS V14.01,2013-08-01 16:00:00,
2013-08-01 09:01:00,57.6,47.5,29.97,SSW,202,3.1,7.6,69,0.00,,,0.00,VWS V14.01,2013-08-01 16:01:00,
2013-08-01 09:02:00,57.6,47.5,29.97,South,180,4.9,5.8,69,0.00,,,0.00,VWS V14.01,2013-08-01 16:02:00,
2013-08-01 09:03:00,57.6,47.5,29.97,South,180,2.7,2.7,69,0.00,,,0.00,VWS V14.01,2013-08-01 16:03:00,
2013-08-01 09:04:00,57.6,47.5,29.97,SSW,202,5.4,5.8,69,0.00,,,0.00,VWS V14.01,2013-08-01 16:04:00,
2013-08-01 09:05:00,57.6,47.5,29.97,North,0,0.0,5.4,69,0.00,,,0.00,VWS V14.01,2013-08-01 16:05:00,
2013-08-01 09:06:00,57.6,47.5,29.97,ESE,112,0.0,0.0,69,0.00,,,0.00,VWS V14.01,2013-08-01 16:06:00,
2013-08-01 09:07:00,57.6,47.5,29.97,SSE,158,2.2,2.2,69,0.00,,,0.00,VWS V14.01,2013-08-01 16:07:00,
2013-08-01 09:08:00,57.6,47.5,29.97,SSW,202,3.6,3.6,69,0.00,,,0.00,VWS V14.01,2013-08-01 16:08:00,
2013-08-01 09:09:00,57.7,47.7,29.97,South,180,4.5,4.5,69,0.00,,,0.00,VWS V14.01,2013-08-01 16:09:00,
2013-08-01 09:10:00,57.6,47.5,29.97,SSE,158,2.2,3.6,69,0.00,,,0.00,VWS V14.01,2013-08-01 16:10:00,
2013-08-01 09:11:00,57.6,47.5,29.97,North,0,4.0,4.0,69,0.00,,,0.00,VWS V14.01,2013-08-01 16:11:00,
2013-08-01 09:12:00,57.7,47.7,29.97,East,90,0.0,4.0,69,0.00,,,0.00,VWS V14.01,2013-08-01 16:12:00,
2013-08-01 09:13:00,57.7,47.7,29.97,South,180,4.5,4.5,69,0.00,,,0.00,VWS V14.01,2013-08-01 16:13:00,
2013-08-01 09:14:00,57.7,47.7,29.97,SE,135,0.0,4.9,69,0.00,,,0.00,VWS V14.01,2013-08-01 16:14:00,
2013-08-01 09:15:00,57.9,47.4,29.97,SSE,158,3.6,5.8,68,0.00,,,0.00,VWS V14.01,2013-08-01 16:15:00,
2013-08-01 09:16:00,57.9,47.4,29.97,ENE,68,2.7,3.6,68,0.00,,,0.00,VWS V14.01,2013-08-01 16:16:00,
2013-08-01 09:17:00,57.9,47.4,29.97,SSW,202,5.8,5.8,68,0.00,,,0.00,VWS V14.01,2013-08-01 16:17:00,
2013-08-01 09:19:00,57.9,47.4,29.97,SSE,158,3.6,5.8,68,0.00,,,0.00,VWS V14.01,2013-08-01 16:19:00,
2013-08-01 09:20:00,57.9,47.4,29.97,SSW,202,3.6,5.8,68,0.00,,,0.00,VWS V14.01,2013-08-01 16:20:00,
2013-08-01 09:21:00,58.1,47.6,29.97,SSE,158,4.9,9.2,68,0.00,,,0.00,VWS V14.01,2013-08-01 16:21:00,
2013-08-01 09:22:00,57.9,47.4,29.97,SW,225,8.3,8.3,68,0.00,,,0.00,VWS V14.01,2013-08-01 16:22:00,
2013-08-01 09:23:00,57.9,47.0,29.97,SSE,158,5.8,8.3,67,0.00,,,0.00,VWS V14.01,2013-08-01 16:23:00,
2013-08-01 09:24:00,57.9,47.4,29.97,SSW,202,3.6,5.8,68,0.00,,,0.00,VWS V14.01,2013-08-01 16:24:00,
2013-08-01 09:25:00,57.7,46.9,29.97,SSW,202,2.7,6.7,67,0.00,,,0.00,VWS V14.01,2013-08-01 16:25:00,
2013-08-01 09:26:00,57.7,47.3,29.97,South,180,3.6,6.7,68,0.00,,,0.00,VWS V14.01,2013-08-01 16:26:00,
2013-08-01 09:27:00,57.6,47.1,29.97,South,180,2.7,4.5,68,0.00,,,0.00,VWS V14.01,2013-08-01 16:27:00,
2013-08-01 09:28:00,57.6,47.1,29.97,ESE,112,2.7,4.0,68,0.00,,,0.00,VWS V14.01,2013-08-01 16:28:00,
2013-08-01 09:29:00,57.6,47.1,29.97,SSW,202,4.5,4.5,68,0.00,,,0.00,VWS V14.01,2013-08-01 16:29:00,
2013-08-01 09:30:00,57.6,47.1,29.97,South,180,2.7,4.5,68,0.00,,,0.00,VWS V14.01,2013-08-01 16:30:00,
2013-08-01 09:31:00,57.6,47.1,29.97,SSW,202,4.0,4.0,68,0.00,,,0.00,VWS V14.01,2013-08-01 16:31:00,
2013-08-01 09:32:00,57.7,47.3,29.97,ESE,112,7.2,8.7,68,0.00,,,0.00,VWS V14.01,2013-08-01 16:32:00,
2013-08-01 09:33:00,57.6,47.1,29.97,SSW,202,3.6,4.0,68,0.00,,,0.00,VWS V14.01,2013-08-01 16:33:00,
2013-08-01 09:34:00,57.6,47.1,29.97,South,180,3.6,7.2,68,0.00,,,0.00,VWS V14.01,2013-08-01 16:34:00,
2013-08-01 09:35:00,57.6,47.1,29.97,ESE,112,3.6,4.0,68,0.00,,,0.00,VWS V14.01,2013-08-01 16:35:00,
2013-08-01 09:36:00,57.6,47.1,29.97,South,180,3.6,3.6,68,0.00,,,0.00,VWS V14.01,2013-08-01 16:36:00,
2013-08-01 09:37:00,57.6,47.1,29.97,SSW,202,3.6,4.0,68,0.00,,,0.00,VWS V14.01,2013-08-01 16:37:00,
2013-08-01 09:38:00,58.1,47.6,29.97,NNW,338,2.7,4.9,68,0.00,,,0.00,VWS V14.01,2013-08-01 16:38:00,
2013-08-01 09:39:00,57.7,47.3,29.97,ESE,112,2.2,4.0,68,0.00,,,0.00,VWS V14.01,2013-08-01 16:39:00,
2013-08-01 09:40:00,57.9,47.4,29.97,ENE,68,2.7,3.6,68,0.00,,,0.00,VWS V14.01,2013-08-01 16:40:00,
2013-08-01 09:41:00,58.1,47.6,29.97,WSW,248,4.0,4.0,68,0.00,,,0.00,VWS V14.01,2013-08-01 16:41:00,
2013-08-01 09:42:00,58.1,47.6,29.97,NNW,338,2.7,4.9,68,0.00,,,0.00,VWS V14.01,2013-08-01 16:42:00,
2013-08-01 09:43:00,58.1,47.2,29.97,SSE,158,2.2,7.6,67,0.00,,,0.00,VWS V14.01,2013-08-01 16:43:00,
2013-08-01 09:44:00,58.1,47.6,29.97,SSW,202,3.6,7.6,68,0.00,,,0.00,VWS V14.01,2013-08-01 16:44:00,
2013-08-01 09:45:00,58.1,47.6,29.97,South,180,3.1,7.6,68,0.00,,,0.00,VWS V14.01,2013-08-01 16:45:00,
2013-08-01 09:46:00,58.1,47.2,29.97,SSW,202,5.8,5.8,67,0.00,,,0.00,VWS V14.01,2013-08-01 16:46:00,
2013-08-01 09:47:00,58.1,47.2,29.97,SSE,158,2.2,7.6,67,0.00,,,0.00,VWS V14.01,2013-08-01 16:47:00,
2013-08-01 09:48:00,58.5,47.6,29.97,SW,225,2.2,2.7,67,0.00,,,0.00,VWS V14.01,2013-08-01 16:48:00,
2013-08-01 09:49:00,58.3,47.4,29.97,NNE,22,3.6,5.4,67,0.00,,,0.00,VWS V14.01,2013-08-01 16:49:00,
2013-08-01 09:50:00,58.5,47.6,29.97,South,180,5.8,5.8,67,0.00,,,0.00,VWS V14.01,2013-08-01 16:50:00,
2013-08-01 09:51:00,58.5,47.6,29.97,SSW,202,2.7,5.8,67,0.00,,,0.00,VWS V14.01,2013-08-01 16:51:00,
2013-08-01 09:52:00,58.5,47.6,29.97,SW,225,2.2,2.7,67,0.00,,,0.00,VWS V14.01,2013-08-01 16:52:00,
2013-08-01 09:53:00,58.8,47.9,29.97,SSW,202,3.6,3.6,67,0.00,,,0.00,VWS V14.01,2013-08-01 16:53:00,
2013-08-01 09:54:00,59.2,47.4,29.97,SSW,202,4.0,4.9,65,0.00,,,0.00,VWS V14.01,2013-08-01 16:54:00,
2013-08-01 09:55:00,59.0,47.7,29.97,SSW,202,3.6,3.6,66,0.00,,,0.00,VWS V14.01,2013-08-01 16:55:00,
2013-08-01 09:56:00,59.0,47.7,29.97,SSE,158,3.1,4.0,66,0.00,,,0.00,VWS V14.01,2013-08-01 16:56:00,
2013-08-01 09:57:00,59.2,47.4,29.97,SE,135,4.9,4.9,65,0.00,,,0.00,VWS V14.01,2013-08-01 16:57:00,
2013-08-01 09:58:00,59.2,47.4,29.97,SSW,202,4.0,4.9,65,0.00,,,0.00,VWS V14.01,2013-08-01 16:58:00,
2013-08-01 09:59:00,59.4,47.6,29.97,ENE,68,4.0,4.0,65,0.00,,,0.00,VWS V14.01,2013-08-01 16:59:00,
2013-08-01 10:00:00,59.5,47.0,29.97,SSW,202,4.0,4.0,63,0.00,,,0.00,VWS V14.01,2013-08-01 17:00:00,
2013-08-01 10:01:00,59.4,47.2,29.97,ENE,68,2.7,3.6,64,0.00,,,0.00,VWS V14.01,2013-08-01 17:01:00,
2013-08-01 10:02:00,59.4,47.2,29.97,ESE,112,2.2,3.6,64,0.00,,,0.00,VWS V14.01,2013-08-01 17:02:00,
2013-08-01 10:03:00,59.5,47.0,29.97,SSW,202,4.9,4.9,63,0.00,,,0.00,VWS V14.01,2013-08-01 17:03:00,
2013-08-01 10:04:00,59.5,47.0,29.97,SW,225,3.1,4.9,63,0.00,,,0.00,VWS V14.01,2013-08-01 17:04:00,
2013-08-01 10:05:00,59.5,47.0,29.97,WNW,292,0.0,4.0,63,0.00,,,0.00,VWS V14.01,2013-08-01 17:05:00,
2013-08-01 10:06:00,59.7,46.7,29.97,SW,225,4.0,4.0,62,0.00,,,0.00,VWS V14.01,2013-08-01 17:06:00,
2013-08-01 10:07:00,59.7,46.7,29.97,NNE,22,4.0,4.0,62,0.00,,,0.00,VWS V14.01,2013-08-01 17:07:00,
2013-08-01 10:08:00,59.7,46.7,29.97,SSW,202,6.3,6.3,62,0.00,,,0.00,VWS V14.01,2013-08-01 17:08:00,
2013-08-01 10:09:00,59.7,46.7,29.97,North,0,0.0,6.3,62,0.00,,,0.00,VWS V14.01,2013-08-01 17:09:00,
2013-08-01 10:10:00,59.7,46.7,29.97,SW,225,4.0,4.0,62,0.00,,,0.00,VWS V14.01,2013-08-01 17:10:00,
2013-08-01 10:11:00,59.7,46.3,29.97,ENE,68,5.8,5.8,61,0.00,,,0.00,VWS V14.01,2013-08-01 17:11:00,
2013-08-01 10:12:00,59.7,46.3,29.97,SSW,202,4.0,7.6,61,0.00,,,0.00,VWS V14.01,2013-08-01 17:12:00,
2013-08-01 10:13:00,59.7,46.3,29.97,SSW,202,2.7,4.0,61,0.00,,,0.00,VWS V14.01,2013-08-01 17:13:00,
2013-08-01 10:14:00,59.7,46.3,29.97,NNE,22,2.7,4.0,61,0.00,,,0.00,VWS V14.01,2013-08-01 17:14:00,
2013-08-01 10:15:00,59.7,46.3,29.97,SSW,202,5.4,7.2,61,0.00,,,0.00,VWS V14.01,2013-08-01 17:15:00,
2013-08-01 10:16:00,59.5,46.1,29.97,SSW,202,5.8,5.8,61,0.00,,,0.00,VWS V14.01,2013-08-01 17:16:00,
2013-08-01 10:17:00,59.4,45.9,29.97,SW,225,4.0,4.9,61,0.00,,,0.00,VWS V14.01,2013-08-01 17:17:00,
2013-08-01 10:18:00,59.4,45.9,29.97,NNE,22,2.7,3.1,61,0.00,,,0.00,VWS V14.01,2013-08-01 17:18:00,
2013-08-01 10:19:00,59.5,46.1,29.97,SSW,202,3.6,4.0,61,0.00,,,0.00,VWS V14.01,2013-08-01 17:19:00,
2013-08-01 10:20:00,59.5,46.1,29.97,SW,225,3.6,7.6,61,0.00,,,0.00,VWS V14.01,2013-08-01 17:20:00,
2013-08-01 10:21:00,59.4,45.9,29.97,SSW,202,2.7,4.9,61,0.00,,,0.00,VWS V14.01,2013-08-01 17:21:00,
2013-08-01 10:22:00,59.5,46.1,29.97,SSW,202,0.0,4.0,61,0.00,,,0.00,VWS V14.01,2013-08-01 17:22:00,
2013-08-01 10:23:00,59.4,45.9,29.97,SSW,202,4.0,4.9,61,0.00,,,0.00,VWS V14.01,2013-08-01 17:23:00,
2013-08-01 10:24:00,59.5,46.1,29.97,WSW,248,3.1,4.0,61,0.00,,,0.00,VWS V14.01,2013-08-01 17:24:00,
2013-08-01 10:25:00,59.5,46.1,29.97,SSE,158,3.6,3.6,61,0.00,,,0.00,VWS V14.01,2013-08-01 17:25:00,
2013-08-01 10:26:00,59.5,46.1,29.97,SW,225,2.7,5.8,61,0.00,,,0.00,VWS V14.01,2013-08-01 17:26:00,
2013-08-01 10:27:00,59.5,46.1,29.97,SSW,202,0.0,4.0,61,0.00,,,0.00,VWS V14.01,2013-08-01 17:27:00,
2013-08-01 10:28:00,59.9,46.4,29.97,SSE,158,2.7,4.9,61,0.00,,,0.00,VWS V14.01,2013-08-01 17:28:00,
2013-08-01 10:29:00,59.5,46.1,29.97,South,180,4.0,4.0,61,0.00,,,0.00,VWS V14.01,2013-08-01 17:29:00,
2013-08-01 10:30:00,59.5,46.1,29.97,WNW,292,2.2,4.0,61,0.00,,,0.00,VWS V14.01,2013-08-01 17:30:00,
2013-08-01 10:31:00,59.9,46.4,29.97,SSW,202,0.0,2.2,61,0.00,,,0.00,VWS V14.01,2013-08-01 17:31:00,
2013-08-01 10:32:00,59.9,46.4,29.97,SSE,158,2.7,4.9,61,0.00,,,0.00,VWS V14.01,2013-08-01 17:32:00,
2013-08-01 10:33:00,59.5,45.2,29.97,SSW,202,5.4,6.3,59,0.00,,,0.00,VWS V14.01,2013-08-01 17:33:00,
2013-08-01 10:34:00,59.9,46.0,29.97,SW,225,4.0,5.4,60,0.00,,,0.00,VWS V14.01,2013-08-01 17:34:00,
2013-08-01 10:35:00,59.9,46.0,29.97,SSW,202,8.1,8.1,60,0.00,,,0.00,VWS V14.01,2013-08-01 17:35:00,
2013-08-01 10:36:00,59.7,45.4,29.97,WNW,292,6.3,8.1,59,0.00,,,0.00,VWS V14.01,2013-08-01 17:36:00,
2013-08-01 10:37:00,59.5,45.2,29.97,SSW,202,5.4,6.3,59,0.00,,,0.00,VWS V14.01,2013-08-01 17:37:00,
2013-08-01 10:38:00,59.7,45.4,29.97,NW,315,3.1,3.6,59,0.00,,,0.00,VWS V14.01,2013-08-01 17:38:00,
2013-08-01 10:39:00,59.7,45.4,29.97,SSW,202,3.1,5.4,59,0.00,,,0.00,VWS V14.01,2013-08-01 17:39:00,
2013-08-01 10:40:00,59.7,45.4,29.97,SSW,202,8.1,8.1,59,0.00,,,0.00,VWS V14.01,2013-08-01 17:40:00,
2013-08-01 10:41:00,59.7,45.4,29.97,SSW,202,2.7,8.7,59,0.00,,,0.00,VWS V14.01,2013-08-01 17:41:00,
2013-08-01 10:42:00,59.7,45.4,29.97,NW,315,3.1,3.6,59,0.00,,,0.00,VWS V14.01,2013-08-01 17:42:00,
2013-08-01 10:43:00,60.1,45.7,29.97,ENE,68,3.6,4.9,59,0.00,,,0.00,VWS V14.01,2013-08-01 17:43:00,
2013-08-01 10:44:00,59.9,45.5,29.97,East,90,3.1,5.4,59,0.00,,,0.00,VWS V14.01,2013-08-01 17:44:00,
2013-08-01 10:45:00,59.9,45.5,29.97,SE,135,2.7,3.1,59,0.00,,,0.00,VWS V14.01,2013-08-01 17:45:00,
2013-08-01 10:46:00,59.7,45.4,29.97,WSW,248,3.6,3.6,59,0.00,,,0.00,VWS V14.01,2013-08-01 17:46:00,
2013-08-01 10:47:00,60.1,45.7,29.97,WSW,248,4.9,4.9,59,0.00,,,0.00,VWS V14.01,2013-08-01 17:47:00,
2013-08-01 10:48:00,60.1,45.7,29.97,SSW,202,3.6,4.9,59,0.00,,,0.00,VWS V14.01,2013-08-01 17:48:00,
2013-08-01 10:49:00,60.3,45.4,29.97,SSE,158,3.1,4.0,58,0.00,,,0.00,VWS V14.01,2013-08-01 17:49:00,
2013-08-01 10:50:00,60.1,45.7,29.97,SE,135,3.1,4.0,59,0.00,,,0.00,VWS V14.01,2013-08-01 17:50:00,
2013-08-01 10:51:00,60.1,45.3,29.97,North,0,4.0,4.0,58,0.00,,,0.00,VWS V14.01,2013-08-01 17:51:00,
2013-08-01 10:52:00,60.1,45.3,29.97,ENE,68,3.6,4.0,58,0.00,,,0.00,VWS V14.01,2013-08-01 17:52:00,
2013-08-01 10:53:00,60.3,45.4,29.97,SSW,202,4.0,4.0,58,0.00,,,0.00,VWS V14.01,2013-08-01 17:53:00,
2013-08-01 10:54:00,60.4,45.6,29.97,East,90,3.1,7.6,58,0.00,,,0.00,VWS V14.01,2013-08-01 17:54:00,
2013-08-01 10:55:00,60.3,45.4,29.97,SSW,202,0.0,3.1,58,0.00,,,0.00,VWS V14.01,2013-08-01 17:55:00,
2013-08-01 10:56:00,60.4,45.6,29.97,SSW,202,4.0,5.4,58,0.00,,,0.00,VWS V14.01,2013-08-01 17:56:00,
2013-08-01 10:57:00,60.4,45.6,29.97,SSW,202,3.6,6.3,58,0.00,,,0.00,VWS V14.01,2013-08-01 17:57:00,
2013-08-01 10:58:00,60.4,45.6,29.97,East,90,3.1,7.6,58,0.00,,,0.00,VWS V14.01,2013-08-01 17:58:00,
2013-08-01 10:59:00,60.3,45.4,29.97,SSE,158,3.1,3.1,58,0.00,,,0.00,VWS V14.01,2013-08-01 17:59:00,
2013-08-01 11:00:00,60.4,45.6,29.97,South,180,9.6,11.4,58,0.00,,,0.00,VWS V14.01,2013-08-01 18:00:00,
2013-08-01 11:01:00,60.4,45.6,29.97,South,180,6.3,6.3,58,0.00,,,0.00,VWS V14.01,2013-08-01 18:01:00,
2013-08-01 11:02:00,60.1,45.3,29.97,SE,135,0.0,4.9,58,0.00,,,0.00,VWS V14.01,2013-08-01 18:02:00,
2013-08-01 11:03:00,60.4,45.6,29.97,SSW,202,4.9,4.9,58,0.00,,,0.00,VWS V14.01,2013-08-01 18:03:00,
2013-08-01 11:04:00,60.4,45.6,29.97,SSW,202,0.0,4.9,58,0.00,,,0.00,VWS V14.01,2013-08-01 18:04:00,
2013-08-01 11:05:00,60.4,45.6,29.97,South,180,6.3,6.3,58,0.00,,,0.00,VWS V14.01,2013-08-01 18:05:00,
2013-08-01 11:06:00,60.4,45.2,29.97,SSE,158,4.0,6.3,57,0.00,,,0.00,VWS V14.01,2013-08-01 18:06:00,
2013-08-01 11:07:00,61.3,45.5,29.97,SW,225,2.7,4.0,56,0.00,,,0.00,VWS V14.01,2013-08-01 18:07:00,
2013-08-01 11:08:00,60.6,45.3,29.97,SSW,202,4.0,4.0,57,0.00,,,0.00,VWS V14.01,2013-08-01 18:08:00,
2013-08-01 11:09:00,60.6,45.3,29.97,South,180,4.0,4.9,57,0.00,,,0.00,VWS V14.01,2013-08-01 18:09:00,
2013-08-01 11:10:00,61.0,45.7,29.97,SSW,202,3.1,4.0,57,0.00,,,0.00,VWS V14.01,2013-08-01 18:10:00,
2013-08-01 11:11:00,61.3,45.5,29.97,West,270,4.0,4.0,56,0.00,,,0.00,VWS V14.01,2013-08-01 18:11:00,
2013-08-01 11:12:00,61.5,45.7,29.97,SSE,158,2.7,4.9,56,0.00,,,0.00,VWS V14.01,2013-08-01 18:12:00,
2013-08-01 11:13:00,61.5,45.7,29.97,SW,225,5.4,5.4,56,0.00,,,0.00,VWS V14.01,2013-08-01 18:13:00,
2013-08-01 11:14:00,62.4,45.6,29.97,SW,225,3.1,3.1,54,0.00,,,0.00,VWS V14.01,2013-08-01 18:14:00,
2013-08-01 11:15:00,61.9,45.5,29.97,South,180,2.7,3.1,55,0.00,,,0.00,VWS V14.01,2013-08-01 18:15:00,
2013-08-01 11:16:00,62.1,45.7,29.97,South,180,3.1,4.0,55,0.00,,,0.00,VWS V14.01,2013-08-01 18:16:00,
2013-08-01 11:17:00,62.2,45.4,29.97,South,180,6.3,6.3,54,0.00,,,0.00,VWS V14.01,2013-08-01 18:17:00,
2013-08-01 11:18:00,62.4,45.6,29.97,SW,225,3.1,6.3,54,0.00,,,0.00,VWS V14.01,2013-08-01 18:18:00,
2013-08-01 11:19:00,62.6,45.2,29.97,SSW,202,6.7,7.2,53,0.00,,,0.00,VWS V14.01,2013-08-01 18:19:00,
2013-08-01 11:20:00,62.8,44.9,29.97,SSE,158,4.9,7.6,52,0.00,,,0.00,VWS V14.01,2013-08-01 18:20:00,
2013-08-01 11:21:00,62.4,45.1,29.97,ENE,68,3.6,6.3,53,0.00,,,0.00,VWS V14.01,2013-08-01 18:21:00,
2013-08-01 11:22:00,62.6,44.8,29.97,SSW,202,3.6,4.0,52,0.00,,,0.00,VWS V14.01,2013-08-01 18:22:00,
2013-08-01 11:23:00,62.8,44.9,29.97,NW,315,2.7,5.4,52,0.00,,,0.00,VWS V14.01,2013-08-01 18:23:00,
2013-08-01 11:24:00,62.8,44.9,29.97,SSE,158,4.9,7.6,52,0.00,,,0.00,VWS V14.01,2013-08-01 18:24:00,
2013-08-01 11:25:00,63.1,44.7,30.00,South,180,2.7,2.7,51,0.00,,,0.00,VWS V14.01,2013-08-01 18:25:00,
2013-08-01 11:26:00,62.8,44.9,29.97,SSE,158,2.7,5.8,52,0.00,,,0.00,VWS V14.01,2013-08-01 18:26:00,
2013-08-01 11:27:00,63.1,45.2,30.00,South,180,2.7,3.1,52,0.00,,,0.00,VWS V14.01,2013-08-01 18:27:00,
2013-08-01 11:28:00,63.1,45.2,30.00,SSW,202,3.6,4.0,52,0.00,,,0.00,VWS V14.01,2013-08-01 18:28:00,
2013-08-01 11:29:00,63.1,44.7,30.00,SSE,158,2.2,4.9,51,0.00,,,0.00,VWS V14.01,2013-08-01 18:29:00,
2013-08-01 11:30:00,62.6,44.2,30.00,SSW,202,3.6,4.0,51,0.00,,,0.00,VWS V14.01,2013-08-01 18:30:00,
2013-08-01 11:31:00,63.0,44.6,30.00,South,180,4.9,8.3,51,0.00,,,0.00,VWS V14.01,2013-08-01 18:31:00,
2013-08-01 11:32:00,62.6,44.2,30.00,SSE,158,6.3,6.3,51,0.00,,,0.00,VWS V14.01,2013-08-01 18:32:00,
2013-08-01 11:33:00,62.6,44.2,30.00,SSE,158,4.9,7.2,51,0.00,,,0.00,VWS V14.01,2013-08-01 18:33:00,
2013-08-01 11:34:00,62.6,44.2,30.00,SSE,158,2.2,5.8,51,0.00,,,0.00,VWS V14.01,2013-08-01 18:34:00,
2013-08-01 11:35:00,62.6,44.2,30.00,SSW,202,3.6,4.0,51,0.00,,,0.00,VWS V14.01,2013-08-01 18:35:00,
2013-08-01 11:36:00,63.0,44.0,30.00,ESE,112,5.4,8.7,50,0.00,,,0.00,VWS V14.01,2013-08-01 18:36:00,
2013-08-01 11:37:00,62.8,44.4,30.00,SSE,158,3.1,4.0,51,0.00,,,0.00,VWS V14.01,2013-08-01 18:37:00,
2013-08-01 11:38:00,63.0,44.6,30.00,SW,225,3.1,3.1,51,0.00,,,0.00,VWS V14.01,2013-08-01 18:38:00,
2013-08-01 11:39:00,63.1,44.7,30.00,SSW,202,8.1,8.3,51,0.00,,,0.00,VWS V14.01,2013-08-01 18:39:00,
2013-08-01 11:40:00,63.0,44.0,30.00,ESE,112,5.4,8.7,50,0.00,,,0.00,VWS V14.01,2013-08-01 18:40:00,
2013-08-01 11:41:00,63.3,44.4,30.00,SSW,202,6.3,6.3,50,0.00,,,0.00,VWS V14.01,2013-08-01 18:41:00,
2013-08-01 11:42:00,63.0,44.6,30.00,ESE,112,10.1,10.5,51,0.00,,,0.00,VWS V14.01,2013-08-01 18:42:00,
2013-08-01 11:43:00,63.0,44.6,30.00,SSW,202,6.3,10.1,51,0.00,,,0.00,VWS V14.01,2013-08-01 18:43:00,
2013-08-01 11:44:00,63.1,44.7,30.00,East,90,5.4,9.6,51,0.00,,,0.00,VWS V14.01,2013-08-01 18:44:00,
2013-08-01 11:45:00,63.3,44.9,30.00,NE,45,3.6,5.8,51,0.00,,,0.00,VWS V14.01,2013-08-01 18:45:00,
2013-08-01 11:46:00,63.1,44.2,30.00,NNE,22,2.7,4.0,50,0.00,,,0.00,VWS V14.01,2013-08-01 18:46:00,
2013-08-01 11:47:00,63.3,44.4,30.00,ENE,68,8.3,8.3,50,0.00,,,0.00,VWS V14.01,2013-08-01 18:47:00,
2013-08-01 11:48:00,63.3,44.4,30.00,SSW,202,5.4,8.3,50,0.00,,,0.00,VWS V14.01,2013-08-01 18:48:00,
2013-08-01 11:49:00,63.0,44.0,30.00,SSE,158,0.0,8.1,50,0.00,,,0.00,VWS V14.01,2013-08-01 18:49:00,
2013-08-01 11:50:00,63.1,44.2,30.00,ENE,68,4.0,4.9,50,0.00,,,0.00,VWS V14.01,2013-08-01 18:50:00,
2013-08-01 11:51:00,63.1,44.2,30.00,NNE,22,2.7,4.0,50,0.00,,,0.00,VWS V14.01,2013-08-01 18:51:00,
2013-08-01 11:52:00,64.4,44.8,30.00,South,180,4.5,4.9,49,0.00,,,0.00,VWS V14.01,2013-08-01 18:52:00,
2013-08-01 11:53:00,63.9,44.9,30.00,ESE,112,3.6,4.9,50,0.00,,,0.00,VWS V14.01,2013-08-01 18:53:00,
2013-08-01 11:54:00,64.0,45.0,30.00,NNW,338,5.4,5.4,50,0.00,,,0.00,VWS V14.01,2013-08-01 18:54:00,
2013-08-01 11:55:00,64.2,44.7,30.00,SSW,202,2.7,5.4,49,0.00,,,0.00,VWS V14.01,2013-08-01 18:55:00,
2013-08-01 11:56:00,64.4,44.8,30.00,SSE,158,4.9,8.3,49,0.00,,,0.00,VWS V14.01,2013-08-01 18:56:00,
2013-08-01 11:57:00,64.4,44.3,30.00,SSW,202,6.3,6.3,48,0.00,,,0.00,VWS V14.01,2013-08-01 18:57:00,
2013-08-01 11:58:00,64.0,44.0,30.00,NE,45,3.1,7.6,48,0.00,,,0.00,VWS V14.01,2013-08-01 18:58:00,
2013-08-01 11:59:00,64.4,44.3,30.00,SE,135,4.0,4.0,48,0.00,,,0.00,VWS V14.01,2013-08-01 18:59:00,
2013-08-01 12:00:00,64.4,44.3,30.00,NNW,338,5.4,8.1,48,0.00,,,0.00,VWS V14.01,2013-08-01 19:00:00,
2013-08-01 12:01:00,64.4,44.3,30.00,NNE,22,6.3,8.1,48,0.00,,,0.00,VWS V14.01,2013-08-01 19:01:00,
2013-08-01 12:02:00,64.2,44.1,30.00,SSW,202,3.1,7.6,48,0.00,,,0.00,VWS V14.01,2013-08-01 19:02:00,
2013-08-01 12:03:00,64.2,44.7,30.00,SSE,158,3.6,3.6,49,0.00,,,0.00,VWS V14.01,2013-08-01 19:03:00,
2013-08-01 12:04:00,64.9,44.8,30.00,SSW,202,3.6,3.6,48,0.00,,,0.00,VWS V14.01,2013-08-01 19:04:00,
2013-08-01 12:05:00,64.4,44.3,30.00,ESE,112,3.1,7.2,48,0.00,,,0.00,VWS V14.01,2013-08-01 19:05:00,
2013-08-01 12:06:00,64.6,44.5,30.00,ESE,112,2.2,4.0,48,0.00,,,0.00,VWS V14.01,2013-08-01 19:06:00,
2013-08-01 12:07:00,64.6,44.5,30.00,SSE,158,2.2,2.2,48,0.00,,,0.00,VWS V14.01,2013-08-01 19:07:00,
2013-08-01 12:08:00,64.8,44.6,30.00,ENE,68,2.7,4.0,48,0.00,,,0.00,VWS V14.01,2013-08-01 19:08:00,
2013-08-01 12:09:00,64.9,44.8,30.00,SSW,202,3.6,4.0,48,0.00,,,0.00,VWS V14.01,2013-08-01 19:09:00,
2013-08-01 12:10:00,65.1,45.0,30.00,SE,135,3.6,5.4,48,0.00,,,0.00,VWS V14.01,2013-08-01 19:10:00,
2013-08-01 12:11:00,65.8,45.1,30.00,SSW,202,2.7,5.4,47,0.00,,,0.00,VWS V14.01,2013-08-01 19:11:00,
2013-08-01 12:12:00,65.3,44.6,30.00,South,180,0.0,2.7,47,0.00,,,0.00,VWS V14.01,2013-08-01 19:12:00,
2013-08-01 12:13:00,65.8,45.1,30.00,SSW,202,4.0,4.9,47,0.00,,,0.00,VWS V14.01,2013-08-01 19:13:00,
2013-08-01 12:14:00,66.0,45.2,30.00,West,270,6.3,6.3,47,0.00,,,0.00,VWS V14.01,2013-08-01 19:14:00,
2013-08-01 12:15:00,65.8,45.1,30.00,SSE,158,5.4,8.3,47,0.00,,,0.00,VWS V14.01,2013-08-01 19:15:00,
2013-08-01 12:16:00,65.7,44.9,30.00,SSW,202,9.6,9.6,47,0.00,,,0.00,VWS V14.01,2013-08-01 19:16:00,
2013-08-01 12:17:00,65.7,44.9,30.00,SE,135,0.0,2.7,47,0.00,,,0.00,VWS V14.01,2013-08-01 19:17:00,
2013-08-01 12:18:00,65.5,44.7,30.00,WSW,248,2.7,6.3,47,0.00,,,0.00,VWS V14.01,2013-08-01 19:18:00,
2013-08-01 12:19:00,65.7,44.9,30.00,SSW,202,2.7,6.3,47,0.00,,,0.00,VWS V14.01,2013-08-01 19:19:00,
2013-08-01 12:20:00,65.8,45.1,30.00,South,180,6.3,7.6,47,0.00,,,0.00,VWS V14.01,2013-08-01 19:20:00,
2013-08-01 12:21:00,65.7,44.9,30.00,SSW,202,2.7,6.3,47,0.00,,,0.00,VWS V14.01,2013-08-01 19:21:00,
2013-08-01 12:22:00,66.7,44.8,30.00,ESE,112,3.1,7.2,45,0.00,,,0.00,VWS V14.01,2013-08-01 19:22:00,
2013-08-01 12:23:00,65.8,45.1,30.00,SE,135,0.0,2.7,47,0.00,,,0.00,VWS V14.01,2013-08-01 19:23:00,
2013-08-01 12:24:00,66.6,45.2,30.00,SSW,202,4.9,5.4,46,0.00,,,0.00,VWS V14.01,2013-08-01 19:24:00,
2013-08-01 12:25:00,66.6,45.2,30.00,South,180,4.9,4.9,46,0.00,,,0.00,VWS V14.01,2013-08-01 19:25:00,
2013-08-01 12:26:00,66.6,45.2,30.00,WSW,248,3.6,4.9,46,0.00,,,0.00,VWS V14.01,2013-08-01 19:26:00,
2013-08-01 12:27:00,66.7,44.7,30.00,ESE,112,3.1,7.2,45,0.00,,,0.00,VWS V14.01,2013-08-01 19:27:00,
2013-08-01 12:28:00,66.9,44.9,30.00,SSW,202,5.8,5.8,45,0.00,,,0.00,VWS V14.01,2013-08-01 19:28:00,
2013-08-01 12:29:00,66.6,44.6,30.00,SSW,202,4.9,6.3,45,0.00,,,0.00,VWS V14.01,2013-08-01 19:29:00,
2013-08-01 12:30:00,66.7,44.7,30.00,SSW,202,4.0,6.3,45,0.00,,,0.00,VWS V14.01,2013-08-01 19:30:00,
2013-08-01 12:31:00,66.6,44.6,30.00,South,180,6.3,7.6,45,0.00,,,0.00,VWS V14.01,2013-08-01 19:31:00,
2013-08-01 12:32:00,66.6,44.6,30.00,NE,45,6.3,7.6,45,0.00,,,0.00,VWS V14.01,2013-08-01 19:32:00,
2013-08-01 12:33:00,66.6,44.6,30.00,SSW,202,4.9,6.3,45,0.00,,,0.00,VWS V14.01,2013-08-01 19:33:00,
2013-08-01 12:34:00,66.7,44.8,30.00,SSW,202,3.6,4.9,45,0.00,,,0.00,VWS V14.01,2013-08-01 19:34:00,
2013-08-01 12:35:00,66.2,44.3,30.00,SSE,158,3.1,5.8,45,0.00,,,0.00,VWS V14.01,2013-08-01 19:35:00,
2013-08-01 12:36:00,66.4,44.4,30.00,South,180,3.6,7.6,45,0.00,,,0.00,VWS V14.01,2013-08-01 19:36:00,
2013-08-01 12:37:00,66.6,44.6,30.00,SE,135,3.1,3.6,45,0.00,,,0.00,VWS V14.01,2013-08-01 19:37:00,
2013-08-01 12:38:00,66.6,44.6,30.00,ESE,112,4.9,4.9,45,0.00,,,0.00,VWS V14.01,2013-08-01 19:38:00,
2013-08-01 12:39:00,67.5,44.8,30.00,WSW,248,4.0,4.5,44,0.00,,,0.00,VWS V14.01,2013-08-01 19:39:00,
2013-08-01 12:40:00,67.1,44.5,30.00,WSW,248,2.7,8.1,44,0.00,,,0.00,VWS V14.01,2013-08-01 19:40:00,
2013-08-01 12:41:00,67.1,44.5,30.00,West,270,4.0,8.3,44,0.00,,,0.00,VWS V14.01,2013-08-01 19:41:00,
2013-08-01 12:42:00,66.9,44.3,30.00,SE,135,4.0,5.8,44,0.00,,,0.00,VWS V14.01,2013-08-01 19:42:00,
2013-08-01 12:43:00,67.1,44.5,30.00,SE,135,2.7,4.0,44,0.00,,,0.00,VWS V14.01,2013-08-01 19:43:00,
2013-08-01 12:44:00,67.5,44.8,30.00,WSW,248,4.0,4.5,44,0.00,,,0.00,VWS V14.01,2013-08-01 19:44:00,
2013-08-01 12:45:00,67.5,44.8,30.00,West,270,4.0,4.0,44,0.00,,,0.00,VWS V14.01,2013-08-01 19:45:00,
2013-08-01 12:46:00,67.1,44.5,30.00,South,180,3.6,5.4,44,0.00,,,0.00,VWS V14.01,2013-08-01 19:46:00,
2013-08-01 12:47:00,67.3,44.7,30.00,SSW,202,5.8,5.8,44,0.00,,,0.00,VWS V14.01,2013-08-01 19:47:00,
2013-08-01 12:48:00,67.3,44.7,30.00,ESE,112,4.0,5.8,44,0.00,,,0.00,VWS V14.01,2013-08-01 19:48:00,
2013-08-01 12:49:00,67.5,44.2,30.00,NNE,22,5.4,5.4,43,0.00,,,0.00,VWS V14.01,2013-08-01 19:49:00,
2013-08-01 12:50:00,67.5,44.2,30.00,SSE,158,7.6,7.6,43,0.00,,,0.00,VWS V14.01,2013-08-01 19:50:00,
2013-08-01 12:51:00,65.8,43.9,30.00,SSW,202,4.0,4.9,45,0.00,,,0.00,VWS V14.01,2013-08-01 19:51:00,
2013-08-01 12:52:00,66.4,43.8,30.00,SSW,202,7.6,7.6,44,0.00,,,0.00,VWS V14.01,2013-08-01 19:52:00,
2013-08-01 12:53:00,66.0,44.1,30.00,West,270,5.4,8.3,45,0.00,,,0.00,VWS V14.01,2013-08-01 19:53:00,
2013-08-01 12:54:00,65.7,43.8,30.00,WSW,248,3.6,6.3,45,0.00,,,0.00,VWS V14.01,2013-08-01 19:54:00,
2013-08-01 12:55:00,65.8,43.9,30.00,SSW,202,4.0,4.9,45,0.00,,,0.00,VWS V14.01,2013-08-01 19:55:00,
2013-08-01 12:56:00,65.8,43.9,30.00,ESE,112,4.9,4.9,45,0.00,,,0.00,VWS V14.01,2013-08-01 19:56:00,
2013-08-01 12:57:00,66.6,44.6,30.00,SSW,202,2.7,5.8,45,0.00,,,0.00,VWS V14.01,2013-08-01 19:57:00,
2013-08-01 12:58:00,66.4,44.4,30.00,SE,135,0.0,5.8,45,0.00,,,0.00,VWS V14.01,2013-08-01 19:58:00,
2013-08-01 12:59:00,66.4,44.4,30.00,SSW,202,4.9,6.3,45,0.00,,,0.00,VWS V14.01,2013-08-01 19:59:00,
2013-08-01 13:00:00,66.4,44.4,30.00,South,180,3.6,4.9,45,0.00,,,0.00,VWS V14.01,2013-08-01 20:00:00,
2013-08-01 13:01:00,66.6,44.6,30.00,SSW,202,2.7,5.8,45,0.00,,,0.00,VWS V14.01,2013-08-01 20:01:00,
2013-08-01 13:02:00,66.4,44.4,30.00,SSW,202,3.6,4.9,45,0.00,,,0.00,VWS V14.01,2013-08-01 20:02:00,
2013-08-01 13:03:00,66.7,44.2,30.00,SSE,158,8.1,11.4,44,0.00,,,0.00,VWS V14.01,2013-08-01 20:03:00,
2013-08-01 13:04:00,66.2,43.7,30.00,ESE,112,6.3,8.1,44,0.00,,,0.00,VWS V14.01,2013-08-01 20:04:00,
2013-08-01 13:05:00,66.0,44.1,30.00,SSW,202,3.1,6.3,45,0.00,,,0.00,VWS V14.01,2013-08-01 20:05:00,
2013-08-01 13:06:00,66.4,44.4,30.00,SSW,202,3.6,4.9,45,0.00,,,0.00,VWS V14.01,2013-08-01 20:06:00,
2013-08-01 13:07:00,66.4,44.4,30.00,WNW,292,3.6,4.9,45,0.00,,,0.00,VWS V14.01,2013-08-01 20:07:00,
2013-08-01 13:08:00,66.4,44.4,30.00,South,180,7.2,7.2,45,0.00,,,0.00,VWS V14.01,2013-08-01 20:08:00,
2013-08-01 13:09:00,66.6,44.0,29.97,WSW,248,4.9,4.9,44,0.00,,,0.00,VWS V14.01,2013-08-01 20:09:00,
2013-08-01 13:10:00,66.4,44.4,30.00,NNW,338,2.7,6.7,45,0.00,,,0.00,VWS V14.01,2013-08-01 20:10:00,
2013-08-01 13:11:00,66.6,44.0,29.97,NE,45,2.7,3.1,44,0.00,,,0.00,VWS V14.01,2013-08-01 20:11:00,
2013-08-01 13:12:00,66.6,44.0,29.97,SW,225,4.0,4.0,44,0.00,,,0.00,VWS V14.01,2013-08-01 20:12:00,
2013-08-01 13:13:00,66.9,44.3,29.97,SSW,202,3.1,4.9,44,0.00,,,0.00,VWS V14.01,2013-08-01 20:13:00,
2013-08-01 13:14:00,66.7,44.2,29.97,WSW,248,3.1,8.1,44,0.00,,,0.00,VWS V14.01,2013-08-01 20:14:00,
2013-08-01 13:15:00,66.9,44.3,29.97,SSE,158,3.6,7.2,44,0.00,,,0.00,VWS V14.01,2013-08-01 20:15:00,
2013-08-01 13:16:00,66.9,44.3,29.97,ENE,68,4.0,5.8,44,0.00,,,0.00,VWS V14.01,2013-08-01 20:16:00,
2013-08-01 13:17:00,66.9,44.3,29.97,South,180,8.1,8.3,44,0.00,,,0.00,VWS V14.01,2013-08-01 20:17:00,
2013-08-01 13:18:00,66.7,44.2,29.97,WSW,248,3.1,8.1,44,0.00,,,0.00,VWS V14.01,2013-08-01 20:18:00,
2013-08-01 13:19:00,67.6,44.4,29.97,ENE,68,2.7,3.6,43,0.00,,,0.00,VWS V14.01,2013-08-01 20:19:00,
2013-08-01 13:20:00,66.9,44.3,29.97,SSW,202,5.8,5.8,44,0.00,,,0.00,VWS V14.01,2013-08-01 20:20:00,
2013-08-01 13:21:00,67.3,44.7,29.97,NNE,22,2.7,5.8,44,0.00,,,0.00,VWS V14.01,2013-08-01 20:21:00,
2013-08-01 13:22:00,67.5,44.8,29.97,SSE,158,2.7,3.1,44,0.00,,,0.00,VWS V14.01,2013-08-01 20:22:00,
2013-08-01 13:23:00,67.6,44.4,29.97,ENE,68,2.7,3.6,43,0.00,,,0.00,VWS V14.01,2013-08-01 20:23:00,
2013-08-01 13:24:00,67.6,44.4,29.97,SSW,202,3.6,4.9,43,0.00,,,0.00,VWS V14.01,2013-08-01 20:24:00,
2013-08-01 13:25:00,67.6,44.4,29.97,ENE,68,2.2,3.1,43,0.00,,,0.00,VWS V14.01,2013-08-01 20:25:00,
2013-08-01 13:26:00,67.8,44.5,29.97,ESE,112,3.6,3.6,43,0.00,,,0.00,VWS V14.01,2013-08-01 20:26:00,
2013-08-01 13:27:00,67.8,44.5,29.97,South,180,2.7,4.9,43,0.00,,,0.00,VWS V14.01,2013-08-01 20:27:00,
2013-08-01 13:28:00,67.6,44.4,29.97,SSW,202,3.6,4.9,43,0.00,,,0.00,VWS V14.01,2013-08-01 20:28:00,
2013-08-01 13:29:00,68.4,44.4,29.97,ESE,112,6.3,6.3,42,0.00,,,0.00,VWS V14.01,2013-08-01 20:29:00,
2013-08-01 13:30:00,68.4,43.8,29.97,SSE,158,4.0,4.9,41,0.00,,,0.00,VWS V14.01,2013-08-01 20:30:00,
2013-08-01 13:31:00,68.5,44.6,29.97,ENE,68,3.6,4.0,42,0.00,,,0.00,VWS V14.01,2013-08-01 20:31:00,
2013-08-01 13:32:00,68.4,44.4,29.97,ESE,112,3.6,4.0,42,0.00,,,0.00,VWS V14.01,2013-08-01 20:32:00,
2013-08-01 13:33:00,68.4,43.8,29.97,SSW,202,3.6,4.9,41,0.00,,,0.00,VWS V14.01,2013-08-01 20:33:00,
2013-08-01 13:34:00,68.4,43.8,29.97,SSE,158,4.0,4.9,41,0.00,,,0.00,VWS V14.01,2013-08-01 20:34:00,
2013-08-01 13:35:00,68.5,43.9,29.97,SW,225,6.3,6.3,41,0.00,,,0.00,VWS V14.01,2013-08-01 20:35:00,
2013-08-01 13:36:00,68.5,43.9,29.97,SW,225,6.3,8.3,41,0.00,,,0.00,VWS V14.01,2013-08-01 20:36:00,
2013-08-01 13:37:00,68.5,43.9,29.97,SSW,202,4.9,6.3,41,0.00,,,0.00,VWS V14.01,2013-08-01 20:37:00,
2013-08-01 13:39:00,68.5,43.9,29.97,SW,225,6.3,6.3,41,0.00,,,0.00,VWS V14.01,2013-08-01 20:39:00,
2013-08-01 13:40:00,68.2,43.6,29.97,SSW,202,5.4,6.3,41,0.00,,,0.00,VWS V14.01,2013-08-01 20:40:00,
2013-08-01 13:41:00,67.5,44.2,29.97,SSW,202,4.9,5.4,43,0.00,,,0.00,VWS V14.01,2013-08-01 20:41:00,
2013-08-01 13:42:00,67.3,43.4,29.97,South,180,3.1,4.9,42,0.00,,,0.00,VWS V14.01,2013-08-01 20:42:00,
2013-08-01 13:43:00,67.5,44.2,29.97,SW,225,2.7,6.3,43,0.00,,,0.00,VWS V14.01,2013-08-01 20:43:00,
2013-08-01 13:44:00,67.5,44.2,29.97,South,180,4.0,7.6,43,0.00,,,0.00,VWS V14.01,2013-08-01 20:44:00,
2013-08-01 13:45:00,67.6,44.4,29.97,SSE,158,3.1,5.4,43,0.00,,,0.00,VWS V14.01,2013-08-01 20:45:00,
2013-08-01 13:46:00,67.3,44.0,29.97,ESE,112,7.2,8.3,43,0.00,,,0.00,VWS V14.01,2013-08-01 20:46:00,
2013-08-01 13:47:00,67.5,44.2,29.97,South,180,3.1,4.0,43,0.00,,,0.00,VWS V14.01,2013-08-01 20:47:00,
2013-08-01 13:48:00,67.5,44.2,29.97,West,270,4.0,5.8,43,0.00,,,0.00,VWS V14.01,2013-08-01 20:48:00,
2013-08-01 13:49:00,67.5,44.2,29.97,South,180,8.3,9.2,43,0.00,,,0.00,VWS V14.01,2013-08-01 20:49:00,
2013-08-01 13:50:00,67.3,44.0,29.97,SSE,158,4.9,8.3,43,0.00,,,0.00,VWS V14.01,2013-08-01 20:50:00,
2013-08-01 13:51:00,67.3,44.0,29.97,WNW,292,4.9,4.9,43,0.00,,,0.00,VWS V14.01,2013-08-01 20:51:00,
2013-08-01 13:52:00,67.1,44.5,29.97,WSW,248,2.7,4.9,44,0.00,,,0.00,VWS V14.01,2013-08-01 20:52:00,
2013-08-01 13:53:00,67.3,44.0,29.97,SSW,202,7.6,7.6,43,0.00,,,0.00,VWS V14.01,2013-08-01 20:53:00,
2013-08-01 13:54:00,67.3,44.0,29.97,NNW,338,5.4,7.6,43,0.00,,,0.00,VWS V14.01,2013-08-01 20:54:00,
2013-08-01 13:55:00,67.3,44.0,29.97,SW,225,4.0,5.4,43,0.00,,,0.00,VWS V14.01,2013-08-01 20:55:00,
2013-08-01 13:56:00,67.3,44.0,29.97,SSW,202,3.6,4.9,43,0.00,,,0.00,VWS V14.01,2013-08-01 20:56:00,
2013-08-01 13:57:00,66.2,44.2,29.97,SSE,158,10.5,10.5,45,0.00,,,0.00,VWS V14.01,2013-08-01 20:57:00,
2013-08-01 13:58:00,66.9,43.7,29.97,WSW,248,11.9,11.9,43,0.00,,,0.00,VWS V14.01,2013-08-01 20:58:00,
2013-08-01 13:59:00,66.6,44.0,29.97,SW,225,5.4,11.9,44,0.00,,,0.00,VWS V14.01,2013-08-01 20:59:00,
2013-08-01 14:00:00,66.2,44.3,29.97,South,180,4.9,7.6,45,0.00,,,0.00,VWS V14.01,2013-08-01 21:00:00,
2013-08-01 14:01:00,66.2,44.3,29.97,SSE,158,5.8,10.5,45,0.00,,,0.00,VWS V14.01,2013-08-01 21:01:00,
2013-08-01 14:02:00,66.2,44.2,29.97,SSE,158,6.7,6.7,45,0.00,,,0.00,VWS V14.01,2013-08-01 21:02:00,
2013-08-01 14:03:00,66.2,44.3,29.97,SSW,202,5.8,7.6,45,0.00,,,0.00,VWS V14.01,2013-08-01 21:03:00,
2013-08-01 14:04:00,66.2,44.3,29.97,SSW,202,3.1,6.3,45,0.00,,,0.00,VWS V14.01,2013-08-01 21:04:00,
2013-08-01 14:05:00,66.4,44.4,29.97,North,0,5.4,10.1,45,0.00,,,0.00,VWS V14.01,2013-08-01 21:05:00,
2013-08-01 14:06:00,66.2,44.3,29.97,SSE,158,6.7,6.7,45,0.00,,,0.00,VWS V14.01,2013-08-01 21:06:00,
2013-08-01 14:07:00,66.2,44.3,29.97,ENE,68,3.6,6.7,45,0.00,,,0.00,VWS V14.01,2013-08-01 21:07:00,
2013-08-01 14:08:00,67.1,44.5,29.97,South,180,8.7,11.0,44,0.00,,,0.00,VWS V14.01,2013-08-01 21:08:00,
2013-08-01 14:09:00,66.7,44.7,29.97,SE,135,6.3,8.3,45,0.00,,,0.00,VWS V14.01,2013-08-01 21:09:00,
2013-08-01 14:10:00,66.9,44.9,29.97,ENE,68,2.7,6.3,45,0.00,,,0.00,VWS V14.01,2013-08-01 21:10:00,
2013-08-01 14:11:00,67.1,45.1,29.97,South,180,8.1,8.1,45,0.00,,,0.00,VWS V14.01,2013-08-01 21:11:00,
2013-08-01 14:12:00,67.1,44.5,29.97,South,180,8.7,11.0,44,0.00,,,0.00,VWS V14.01,2013-08-01 21:12:00,
2013-08-01 14:13:00,66.4,44.4,29.97,WNW,292,6.3,8.7,45,0.00,,,0.00,VWS V14.01,2013-08-01 21:13:00,
2013-08-01 14:14:00,67.1,45.1,29.97,SW,225,6.7,6.7,45,0.00,,,0.00,VWS V14.01,2013-08-01 21:14:00,
2013-08-01 14:15:00,66.6,44.6,29.97,South,180,4.9,4.9,45,0.00,,,0.00,VWS V14.01,2013-08-01 21:15:00,
2013-08-01 14:16:00,66.9,44.9,29.97,NE,45,7.6,7.6,45,0.00,,,0.00,VWS V14.01,2013-08-01 21:16:00,
2013-08-01 14:17:00,66.9,44.9,29.97,SW,225,4.0,7.6,45,0.00,,,0.00,VWS V14.01,2013-08-01 21:17:00,
2013-08-01 14:18:00,67.1,45.1,29.97,ENE,68,5.4,6.7,45,0.00,,,0.00,VWS V14.01,2013-08-01 21:18:00,
2013-08-01 14:19:00,67.5,45.4,29.97,SSW,202,6.7,11.4,45,0.00,,,0.00,VWS V14.01,2013-08-01 21:19:00,
2013-08-01 14:20:00,66.9,44.9,29.97,SSW,202,4.0,7.6,45,0.00,,,0.00,VWS V14.01,2013-08-01 21:20:00,
2013-08-01 14:21:00,66.9,44.9,29.97,WSW,248,7.6,7.6,45,0.00,,,0.00,VWS V14.01,2013-08-01 21:21:00,
2013-08-01 14:22:00,66.9,44.9,29.97,SSW,202,5.4,7.6,45,0.00,,,0.00,VWS V14.01,2013-08-01 21:22:00,
2013-08-01 14:23:00,67.5,45.4,29.97,SSW,202,6.7,11.4,45,0.00,,,0.00,VWS V14.01,2013-08-01 21:23:00,
2013-08-01 14:24:00,67.5,45.4,29.97,NNW,338,4.0,4.0,45,0.00,,,0.00,VWS V14.01,2013-08-01 21:24:00,
2013-08-01 14:25:00,67.1,45.1,29.97,SE,135,3.1,6.3,45,0.00,,,0.00,VWS V14.01,2013-08-01 21:25:00,
2013-08-01 14:26:00,67.5,45.4,29.97,NW,315,6.3,6.3,45,0.00,,,0.00,VWS V14.01,2013-08-01 21:26:00,
2013-08-01 14:27:00,67.5,45.4,29.97,NNW,338,4.0,6.3,45,0.00,,,0.00,VWS V14.01,2013-08-01 21:27:00,
2013-08-01 14:28:00,67.5,45.4,29.97,NNW,338,4.0,4.0,45,0.00,,,0.00,VWS V14.01,2013-08-01 21:28:00,
2013-08-01 14:29:00,67.5,45.4,29.97,SSE,158,3.1,4.0,45,0.00,,,0.00,VWS V14.01,2013-08-01 21:29:00,
2013-08-01 14:30:00,67.6,45.0,29.97,SSW,202,3.6,4.0,44,0.00,,,0.00,VWS V14.01,2013-08-01 21:30:00,
2013-08-01 14:31:00,67.8,45.1,29.97,WNW,292,4.0,7.2,44,0.00,,,0.00,VWS V14.01,2013-08-01 21:31:00,
2013-08-01 14:32:00,67.8,45.1,29.97,SSE,158,3.6,7.6,44,0.00,,,0.00,VWS V14.01,2013-08-01 21:32:00,
2013-08-01 14:33:00,67.6,45.0,29.97,NNE,22,4.0,8.7,44,0.00,,,0.00,VWS V14.01,2013-08-01 21:33:00,
2013-08-01 14:34:00,67.6,45.0,29.97,SSW,202,3.6,4.0,44,0.00,,,0.00,VWS V14.01,2013-08-01 21:34:00,
2013-08-01 14:35:00,68.0,45.3,29.97,South,180,3.1,3.1,44,0.00,,,0.00,VWS V14.01,2013-08-01 21:35:00,
2013-08-01 14:36:00,67.6,45.0,29.97,SSW,202,7.2,7.6,44,0.00,,,0.00,VWS V14.01,2013-08-01 21:36:00,
2013-08-01 14:37:00,67.5,45.4,29.97,North,0,3.1,7.2,45,0.00,,,0.00,VWS V14.01,2013-08-01 21:37:00,
2013-08-01 14:38:00,67.6,45.6,29.97,WSW,248,2.7,4.0,45,0.00,,,0.00,VWS V14.01,2013-08-01 21:38:00,
2013-08-01 14:39:00,68.0,45.3,29.97,South,180,3.1,3.1,44,0.00,,,0.00,VWS V14.01,2013-08-01 21:39:00,
2013-08-01 14:40:00,68.0,44.7,29.97,SSW,202,3.6,5.8,43,0.00,,,0.00,VWS V14.01,2013-08-01 21:40:00,
2013-08-01 14:41:00,68.2,45.5,29.97,WNW,292,3.6,4.9,44,0.00,,,0.00,VWS V14.01,2013-08-01 21:41:00,
2013-08-01 14:42:00,68.4,45.0,29.97,SW,225,8.1,8.1,43,0.00,,,0.00,VWS V14.01,2013-08-01 21:42:00,
2013-08-01 14:43:00,68.2,44.9,29.97,SSW,202,5.8,8.1,43,0.00,,,0.00,VWS V14.01,2013-08-01 21:43:00,
2013-08-01 14:44:00,68.0,44.7,29.97,SSW,202,3.6,5.8,43,0.00,,,0.00,VWS V14.01,2013-08-01 21:44:00,
2013-08-01 14:45:00,69.3,45.8,29.97,ESE,112,5.4,5.4,43,0.00,,,0.00,VWS V14.01,2013-08-01 21:45:00,
2013-08-01 14:46:00,68.5,45.2,29.97,SSE,158,3.1,4.9,43,0.00,,,0.00,VWS V14.01,2013-08-01 21:46:00,
2013-08-01 14:47:00,69.3,45.8,29.97,SSE,158,4.0,4.0,43,0.00,,,0.00,VWS V14.01,2013-08-01 21:47:00,
2013-08-01 14:48:00,69.3,45.8,29.97,SSW,202,3.6,4.9,43,0.00,,,0.00,VWS V14.01,2013-08-01 21:48:00,
2013-08-01 14:49:00,69.3,45.8,29.97,ESE,112,5.4,7.2,43,0.00,,,0.00,VWS V14.01,2013-08-01 21:49:00,
2013-08-01 14:50:00,69.1,45.0,29.97,SSW,202,3.6,7.6,42,0.00,,,0.00,VWS V14.01,2013-08-01 21:50:00,
2013-08-01 14:51:00,69.1,45.0,29.97,NNE,22,4.0,4.0,42,0.00,,,0.00,VWS V14.01,2013-08-01 21:51:00,
2013-08-01 14:52:00,69.1,45.0,29.97,SW,225,4.0,4.9,42,0.00,,,0.00,VWS V14.01,2013-08-01 21:52:00,
2013-08-01 14:53:00,69.3,45.2,29.97,West,270,3.6,4.0,42,0.00,,,0.00,VWS V14.01,2013-08-01 21:53:00,
2013-08-01 14:54:00,69.1,45.0,29.97,West,270,4.9,4.9,42,0.00,,,0.00,VWS V14.01,2013-08-01 21:54:00,
2013-08-01 14:55:00,69.1,45.0,29.97,NNE,22,4.0,7.6,42,0.00,,,0.00,VWS V14.01,2013-08-01 21:55:00,
2013-08-01 14:56:00,68.4,44.4,29.97,SSW,202,3.1,4.0,42,0.00,,,0.00,VWS V14.01,2013-08-01 21:56:00,
2013-08-01 14:57:00,68.7,44.7,29.97,WSW,248,4.9,4.9,42,0.00,,,0.00,VWS V14.01,2013-08-01 21:57:00,
2013-08-01 14:58:00,68.7,44.7,29.97,SSW,202,4.0,6.7,42,0.00,,,0.00,VWS V14.01,2013-08-01 21:58:00,
2013-08-01 14:59:00,68.5,44.6,29.97,WSW,248,4.9,8.1,42,0.00,,,0.00,VWS V14.01,2013-08-01 21:59:00,
2013-08-01 15:00:00,68.4,44.4,29.97,South,180,3.1,7.6,42,0.00,,,0.00,VWS V14.01,2013-08-01 22:00:00,
2013-08-01 15:01:00,68.4,44.4,29.97,NW,315,4.9,8.3,42,0.00,,,0.00,VWS V14.01,2013-08-01 22:01:00,
2013-08-01 15:02:00,68.4,45.0,29.97,WSW,248,4.9,4.9,43,0.00,,,0.00,VWS V14.01,2013-08-01 22:02:00,
2013-08-01 15:03:00,68.4,45.0,29.97,NW,315,8.7,11.4,43,0.00,,,0.00,VWS V14.01,2013-08-01 22:03:00,
2013-08-01 15:04:00,68.4,45.0,29.97,South,180,4.5,8.7,43,0.00,,,0.00,VWS V14.01,2013-08-01 22:04:00,
2013-08-01 15:05:00,68.2,44.9,29.97,WSW,248,3.1,4.5,43,0.00,,,0.00,VWS V14.01,2013-08-01 22:05:00,
2013-08-01 15:06:00,68.4,45.0,29.97,WSW,248,4.9,4.9,43,0.00,,,0.00,VWS V14.01,2013-08-01 22:06:00,
2013-08-01 15:07:00,68.4,45.0,29.97,WNW,292,3.6,5.4,43,0.00,,,0.00,VWS V14.01,2013-08-01 22:07:00,
2013-08-01 15:08:00,68.7,45.3,29.97,SSE,158,3.1,3.1,43,0.00,,,0.00,VWS V14.01,2013-08-01 22:08:00,
2013-08-01 15:09:00,68.4,45.0,29.97,NNE,22,3.1,4.9,43,0.00,,,0.00,VWS V14.01,2013-08-01 22:09:00,
2013-08-01 15:10:00,68.5,45.2,29.97,SSE,158,3.1,3.1,43,0.00,,,0.00,VWS V14.01,2013-08-01 22:10:00,
2013-08-01 15:11:00,68.7,45.3,29.97,SSE,158,3.1,3.1,43,0.00,,,0.00,VWS V14.01,2013-08-01 22:11:00,
2013-08-01 15:12:00,68.7,45.3,29.97,SSE,158,3.1,3.1,43,0.00,,,0.00,VWS V14.01,2013-08-01 22:12:00,
2013-08-01 15:13:00,68.7,45.3,29.97,SSW,202,4.0,5.4,43,0.00,,,0.00,VWS V14.01,2013-08-01 22:13:00,
2013-08-01 15:14:00,68.4,45.0,29.97,South,180,7.6,10.1,43,0.00,,,0.00,VWS V14.01,2013-08-01 22:14:00,
2013-08-01 15:15:00,68.4,45.0,29.97,SSE,158,2.7,4.0,43,0.00,,,0.00,VWS V14.01,2013-08-01 22:15:00,
2013-08-01 15:16:00,68.4,45.0,29.97,WSW,248,3.6,3.6,43,0.00,,,0.00,VWS V14.01,2013-08-01 22:16:00,
2013-08-01 15:17:00,68.4,45.0,29.97,SSW,202,10.1,10.1,43,0.00,,,0.00,VWS V14.01,2013-08-01 22:17:00,
2013-08-01 15:18:00,68.4,45.0,29.97,South,180,7.6,10.1,43,0.00,,,0.00,VWS V14.01,2013-08-01 22:18:00,
2013-08-01 15:19:00,68.4,45.0,29.97,SSW,202,3.6,8.1,43,0.00,,,0.00,VWS V14.01,2013-08-01 22:19:00,
2013-08-01 15:20:00,67.6,45.6,29.97,WSW,248,3.6,7.6,45,0.00,,,0.00,VWS V14.01,2013-08-01 22:20:00,
2013-08-01 15:21:00,67.1,45.1,29.97,SSW,202,6.3,6.3,45,0.00,,,0.00,VWS V14.01,2013-08-01 22:21:00,
2013-08-01 15:22:00,67.1,45.1,29.97,NW,315,5.8,6.3,45,0.00,,,0.00,VWS V14.01,2013-08-01 22:22:00,
2013-08-01 15:23:00,67.5,45.4,29.97,SSE,158,7.6,7.6,45,0.00,,,0.00,VWS V14.01,2013-08-01 22:23:00,
2013-08-01 15:24:00,67.6,45.6,29.97,WSW,248,3.6,7.6,45,0.00,,,0.00,VWS V14.01,2013-08-01 22:24:00,
2013-08-01 15:25:00,67.6,45.0,29.97,West,270,3.1,3.1,44,0.00,,,0.00,VWS V14.01,2013-08-01 22:25:00,
2013-08-01 15:26:00,67.8,45.7,29.97,ENE,68,5.8,7.2,45,0.00,,,0.00,VWS V14.01,2013-08-01 22:26:00,
2013-08-01 15:27:00,67.6,45.0,29.97,SSE,158,5.4,5.8,44,0.00,,,0.00,VWS V14.01,2013-08-01 22:27:00,
2013-08-01 15:28:00,67.6,45.0,29.97,WSW,248,4.9,5.4,44,0.00,,,0.00,VWS V14.01,2013-08-01 22:28:00,
2013-08-01 15:29:00,67.6,45.0,29.97,SSE,158,3.1,5.4,44,0.00,,,0.00,VWS V14.01,2013-08-01 22:29:00,
2013-08-01 15:30:00,67.5,45.4,29.97,WSW,248,6.3,6.3,45,0.00,,,0.00,VWS V14.01,2013-08-01 22:30:00,
2013-08-01 15:31:00,67.6,45.6,29.97,West,270,4.9,4.9,45,0.00,,,0.00,VWS V14.01,2013-08-01 22:31:00,
2013-08-01 15:32:00,67.6,45.6,29.97,WNW,292,5.8,5.8,45,0.00,,,0.00,VWS V14.01,2013-08-01 22:32:00,
2013-08-01 15:33:00,67.5,45.4,29.97,WNW,292,5.4,5.8,45,0.00,,,0.00,VWS V14.01,2013-08-01 22:33:00,
2013-08-01 15:34:00,67.5,45.4,29.97,WSW,248,6.3,6.3,45,0.00,,,0.00,VWS V14.01,2013-08-01 22:34:00,
2013-08-01 15:35:00,67.6,45.6,29.97,NW,315,7.2,9.2,45,0.00,,,0.00,VWS V14.01,2013-08-01 22:35:00,
2013-08-01 15:36:00,67.6,45.6,29.97,WSW,248,6.3,6.3,45,0.00,,,0.00,VWS V14.01,2013-08-01 22:36:00,
2013-08-01 15:37:00,67.6,45.6,29.97,WSW,248,6.3,6.3,45,0.00,,,0.00,VWS V14.01,2013-08-01 22:37:00,
2013-08-01 15:38:00,67.6,45.6,29.97,ESE,112,4.0,8.7,45,0.00,,,0.00,VWS V14.01,2013-08-01 22:38:00,
2013-08-01 15:39:00,67.6,45.6,29.97,WSW,248,8.1,8.1,45,0.00,,,0.00,VWS V14.01,2013-08-01 22:39:00,
2013-08-01 15:40:00,67.6,45.6,29.97,NW,315,7.2,9.2,45,0.00,,,0.00,VWS V14.01,2013-08-01 22:40:00,
2013-08-01 15:41:00,68.0,45.3,29.97,NW,315,4.0,4.0,44,0.00,,,0.00,VWS V14.01,2013-08-01 22:41:00,
2013-08-01 15:42:00,67.5,44.8,29.97,WSW,248,3.6,3.6,44,0.00,,,0.00,VWS V14.01,2013-08-01 22:42:00,
2013-08-01 15:43:00,67.5,44.8,29.97,WNW,292,3.6,9.6,44,0.00,,,0.00,VWS V14.01,2013-08-01 22:43:00,
2013-08-01 15:44:00,68.0,45.3,29.97,NW,315,4.0,4.5,44,0.00,,,0.00,VWS V14.01,2013-08-01 22:44:00,
2013-08-01 15:45:00,68.0,45.3,29.97,NW,315,4.0,4.0,44,0.00,,,0.00,VWS V14.01,2013-08-01 22:45:00,
2013-08-01 15:46:00,67.6,45.0,29.97,West,270,5.4,5.4,44,0.00,,,0.00,VWS V14.01,2013-08-01 22:46:00,
2013-08-01 15:47:00,68.2,44.9,29.97,NW,315,4.0,4.0,43,0.00,,,0.00,VWS V14.01,2013-08-01 22:47:00,
2013-08-01 15:48:00,67.8,44.5,29.97,SSW,202,4.0,4.9,43,0.00,,,0.00,VWS V14.01,2013-08-01 22:48:00,
2013-08-01 15:49:00,67.8,44.5,29.97,SSW,202,4.0,4.0,43,0.00,,,0.00,VWS V14.01,2013-08-01 22:49:00,
2013-08-01 15:50:00,67.6,45.0,29.97,West,270,5.4,5.4,44,0.00,,,0.00,VWS V14.01,2013-08-01 22:50:00,
2013-08-01 15:51:00,67.5,44.8,29.97,WNW,292,6.3,6.3,44,0.00,,,0.00,VWS V14.01,2013-08-01 22:51:00,
2013-08-01 15:52:00,67.6,45.0,29.97,West,270,5.4,5.4,44,0.00,,,0.00,VWS V14.01,2013-08-01 22:52:00,
2013-08-01 15:53:00,67.3,44.7,29.97,West,270,5.4,5.4,44,0.00,,,0.00,VWS V14.01,2013-08-01 22:53:00,
2013-08-01 15:54:00,67.3,44.7,29.97,ENE,68,3.1,5.4,44,0.00,,,0.00,VWS V14.01,2013-08-01 22:54:00,
2013-08-01 15:55:00,67.3,44.7,29.97,NW,315,3.6,3.6,44,0.00,,,0.00,VWS V14.01,2013-08-01 22:55:00,
2013-08-01 15:56:00,67.5,44.8,29.97,WNW,292,6.3,6.3,44,0.00,,,0.00,VWS V14.01,2013-08-01 22:56:00,
2013-08-01 15:57:00,67.5,44.8,29.94,SE,135,3.1,8.1,44,0.00,,,0.00,VWS V14.01,2013-08-01 22:57:00,
2013-08-01 15:58:00,67.5,44.8,29.94,NW,315,6.3,6.3,44,0.00,,,0.00,VWS V14.01,2013-08-01 22:58:00,
2013-08-01 15:59:00,67.5,44.8,29.94,WSW,248,7.2,7.2,44,0.00,,,0.00,VWS V14.01,2013-08-01 22:59:00,
2013-08-01 16:00:00,67.5,44.8,29.94,WSW,248,5.4,7.2,44,0.00,,,0.00,VWS V14.01,2013-08-01 23:00:00,
2013-08-01 16:01:00,67.5,44.8,29.94,West,270,3.1,5.4,44,0.00,,,0.00,VWS V14.01,2013-08-01 23:01:00,
2013-08-01 16:02:00,67.5,44.8,29.94,West,270,4.9,4.9,44,0.00,,,0.00,VWS V14.01,2013-08-01 23:02:00,
2013-08-01 16:03:00,67.6,45.0,29.94,SE,135,3.1,3.1,44,0.00,,,0.00,VWS V14.01,2013-08-01 23:03:00,
2013-08-01 16:04:00,67.6,45.0,29.94,SE,135,3.1,3.1,44,0.00,,,0.00,VWS V14.01,2013-08-01 23:04:00,
2013-08-01 16:05:00,67.1,44.5,29.94,SE,135,3.1,3.1,44,0.00,,,0.00,VWS V14.01,2013-08-01 23:05:00,
2013-08-01 16:06:00,67.1,44.5,29.94,SE,135,3.1,3.1,44,0.00,,,0.00,VWS V14.01,2013-08-01 23:06:00,
2013-08-01 16:07:00,68.0,44.1,29.94,SSW,202,6.3,6.3,42,0.00,,,0.00,VWS V14.01,2013-08-01 23:07:00,
2013-08-01 16:08:00,67.5,44.8,29.94,WSW,248,4.9,4.9,44,0.00,,,0.00,VWS V14.01,2013-08-01 23:08:00,
2013-08-01 16:09:00,67.5,44.8,29.94,WNW,292,4.0,4.9,44,0.00,,,0.00,VWS V14.01,2013-08-01 23:09:00,
2013-08-01 16:10:00,67.5,44.8,29.94,WNW,292,4.0,4.0,44,0.00,,,0.00,VWS V14.01,2013-08-01 23:10:00,
2013-08-01 16:11:00,68.0,44.1,29.94,SSW,202,6.3,6.3,42,0.00,,,0.00,VWS V14.01,2013-08-01 23:11:00,
2013-08-01 16:12:00,68.0,44.1,29.94,SSW,202,6.3,6.3,42,0.00,,,0.00,VWS V14.01,2013-08-01 23:12:00,
2013-08-01 16:13:00,67.6,45.0,29.94,WSW,248,4.0,4.0,44,0.00,,,0.00,VWS V14.01,2013-08-01 23:13:00,
2013-08-01 16:14:00,67.5,44.8,29.94,NW,315,6.3,6.3,44,0.00,,,0.00,VWS V14.01,2013-08-01 23:14:00,
2013-08-01 16:15:00,67.5,44.8,29.94,NW,315,6.3,6.3,44,0.00,,,0.00,VWS V14.01,2013-08-01 23:15:00,
2013-08-01 16:16:00,67.5,44.8,29.94,NW,315,4.0,6.3,44,0.00,,,0.00,VWS V14.01,2013-08-01 23:16:00,
2013-08-01 16:17:00,67.6,45.0,29.94,NW,315,3.6,4.0,44,0.00,,,0.00,VWS V14.01,2013-08-01 23:17:00,
2013-08-01 16:18:00,67.6,45.0,29.94,WSW,248,4.0,4.0,44,0.00,,,0.00,VWS V14.01,2013-08-01 23:18:00,
2013-08-01 16:19:00,68.9,44.9,29.94,WNW,292,4.5,4.5,42,0.00,,,0.00,VWS V14.01,2013-08-01 23:19:00,
2013-08-01 16:20:00,67.6,45.0,29.94,NW,315,2.2,4.0,44,0.00,,,0.00,VWS V14.01,2013-08-01 23:20:00,
2013-08-01 16:21:00,68.4,44.4,29.94,WNW,292,4.0,4.0,42,0.00,,,0.00,VWS V14.01,2013-08-01 23:21:00,
2013-08-01 16:22:00,68.4,44.4,29.94,NW,315,2.7,4.0,42,0.00,,,0.00,VWS V14.01,2013-08-01 23:22:00,
2013-08-01 16:23:00,68.4,44.4,29.94,WSW,248,3.6,3.6,42,0.00,,,0.00,VWS V14.01,2013-08-01 23:23:00,
2013-08-01 16:24:00,68.9,44.9,29.94,SSE,158,5.8,5.8,42,0.00,,,0.00,VWS V14.01,2013-08-01 23:24:00,
2013-08-01 16:25:00,67.8,45.1,29.94,SSW,202,8.3,8.3,44,0.00,,,0.00,VWS V14.01,2013-08-01 23:25:00,
2013-08-01 16:26:00,67.6,44.4,29.94,SSE,158,12.8,13.2,43,0.00,,,0.00,VWS V14.01,2013-08-01 23:26:00,
2013-08-01 16:27:00,67.6,44.4,29.94,SSE,158,7.2,12.8,43,0.00,,,0.00,VWS V14.01,2013-08-01 23:27:00,
2013-08-01 16:28:00,67.6,44.4,29.94,SW,225,4.9,7.2,43,0.00,,,0.00,VWS V14.01,2013-08-01 23:28:00,
2013-08-01 16:29:00,67.8,45.1,29.94,SSW,202,8.3,8.3,44,0.00,,,0.00,VWS V14.01,2013-08-01 23:29:00,
2013-08-01 16:30:00,67.1,44.5,29.94,WSW,248,3.6,7.6,44,0.00,,,0.00,VWS V14.01,2013-08-01 23:30:00,
2013-08-01 16:31:00,67.8,45.1,29.94,WSW,248,4.0,4.0,44,0.00,,,0.00,VWS V14.01,2013-08-01 23:31:00,
2013-08-01 16:32:00,67.8,45.1,29.94,SSE,158,10.1,10.1,44,0.00,,,0.00,VWS V14.01,2013-08-01 23:32:00,
2013-08-01 16:33:00,67.6,44.4,29.94,SSW,202,5.8,10.1,43,0.00,,,0.00,VWS V14.01,2013-08-01 23:33:00,
2013-08-01 16:34:00,67.1,44.5,29.94,SSW,202,7.6,7.6,44,0.00,,,0.00,VWS V14.01,2013-08-01 23:34:00,
2013-08-01 16:35:00,67.1,44.5,29.94,WSW,248,3.6,7.6,44,0.00,,,0.00,VWS V14.01,2013-08-01 23:35:00,
2013-08-01 16:36:00,67.6,45.0,29.94,WSW,248,2.7,5.4,44,0.00,,,0.00,VWS V14.01,2013-08-01 23:36:00,
2013-08-01 16:37:00,67.1,44.5,29.94,WNW,292,2.7,2.7,44,0.00,,,0.00,VWS V14.01,2013-08-01 23:37:00,
2013-08-01 16:38:00,67.6,45.0,29.94,SW,225,4.5,4.5,44,0.00,,,0.00,VWS V14.01,2013-08-01 23:38:00,
2013-08-01 16:39:00,67.6,45.0,29.94,ENE,68,3.1,4.5,44,0.00,,,0.00,VWS V14.01,2013-08-01 23:39:00,
2013-08-01 16:40:00,67.6,45.0,29.94,SSW,202,5.4,5.4,44,0.00,,,0.00,VWS V14.01,2013-08-01 23:40:00,
2013-08-01 16:41:00,67.6,45.0,29.94,WSW,248,2.7,5.4,44,0.00,,,0.00,VWS V14.01,2013-08-01 23:41:00,
2013-08-01 16:42:00,67.8,45.1,29.94,South,180,4.0,4.0,44,0.00,,,0.00,VWS V14.01,2013-08-01 23:42:00,
2013-08-01 16:43:00,67.8,45.1,29.94,West,270,6.3,6.3,44,0.00,,,0.00,VWS V14.01,2013-08-01 23:43:00,
2013-08-01 16:44:00,67.8,45.1,29.94,SSE,158,5.4,6.3,44,0.00,,,0.00,VWS V14.01,2013-08-01 23:44:00,
2013-08-01 16:45:00,67.8,45.1,29.94,SSW,202,3.6,5.4,44,0.00,,,0.00,VWS V14.01,2013-08-01 23:45:00,
2013-08-01 16:46:00,67.8,45.1,29.94,SSW,202,2.2,3.6,44,0.00,,,0.00,VWS V14.01,2013-08-01 23:46:00,
2013-08-01 16:47:00,68.0,44.7,29.94,SSW,202,3.1,4.0,43,0.00,,,0.00,VWS V14.01,2013-08-01 23:47:00,
2013-08-01 16:48:00,68.0,44.7,29.94,SSW,202,3.1,4.5,43,0.00,,,0.00,VWS V14.01,2013-08-01 23:48:00,
2013-08-01 16:49:00,68.0,44.7,29.94,SSW,202,4.0,5.4,43,0.00,,,0.00,VWS V14.01,2013-08-01 23:49:00,
2013-08-01 16:50:00,68.2,44.9,29.94,SSW,202,8.1,8.1,43,0.00,,,0.00,VWS V14.01,2013-08-01 23:50:00,
2013-08-01 16:51:00,68.0,44.7,29.94,SW,225,2.7,8.1,43,0.00,,,0.00,VWS V14.01,2013-08-01 23:51:00,
2013-08-01 16:52:00,66.6,44.0,29.94,SW,225,5.4,10.5,44,0.00,,,0.00,VWS V14.01,2013-08-01 23:52:00,
2013-08-01 16:54:00,67.8,44.5,29.94,NNE,22,4.0,7.6,43,0.00,,,0.00,VWS V14.01,2013-08-01 23:54:00,
2013-08-01 16:55:00,67.8,44.5,29.94,SSE,158,8.3,8.3,43,0.00,,,0.00,VWS V14.01,2013-08-01 23:55:00,
2013-08-01 16:56:00,67.3,44.0,29.94,SE,135,8.1,12.8,43,0.00,,,0.00,VWS V14.01,2013-08-01 23:56:00,
2013-08-01 16:57:00,66.6,44.0,29.94,SW,225,5.4,10.5,44,0.00,,,0.00,VWS V14.01,2013-08-01 23:57:00,
2013-08-01 16:58:00,65.8,44.5,29.94,SSW,202,3.1,6.3,46,0.00,,,0.00,VWS V14.01,2013-08-01 23:58:00,
2013-08-01 16:59:00,66.0,44.1,29.94,South,180,4.9,8.7,45,0.00,,,0.00,VWS V14.01,2013-08-01 23:59:00,
2013-08-01 17:00:00,65.7,44.3,29.94,South,180,4.9,10.1,46,0.00,,,0.00,VWS V14.01,2013-08-02 00:00:00,
2013-08-01 17:01:00,65.7,44.3,29.94,East,90,11.0,11.0,46,0.00,,,0.00,VWS V14.01,2013-08-02 00:01:00,
2013-08-01 17:02:00,65.5,44.2,29.94,SSW,202,6.3,11.0,46,0.00,,,0.00,VWS V14.01,2013-08-02 00:02:00,
2013-08-01 17:03:00,66.7,44.8,29.94,ENE,68,3.6,3.6,45,0.00,,,0.00,VWS V14.01,2013-08-02 00:03:00,
2013-08-01 17:04:00,65.8,44.5,29.94,SSE,158,4.0,6.3,46,0.00,,,0.00,VWS V14.01,2013-08-02 00:04:00,
2013-08-01 17:05:00,66.0,44.7,29.94,SSW,202,3.6,6.3,46,0.00,,,0.00,VWS V14.01,2013-08-02 00:05:00,
2013-08-01 17:06:00,66.2,44.3,29.94,South,180,3.1,4.9,45,0.00,,,0.00,VWS V14.01,2013-08-02 00:06:00,
2013-08-01 17:07:00,66.4,44.4,29.94,SSW,202,3.6,8.3,45,0.00,,,0.00,VWS V14.01,2013-08-02 00:07:00,
2013-08-01 17:08:00,66.7,44.8,29.91,SSW,202,3.6,3.6,45,0.00,,,0.00,VWS V14.01,2013-08-02 00:08:00,
2013-08-01 17:09:00,66.7,44.7,29.94,NW,315,4.5,9.6,45,0.00,,,0.00,VWS V14.01,2013-08-02 00:09:00,
2013-08-01 17:10:00,66.7,44.7,29.94,SSW,202,3.6,4.5,45,0.00,,,0.00,VWS V14.01,2013-08-02 00:10:00,
2013-08-01 17:11:00,66.7,44.7,29.94,SSW,202,5.8,5.8,45,0.00,,,0.00,VWS V14.01,2013-08-02 00:11:00,
2013-08-01 17:12:00,66.7,44.7,29.91,South,180,3.1,5.8,45,0.00,,,0.00,VWS V14.01,2013-08-02 00:12:00,
2013-08-01 17:13:00,66.7,44.7,29.91,SSW,202,3.6,5.4,45,0.00,,,0.00,VWS V14.01,2013-08-02 00:13:00,
2013-08-01 17:14:00,66.2,44.2,29.91,WNW,292,4.9,5.8,45,0.00,,,0.00,VWS V14.01,2013-08-02 00:14:00,
2013-08-01 17:15:00,66.0,44.1,29.91,SSE,158,8.3,10.5,45,0.00,,,0.00,VWS V14.01,2013-08-02 00:15:00,
2013-08-01 17:16:00,66.0,44.7,29.91,WSW,248,2.7,9.2,46,0.00,,,0.00,VWS V14.01,2013-08-02 00:16:00,
2013-08-01 17:17:00,66.0,44.7,29.91,SSE,158,3.1,5.8,46,0.00,,,0.00,VWS V14.01,2013-08-02 00:17:00,
2013-08-01 17:18:00,66.2,44.3,29.91,NNE,22,3.1,4.9,45,0.00,,,0.00,VWS V14.01,2013-08-02 00:18:00,
2013-08-01 17:19:00,66.6,44.6,29.91,South,180,11.0,11.0,45,0.00,,,0.00,VWS V14.01,2013-08-02 00:19:00,
2013-08-01 17:20:00,66.2,44.3,29.91,West,270,4.0,4.9,45,0.00,,,0.00,VWS V14.01,2013-08-02 00:20:00,
2013-08-01 17:21:00,66.2,44.3,29.91,South,180,3.1,6.3,45,0.00,,,0.00,VWS V14.01,2013-08-02 00:21:00,
2013-08-01 17:22:00,66.4,44.4,29.91,WNW,292,4.0,7.2,45,0.00,,,0.00,VWS V14.01,2013-08-02 00:22:00,
2013-08-01 17:23:00,66.4,44.4,29.91,SW,225,3.6,6.3,45,0.00,,,0.00,VWS V14.01,2013-08-02 00:23:00,
2013-08-01 17:24:00,66.6,44.6,29.91,South,180,11.0,11.0,45,0.00,,,0.00,VWS V14.01,2013-08-02 00:24:00,
2013-08-01 17:25:00,65.7,44.3,29.91,WSW,248,4.0,5.8,46,0.00,,,0.00,VWS V14.01,2013-08-02 00:25:00,
2013-08-01 17:26:00,65.8,44.5,29.91,NW,315,4.0,5.4,46,0.00,,,0.00,VWS V14.01,2013-08-02 00:26:00,
2013-08-01 17:27:00,66.0,44.7,29.91,SE,135,2.7,5.4,46,0.00,,,0.00,VWS V14.01,2013-08-02 00:27:00,
2013-08-01 17:28:00,66.0,44.7,29.91,SSE,158,7.6,7.6,46,0.00,,,0.00,VWS V14.01,2013-08-02 00:28:00,
2013-08-01 17:29:00,65.8,44.5,29.91,WSW,248,3.1,7.6,46,0.00,,,0.00,VWS V14.01,2013-08-02 00:29:00,
2013-08-01 17:30:00,65.7,44.3,29.91,WSW,248,4.0,5.8,46,0.00,,,0.00,VWS V14.01,2013-08-02 00:30:00,
2013-08-01 17:31:00,65.7,44.3,29.91,South,180,8.3,8.3,46,0.00,,,0.00,VWS V14.01,2013-08-02 00:31:00,
2013-08-01 17:32:00,64.0,44.0,29.91,SSE,158,4.9,8.7,48,0.00,,,0.00,VWS V14.01,2013-08-02 00:32:00,
2013-08-01 17:33:00,64.8,44.1,29.91,South,180,2.7,5.4,47,0.00,,,0.00,VWS V14.01,2013-08-02 00:33:00,
2013-08-01 17:34:00,64.8,44.1,29.91,South,180,7.6,7.6,47,0.00,,,0.00,VWS V14.01,2013-08-02 00:34:00,
2013-08-01 17:35:00,64.2,44.1,29.91,SW,225,7.6,13.2,48,0.00,,,0.00,VWS V14.01,2013-08-02 00:35:00,
2013-08-01 17:37:00,64.0,44.0,29.91,SSE,158,4.9,8.7,48,0.00,,,0.00,VWS V14.01,2013-08-02 00:37:00,
2013-08-01 17:38:00,63.9,44.9,29.91,WSW,248,5.4,5.4,50,0.00,,,0.00,VWS V14.01,2013-08-02 00:38:00,
2013-08-01 17:39:00,64.0,44.5,29.91,South,180,6.7,6.7,49,0.00,,,0.00,VWS V14.01,2013-08-02 00:39:00,
2013-08-01 17:40:00,63.9,44.3,29.91,South,180,4.0,7.2,49,0.00,,,0.00,VWS V14.01,2013-08-02 00:40:00,
2013-08-01 17:41:00,63.9,44.3,29.91,SW,225,0.0,5.8,49,0.00,,,0.00,VWS V14.01,2013-08-02 00:41:00,
2013-08-01 17:42:00,63.9,44.3,29.91,NE,45,2.2,5.4,49,0.00,,,0.00,VWS V14.01,2013-08-02 00:42:00,
2013-08-01 17:43:00,63.9,44.9,29.91,WSW,248,2.7,6.3,50,0.00,,,0.00,VWS V14.01,2013-08-02 00:43:00,
2013-08-01 17:44:00,63.9,44.9,29.91,SSE,158,4.0,5.8,50,0.00,,,0.00,VWS V14.01,2013-08-02 00:44:00,
2013-08-01 17:45:00,63.9,44.9,29.91,NNE,22,5.8,6.3,50,0.00,,,0.00,VWS V14.01,2013-08-02 00:45:00,
2013-08-01 17:46:00,63.9,44.9,29.91,WNW,292,3.6,6.3,50,0.00,,,0.00,VWS V14.01,2013-08-02 00:46:00,
2013-08-01 17:47:00,63.9,44.9,29.91,WSW,248,2.7,6.3,50,0.00,,,0.00,VWS V14.01,2013-08-02 00:47:00,
2013-08-01 17:48:00,63.7,44.7,29.91,WSW,248,2.2,4.9,50,0.00,,,0.00,VWS V14.01,2013-08-02 00:48:00,
2013-08-01 17:49:00,63.9,44.9,29.91,West,270,3.1,3.1,50,0.00,,,0.00,VWS V14.01,2013-08-02 00:49:00,
2013-08-01 17:50:00,63.9,44.9,29.91,North,0,2.7,5.8,50,0.00,,,0.00,VWS V14.01,2013-08-02 00:50:00,
2013-08-01 17:51:00,63.9,44.9,29.91,SSW,202,4.9,4.9,50,0.00,,,0.00,VWS V14.01,2013-08-02 00:51:00,
2013-08-01 17:52:00,63.7,44.7,29.91,WSW,248,2.2,4.9,50,0.00,,,0.00,VWS V14.01,2013-08-02 00:52:00,
2013-08-01 17:53:00,63.3,44.4,29.91,SSE,158,3.6,5.8,50,0.00,,,0.00,VWS V14.01,2013-08-02 00:53:00,
2013-08-01 17:54:00,63.5,44.5,29.91,SSE,158,4.0,4.0,50,0.00,,,0.00,VWS V14.01,2013-08-02 00:54:00,
2013-08-01 17:55:00,63.5,44.5,29.91,North,0,2.7,4.0,50,0.00,,,0.00,VWS V14.01,2013-08-02 00:55:00,
2013-08-01 17:56:00,63.5,44.5,29.91,WSW,248,5.8,5.8,50,0.00,,,0.00,VWS V14.01,2013-08-02 00:56:00,
2013-08-01 17:57:00,63.3,44.4,29.91,SSE,158,3.6,5.8,50,0.00,,,0.00,VWS V14.01,2013-08-02 00:57:00,
2013-08-01 17:58:00,63.3,44.9,29.91,NNE,22,3.6,7.2,51,0.00,,,0.00,VWS V14.01,2013-08-02 00:58:00,
2013-08-01 17:59:00,63.3,44.9,29.91,West,270,2.7,5.4,51,0.00,,,0.00,VWS V14.01,2013-08-02 00:59:00,
2013-08-01 18:00:00,63.1,44.7,29.91,South,180,2.7,3.1,51,0.00,,,0.00,VWS V14.01,2013-08-02 01:00:00,
2013-08-01 18:01:00,63.1,44.7,29.91,NW,315,3.6,6.3,51,0.00,,,0.00,VWS V14.01,2013-08-02 01:01:00,
2013-08-01 18:02:00,63.3,44.9,29.91,NNE,22,3.6,7.2,51,0.00,,,0.00,VWS V14.01,2013-08-02 01:02:00,
2013-08-01 18:03:00,63.3,45.4,29.91,SSW,202,3.6,3.6,52,0.00,,,0.00,VWS V14.01,2013-08-02 01:03:00,
2013-08-01 18:04:00,63.5,45.1,29.91,WNW,292,4.9,5.4,51,0.00,,,0.00,VWS V14.01,2013-08-02 01:04:00,
2013-08-01 18:05:00,63.5,45.6,29.91,NNW,338,3.6,5.8,52,0.00,,,0.00,VWS V14.01,2013-08-02 01:05:00,
2013-08-01 18:06:00,63.5,45.1,29.91,SE,135,3.1,6.3,51,0.00,,,0.00,VWS V14.01,2013-08-02 01:06:00,
2013-08-01 18:07:00,63.5,45.1,29.91,SE,135,2.7,5.4,51,0.00,,,0.00,VWS V14.01,2013-08-02 01:07:00,
2013-08-01 18:08:00,63.5,45.1,29.91,WNW,292,4.9,5.4,51,0.00,,,0.00,VWS V14.01,2013-08-02 01:08:00,
2013-08-01 18:09:00,63.3,44.9,29.91,West,270,4.0,7.2,51,0.00,,,0.00,VWS V14.01,2013-08-02 01:09:00,
2013-08-01 18:10:00,63.0,45.1,29.91,SW,225,3.1,8.3,52,0.00,,,0.00,VWS V14.01,2013-08-02 01:10:00,
2013-08-01 18:11:00,63.3,44.9,29.91,SSW,202,3.6,4.0,51,0.00,,,0.00,VWS V14.01,2013-08-02 01:11:00,
2013-08-01 18:12:00,63.1,45.2,29.91,WSW,248,3.6,3.6,52,0.00,,,0.00,VWS V14.01,2013-08-02 01:12:00,
2013-08-01 18:13:00,63.1,45.2,29.91,SE,135,5.8,5.8,52,0.00,,,0.00,VWS V14.01,2013-08-02 01:13:00,
2013-08-01 18:14:00,63.0,45.1,29.91,SW,225,3.1,8.3,52,0.00,,,0.00,VWS V14.01,2013-08-02 01:14:00,
2013-08-01 18:15:00,62.4,45.1,29.91,SSE,158,4.9,4.9,53,0.00,,,0.00,VWS V14.01,2013-08-02 01:15:00,
2013-08-01 18:16:00,63.0,45.1,29.91,SSW,202,5.8,7.2,52,0.00,,,0.00,VWS V14.01,2013-08-02 01:16:00,
2013-08-01 18:17:00,62.8,44.9,29.91,SSE,158,14.5,14.5,52,0.00,,,0.00,VWS V14.01,2013-08-02 01:17:00,
2013-08-01 18:18:00,62.6,44.8,29.91,ESE,112,3.6,14.5,52,0.00,,,0.00,VWS V14.01,2013-08-02 01:18:00,
2013-08-01 18:19:00,62.4,45.1,29.91,SSE,158,4.9,4.9,53,0.00,,,0.00,VWS V14.01,2013-08-02 01:19:00,
2013-08-01 18:20:00,62.4,45.1,29.91,NNE,22,4.9,7.2,53,0.00,,,0.00,VWS V14.01,2013-08-02 01:20:00,
2013-08-01 18:21:00,62.1,45.2,29.91,West,270,2.7,2.7,54,0.00,,,0.00,VWS V14.01,2013-08-02 01:21:00,
2013-08-01 18:22:00,62.2,44.9,29.91,SSW,202,8.3,8.3,53,0.00,,,0.00,VWS V14.01,2013-08-02 01:22:00,
2013-08-01 18:23:00,62.2,45.4,29.91,SW,225,4.0,8.3,54,0.00,,,0.00,VWS V14.01,2013-08-02 01:23:00,
2013-08-01 18:24:00,62.1,45.2,29.91,NNE,22,2.2,4.0,54,0.00,,,0.00,VWS V14.01,2013-08-02 01:24:00,
2013-08-01 18:25:00,62.1,45.2,29.91,WNW,292,4.5,4.5,54,0.00,,,0.00,VWS V14.01,2013-08-02 01:25:00,
2013-08-01 18:26:00,62.1,45.2,29.91,SSE,158,4.0,6.3,54,0.00,,,0.00,VWS V14.01,2013-08-02 01:26:00,
2013-08-01 18:27:00,61.9,45.5,29.91,WSW,248,2.7,8.3,55,0.00,,,0.00,VWS V14.01,2013-08-02 01:27:00,
2013-08-01 18:28:00,62.1,45.2,29.91,South,180,2.7,4.0,54,0.00,,,0.00,VWS V14.01,2013-08-02 01:28:00,
2013-08-01 18:29:00,62.1,45.2,29.91,SSW,202,8.3,8.3,54,0.00,,,0.00,VWS V14.01,2013-08-02 01:29:00,
2013-08-01 18:30:00,61.9,45.1,29.91,SSW,202,8.3,8.3,54,0.00,,,0.00,VWS V14.01,2013-08-02 01:30:00,
2013-08-01 18:31:00,61.9,45.5,29.91,WSW,248,2.7,8.3,55,0.00,,,0.00,VWS V14.01,2013-08-02 01:31:00,
2013-08-01 18:32:00,62.1,45.7,29.91,SSE,158,10.1,10.1,55,0.00,,,0.00,VWS V14.01,2013-08-02 01:32:00,
2013-08-01 18:33:00,62.1,45.7,29.91,SW,225,2.2,3.1,55,0.00,,,0.00,VWS V14.01,2013-08-02 01:33:00,
2013-08-01 18:34:00,62.1,45.7,29.91,SSE,158,2.7,6.3,55,0.00,,,0.00,VWS V14.01,2013-08-02 01:34:00,
2013-08-01 18:35:00,62.1,45.7,29.91,WSW,248,2.7,6.3,55,0.00,,,0.00,VWS V14.01,2013-08-02 01:35:00,
2013-08-01 18:36:00,62.1,45.7,29.91,SSE,158,10.1,12.8,55,0.00,,,0.00,VWS V14.01,2013-08-02 01:36:00,
2013-08-01 18:37:00,61.9,45.5,29.91,South,180,6.7,11.9,55,0.00,,,0.00,VWS V14.01,2013-08-02 01:37:00,
2013-08-01 18:38:00,61.3,45.5,29.91,WSW,248,4.5,4.5,56,0.00,,,0.00,VWS V14.01,2013-08-02 01:38:00,
2013-08-01 18:39:00,61.7,45.4,29.91,South,180,11.4,11.4,55,0.00,,,0.00,VWS V14.01,2013-08-02 01:39:00,
2013-08-01 18:40:00,61.5,45.2,29.91,South,180,2.2,11.4,55,0.00,,,0.00,VWS V14.01,2013-08-02 01:40:00,
2013-08-01 18:41:00,61.5,45.7,29.91,West,270,3.1,7.2,56,0.00,,,0.00,VWS V14.01,2013-08-02 01:41:00,
2013-08-01 18:42:00,61.3,45.5,29.91,WSW,248,4.5,4.5,56,0.00,,,0.00,VWS V14.01,2013-08-02 01:42:00,
2013-08-01 18:43:00,61.3,45.5,29.91,WNW,292,5.4,5.4,56,0.00,,,0.00,VWS V14.01,2013-08-02 01:43:00,
2013-08-01 18:44:00,61.2,45.4,29.91,SSE,158,4.0,5.8,56,0.00,,,0.00,VWS V14.01,2013-08-02 01:44:00,
2013-08-01 18:45:00,61.3,45.5,29.91,West,270,3.6,5.8,56,0.00,,,0.00,VWS V14.01,2013-08-02 01:45:00,
2013-08-01 18:46:00,61.3,45.5,29.91,SSE,158,4.0,4.0,56,0.00,,,0.00,VWS V14.01,2013-08-02 01:46:00,
2013-08-01 18:47:00,61.3,45.5,29.91,SSW,202,3.6,6.7,56,0.00,,,0.00,VWS V14.01,2013-08-02 01:47:00,
2013-08-01 18:48:00,61.2,45.4,29.91,South,180,7.6,7.6,56,0.00,,,0.00,VWS V14.01,2013-08-02 01:48:00,
2013-08-01 18:49:00,61.0,45.7,29.91,SW,225,3.6,4.0,57,0.00,,,0.00,VWS V14.01,2013-08-02 01:49:00,
2013-08-01 18:50:00,61.2,45.8,29.91,NNW,338,4.9,4.9,57,0.00,,,0.00,VWS V14.01,2013-08-02 01:50:00,
2013-08-01 18:51:00,61.2,45.8,29.91,WNW,292,4.0,6.3,57,0.00,,,0.00,VWS V14.01,2013-08-02 01:51:00,
2013-08-01 18:52:00,61.0,45.7,29.91,SSW,202,3.1,4.0,57,0.00,,,0.00,VWS V14.01,2013-08-02 01:52:00,
2013-08-01 18:53:00,61.0,45.7,29.91,SW,225,3.6,4.0,57,0.00,,,0.00,VWS V14.01,2013-08-02 01:53:00,
2013-08-01 18:54:00,61.0,45.7,29.88,SSW,202,2.7,4.9,57,0.00,,,0.00,VWS V14.01,2013-08-02 01:54:00,
2013-08-01 18:55:00,61.0,45.7,29.91,WSW,248,3.1,6.7,57,0.00,,,0.00,VWS V14.01,2013-08-02 01:55:00,
2013-08-01 18:56:00,61.0,45.7,29.88,South,180,4.0,4.9,57,0.00,,,0.00,VWS V14.01,2013-08-02 01:56:00,
2013-08-01 18:57:00,61.0,45.7,29.88,WNW,292,4.0,5.8,57,0.00,,,0.00,VWS V14.01,2013-08-02 01:57:00,
2013-08-01 18:58:00,61.0,45.7,29.88,SSW,202,2.7,4.9,57,0.00,,,0.00,VWS V14.01,2013-08-02 01:58:00,
2013-08-01 18:59:00,61.0,46.1,29.88,WNW,292,3.1,3.6,58,0.00,,,0.00,VWS V14.01,2013-08-02 01:59:00,
2013-08-01 19:00:00,61.0,46.1,29.88,SSW,202,2.2,4.0,58,0.00,,,0.00,VWS V14.01,2013-08-02 02:00:00,
2013-08-01 19:01:00,61.0,46.1,29.88,SSE,158,3.1,6.3,58,0.00,,,0.00,VWS V14.01,2013-08-02 02:01:00,
2013-08-01 19:02:00,61.0,46.1,29.88,ESE,112,3.6,4.0,58,0.00,,,0.00,VWS V14.01,2013-08-02 02:02:00,
2013-08-01 19:03:00,61.0,46.1,29.88,West,270,4.0,4.0,58,0.00,,,0.00,VWS V14.01,2013-08-02 02:03:00,
2013-08-01 19:04:00,61.0,46.1,29.88,SSW,202,2.2,4.0,58,0.00,,,0.00,VWS V14.01,2013-08-02 02:04:00,
2013-08-01 19:05:00,61.0,46.1,29.88,ESE,112,4.0,4.0,58,0.00,,,0.00,VWS V14.01,2013-08-02 02:05:00,
2013-08-01 19:06:00,61.0,46.1,29.88,SSW,202,2.2,4.9,58,0.00,,,0.00,VWS V14.01,2013-08-02 02:06:00,
2013-08-01 19:07:00,61.0,46.1,29.88,SSW,202,4.0,6.3,58,0.00,,,0.00,VWS V14.01,2013-08-02 02:07:00,
2013-08-01 19:08:00,61.0,46.1,29.88,SSW,202,2.7,4.0,58,0.00,,,0.00,VWS V14.01,2013-08-02 02:08:00,
2013-08-01 19:09:00,61.0,46.1,29.88,ESE,112,4.0,4.0,58,0.00,,,0.00,VWS V14.01,2013-08-02 02:09:00,
2013-08-01 19:10:00,60.8,46.0,29.88,WSW,248,3.1,4.0,58,0.00,,,0.00,VWS V14.01,2013-08-02 02:10:00,
2013-08-01 19:11:00,60.8,46.4,29.88,WSW,248,3.1,8.1,59,0.00,,,0.00,VWS V14.01,2013-08-02 02:11:00,
2013-08-01 19:12:00,61.0,46.1,29.88,SSE,158,3.1,5.8,58,0.00,,,0.00,VWS V14.01,2013-08-02 02:12:00,
2013-08-01 19:13:00,61.0,46.1,29.88,SSE,158,8.7,8.7,58,0.00,,,0.00,VWS V14.01,2013-08-02 02:13:00,
2013-08-01 19:14:00,61.0,46.1,29.88,South,180,8.1,8.7,58,0.00,,,0.00,VWS V14.01,2013-08-02 02:14:00,
2013-08-01 19:15:00,60.8,46.4,29.88,WSW,248,3.1,8.1,59,0.00,,,0.00,VWS V14.01,2013-08-02 02:15:00,
2013-08-01 19:16:00,60.8,46.4,29.88,SSW,202,5.4,5.4,59,0.00,,,0.00,VWS V14.01,2013-08-02 02:16:00,
2013-08-01 19:17:00,60.8,46.4,29.88,South,180,3.1,5.4,59,0.00,,,0.00,VWS V14.01,2013-08-02 02:17:00,
2013-08-01 19:18:00,60.8,46.4,29.88,SSE,158,2.7,3.1,59,0.00,,,0.00,VWS V14.01,2013-08-02 02:18:00,
2013-08-01 19:19:00,60.8,46.4,29.88,WSW,248,3.1,3.1,59,0.00,,,0.00,VWS V14.01,2013-08-02 02:19:00,
2013-08-01 19:20:00,60.8,46.4,29.88,SSW,202,0.0,4.5,59,0.00,,,0.00,VWS V14.01,2013-08-02 02:20:00,
2013-08-01 19:21:00,60.8,46.4,29.88,South,180,3.1,5.4,59,0.00,,,0.00,VWS V14.01,2013-08-02 02:21:00,
2013-08-01 19:22:00,60.6,46.7,29.88,WNW,292,4.0,5.4,60,0.00,,,0.00,VWS V14.01,2013-08-02 02:22:00,
2013-08-01 19:23:00,60.8,46.4,29.88,West,270,4.0,4.0,59,0.00,,,0.00,VWS V14.01,2013-08-02 02:23:00,
2013-08-01 19:24:00,60.8,46.4,29.88,SSW,202,6.3,6.3,59,0.00,,,0.00,VWS V14.01,2013-08-02 02:24:00,
2013-08-01 19:25:00,60.6,46.7,29.88,SSE,158,3.6,6.3,60,0.00,,,0.00,VWS V14.01,2013-08-02 02:25:00,
2013-08-01 19:26:00,60.6,46.7,29.88,ESE,112,0.0,3.6,60,0.00,,,0.00,VWS V14.01,2013-08-02 02:26:00,
2013-08-01 19:27:00,60.6,46.7,29.88,South,180,3.1,5.4,60,0.00,,,0.00,VWS V14.01,2013-08-02 02:27:00,
2013-08-01 19:28:00,60.6,46.7,29.88,West,270,3.1,7.2,60,0.00,,,0.00,VWS V14.01,2013-08-02 02:28:00,
2013-08-01 19:29:00,60.6,46.7,29.88,South,180,2.7,4.0,60,0.00,,,0.00,VWS V14.01,2013-08-02 02:29:00,
2013-08-01 19:30:00,60.6,46.7,29.88,WNW,292,3.1,3.1,60,0.00,,,0.00,VWS V14.01,2013-08-02 02:30:00,
2013-08-01 19:31:00,60.6,46.7,29.88,SSE,158,7.2,7.2,60,0.00,,,0.00,VWS V14.01,2013-08-02 02:31:00,
2013-08-01 19:32:00,60.6,46.7,29.88,West,270,3.1,7.2,60,0.00,,,0.00,VWS V14.01,2013-08-02 02:32:00,
2013-08-01 19:33:00,60.6,46.7,29.88,SSW,202,4.9,6.3,60,0.00,,,0.00,VWS V14.01,2013-08-02 02:33:00,
2013-08-01 19:34:00,60.3,46.8,29.88,South,180,5.8,5.8,61,0.00,,,0.00,VWS V14.01,2013-08-02 02:34:00,
2013-08-01 19:35:00,60.3,46.8,29.88,SSE,158,8.3,8.7,61,0.00,,,0.00,VWS V14.01,2013-08-02 02:35:00,
2013-08-01 19:36:00,60.3,46.8,29.88,ESE,112,6.3,8.3,61,0.00,,,0.00,VWS V14.01,2013-08-02 02:36:00,
2013-08-01 19:37:00,60.3,46.8,29.88,NNW,338,2.7,6.3,61,0.00,,,0.00,VWS V14.01,2013-08-02 02:37:00,
2013-08-01 19:38:00,60.3,46.8,29.88,South,180,5.8,5.8,61,0.00,,,0.00,VWS V14.01,2013-08-02 02:38:00,
2013-08-01 19:39:00,60.1,47.0,29.88,SE,135,2.7,2.7,62,0.00,,,0.00,VWS V14.01,2013-08-02 02:39:00,
2013-08-01 19:40:00,60.1,47.0,29.88,South,180,8.1,8.1,62,0.00,,,0.00,VWS V14.01,2013-08-02 02:40:00,
2013-08-01 19:41:00,60.1,47.0,29.88,South,180,3.6,8.1,62,0.00,,,0.00,VWS V14.01,2013-08-02 02:41:00,
2013-08-01 19:42:00,60.1,47.0,29.88,SE,135,2.7,6.3,62,0.00,,,0.00,VWS V14.01,2013-08-02 02:42:00,
2013-08-01 19:43:00,60.1,47.0,29.88,SE,135,2.7,2.7,62,0.00,,,0.00,VWS V14.01,2013-08-02 02:43:00,
2013-08-01 19:44:00,60.1,47.5,29.88,SSW,202,8.1,8.1,63,0.00,,,0.00,VWS V14.01,2013-08-02 02:44:00,
2013-08-01 19:45:00,60.1,47.0,29.88,ENE,68,2.7,5.4,62,0.00,,,0.00,VWS V14.01,2013-08-02 02:45:00,
2013-08-01 19:46:00,60.1,47.5,29.88,WSW,248,3.1,5.8,63,0.00,,,0.00,VWS V14.01,2013-08-02 02:46:00,
2013-08-01 19:47:00,60.1,47.5,29.88,SW,225,2.7,4.0,63,0.00,,,0.00,VWS V14.01,2013-08-02 02:47:00,
2013-08-01 19:48:00,60.1,47.5,29.88,SSW,202,3.6,3.6,63,0.00,,,0.00,VWS V14.01,2013-08-02 02:48:00,
2013-08-01 19:49:00,60.1,47.5,29.88,SSW,202,5.4,8.1,63,0.00,,,0.00,VWS V14.01,2013-08-02 02:49:00,
2013-08-01 19:50:00,60.1,47.5,29.88,SSW,202,0.0,4.0,63,0.00,,,0.00,VWS V14.01,2013-08-02 02:50:00,
2013-08-01 19:51:00,59.9,47.3,29.88,WNW,292,3.1,5.4,63,0.00,,,0.00,VWS V14.01,2013-08-02 02:51:00,
2013-08-01 19:52:00,60.1,47.5,29.88,WSW,248,2.7,4.9,63,0.00,,,0.00,VWS V14.01,2013-08-02 02:52:00,
2013-08-01 19:53:00,60.1,47.5,29.88,SSW,202,3.6,4.0,63,0.00,,,0.00,VWS V14.01,2013-08-02 02:53:00,
2013-08-01 19:54:00,60.1,47.5,29.88,South,180,3.1,4.0,63,0.00,,,0.00,VWS V14.01,2013-08-02 02:54:00,
2013-08-01 19:55:00,60.1,47.9,29.88,SSW,202,4.0,5.4,64,0.00,,,0.00,VWS V14.01,2013-08-02 02:55:00,
2013-08-01 19:56:00,60.1,47.5,29.88,East,90,0.0,4.9,63,0.00,,,0.00,VWS V14.01,2013-08-02 02:56:00,
2013-08-01 19:57:00,60.1,47.9,29.88,SSW,202,2.7,5.4,64,0.00,,,0.00,VWS V14.01,2013-08-02 02:57:00,
2013-08-01 19:58:00,60.1,47.9,29.88,WSW,248,2.7,3.6,64,0.00,,,0.00,VWS V14.01,2013-08-02 02:58:00,
2013-08-01 19:59:00,60.1,47.9,29.88,SSW,202,4.0,5.4,64,0.00,,,0.00,VWS V14.01,2013-08-02 02:59:00,
2013-08-01 20:00:00,59.9,47.7,29.88,SW,225,2.7,4.0,64,0.00,,,0.00,VWS V14.01,2013-08-02 03:00:00,
2013-08-01 20:01:00,60.1,47.9,29.88,WSW,248,2.7,2.7,64,0.00,,,0.00,VWS V14.01,2013-08-02 03:01:00,
2013-08-01 20:02:00,60.1,47.9,29.88,SSW,202,4.9,4.9,64,0.00,,,0.00,VWS V14.01,2013-08-02 03:02:00,
2013-08-01 20:03:00,60.1,47.9,29.88,SSW,202,4.0,4.9,64,0.00,,,0.00,VWS V14.01,2013-08-02 03:03:00,
2013-08-01 20:04:00,59.9,47.7,29.88,SW,225,2.7,4.0,64,0.00,,,0.00,VWS V14.01,2013-08-02 03:04:00,
2013-08-01 20:05:00,59.9,47.7,29.88,ESE,112,0.0,2.7,64,0.00,,,0.00,VWS V14.01,2013-08-02 03:05:00,
2013-08-01 20:06:00,59.9,47.7,29.88,WSW,248,3.6,5.4,64,0.00,,,0.00,VWS V14.01,2013-08-02 03:06:00,
2013-08-01 20:07:00,59.9,47.7,29.88,WSW,248,2.7,3.6,64,0.00,,,0.00,VWS V14.01,2013-08-02 03:07:00,
2013-08-01 20:08:00,59.9,47.7,29.88,ESE,112,6.3,6.3,64,0.00,,,0.00,VWS V14.01,2013-08-02 03:08:00,
2013-08-01 20:09:00,59.9,47.7,29.88,ESE,112,2.7,6.3,64,0.00,,,0.00,VWS V14.01,2013-08-02 03:09:00,
2013-08-01 20:10:00,59.9,47.7,29.88,ESE,112,0.0,2.7,64,0.00,,,0.00,VWS V14.01,2013-08-02 03:10:00,
2013-08-01 20:11:00,59.7,47.5,29.88,SSW,202,4.9,4.9,64,0.00,,,0.00,VWS V14.01,2013-08-02 03:11:00,
2013-08-01 20:12:00,59.9,47.7,29.88,SSE,158,3.6,5.4,64,0.00,,,0.00,VWS V14.01,2013-08-02 03:12:00,
2013-08-01 20:13:00,59.9,47.7,29.88,South,180,2.7,3.6,64,0.00,,,0.00,VWS V14.01,2013-08-02 03:13:00,
2013-08-01 20:14:00,59.7,47.5,29.88,SSE,158,3.6,4.0,64,0.00,,,0.00,VWS V14.01,2013-08-02 03:14:00,
2013-08-01 20:15:00,59.7,47.5,29.88,SSW,202,4.9,4.9,64,0.00,,,0.00,VWS V14.01,2013-08-02 03:15:00,
2013-08-01 20:16:00,59.7,47.5,29.88,SSE,158,3.1,4.9,64,0.00,,,0.00,VWS V14.01,2013-08-02 03:16:00,
2013-08-01 20:17:00,59.7,47.5,29.88,SSW,202,0.0,3.1,64,0.00,,,0.00,VWS V14.01,2013-08-02 03:17:00,
2013-08-01 20:18:00,59.7,47.5,29.88,WSW,248,3.1,3.1,64,0.00,,,0.00,VWS V14.01,2013-08-02 03:18:00,
2013-08-01 20:19:00,59.7,47.5,29.88,South,180,4.0,8.3,64,0.00,,,0.00,VWS V14.01,2013-08-02 03:19:00,
2013-08-01 20:20:00,59.7,47.5,29.88,SSE,158,3.1,4.9,64,0.00,,,0.00,VWS V14.01,2013-08-02 03:20:00,
2013-08-01 20:21:00,59.7,47.5,29.88,SSW,202,2.7,2.7,64,0.00,,,0.00,VWS V14.01,2013-08-02 03:21:00,
2013-08-01 20:22:00,59.7,47.5,29.88,ESE,112,0.0,0.0,64,0.00,,,0.00,VWS V14.01,2013-08-02 03:22:00,
2013-08-01 20:23:00,59.7,47.5,29.88,ESE,112,0.0,0.0,64,0.00,,,0.00,VWS V14.01,2013-08-02 03:23:00,
2013-08-01 20:24:00,59.7,47.5,29.88,South,180,0.0,0.0,64,0.00,,,0.00,VWS V14.01,2013-08-02 03:24:00,
2013-08-01 20:25:00,59.7,47.5,29.88,SSW,202,2.7,2.7,64,0.00,,,0.00,VWS V14.01,2013-08-02 03:25:00,
2013-08-01 20:26:00,59.7,47.5,29.88,ESE,112,3.1,3.6,64,0.00,,,0.00,VWS V14.01,2013-08-02 03:26:00,
2013-08-01 20:27:00,59.7,47.5,29.88,SW,225,0.0,3.1,64,0.00,,,0.00,VWS V14.01,2013-08-02 03:27:00,
2013-08-01 20:28:00,59.5,47.4,29.88,SE,135,2.7,2.7,64,0.00,,,0.00,VWS V14.01,2013-08-02 03:28:00,
2013-08-01 20:29:00,59.5,47.4,29.88,South,180,0.0,0.0,64,0.00,,,0.00,VWS V14.01,2013-08-02 03:29:00,
2013-08-01 20:30:00,59.5,47.4,29.88,SSW,202,0.0,3.1,64,0.00,,,0.00,VWS V14.01,2013-08-02 03:30:00,
2013-08-01 20:31:00,59.5,47.4,29.88,SSW,202,0.0,0.0,64,0.00,,,0.00,VWS V14.01,2013-08-02 03:31:00,
2013-08-01 20:32:00,59.5,47.4,29.88,SE,135,2.7,2.7,64,0.00,,,0.00,VWS V14.01,2013-08-02 03:32:00,
2013-08-01 20:33:00,59.5,47.4,29.88,ESE,112,0.0,3.6,64,0.00,,,0.00,VWS V14.01,2013-08-02 03:33:00,
2013-08-01 20:34:00,59.5,47.4,29.88,SSE,158,0.0,4.0,64,0.00,,,0.00,VWS V14.01,2013-08-02 03:34:00,
2013-08-01 20:35:00,59.5,47.4,29.88,SSW,202,3.1,3.6,64,0.00,,,0.00,VWS V14.01,2013-08-02 03:35:00,
2013-08-01 20:36:00,59.5,47.4,29.88,SSW,202,5.8,5.8,64,0.00,,,0.00,VWS V14.01,2013-08-02 03:36:00,
2013-08-01 20:37:00,59.5,47.4,29.88,SSW,202,0.0,5.8,64,0.00,,,0.00,VWS V14.01,2013-08-02 03:37:00,
2013-08-01 20:38:00,59.5,47.4,29.88,SSE,158,0.0,4.0,64,0.00,,,0.00,VWS V14.01,2013-08-02 03:38:00,
2013-08-01 20:39:00,59.5,47.8,29.88,WNW,292,2.2,2.7,65,0.00,,,0.00,VWS V14.01,2013-08-02 03:39:00,
2013-08-01 20:40:00,59.5,47.8,29.88,ESE,112,2.2,4.0,65,0.00,,,0.00,VWS V14.01,2013-08-02 03:40:00,
2013-08-01 20:41:00,59.5,47.8,29.88,NE,45,0.0,2.7,65,0.00,,,0.00,VWS V14.01,2013-08-02 03:41:00,
2013-08-01 20:42:00,59.5,47.8,29.88,NE,45,0.0,2.2,65,0.00,,,0.00,VWS V14.01,2013-08-02 03:42:00,
2013-08-01 20:43:00,59.7,48.0,29.88,SW,225,2.7,3.6,65,0.00,,,0.00,VWS V14.01,2013-08-02 03:43:00,
2013-08-01 20:44:00,59.7,48.0,29.88,ENE,68,3.6,3.6,65,0.00,,,0.00,VWS V14.01,2013-08-02 03:44:00,
2013-08-01 20:45:00,59.7,48.0,29.88,SW,225,3.1,3.1,65,0.00,,,0.00,VWS V14.01,2013-08-02 03:45:00,
2013-08-01 20:46:00,59.5,47.8,29.88,ESE,112,0.0,3.1,65,0.00,,,0.00,VWS V14.01,2013-08-02 03:46:00,
2013-08-01 20:47:00,59.7,48.0,29.88,ESE,112,0.0,0.0,65,0.00,,,0.00,VWS V14.01,2013-08-02 03:47:00,
2013-08-01 20:48:00,59.7,48.0,29.88,East,90,2.7,2.7,65,0.00,,,0.00,VWS V14.01,2013-08-02 03:48:00,
2013-08-01 20:49:00,59.7,47.5,29.88,ESE,112,2.7,3.6,64,0.00,,,0.00,VWS V14.01,2013-08-02 03:49:00,
2013-08-01 20:50:00,59.7,47.5,29.88,SSW,202,3.6,4.5,64,0.00,,,0.00,VWS V14.01,2013-08-02 03:50:00,
2013-08-01 20:51:00,59.7,47.5,29.88,SSW,202,4.0,4.0,64,0.00,,,0.00,VWS V14.01,2013-08-02 03:51:00,
2013-08-01 20:52:00,59.7,47.5,29.88,SSW,202,2.7,4.0,64,0.00,,,0.00,VWS V14.01,2013-08-02 03:52:00,
2013-08-01 20:53:00,59.7,47.5,29.88,ESE,112,3.6,3.6,64,0.00,,,0.00,VWS V14.01,2013-08-02 03:53:00,
2013-08-01 20:54:00,59.7,47.5,29.88,ESE,112,2.7,3.6,64,0.00,,,0.00,VWS V14.01,2013-08-02 03:54:00,
2013-08-01 20:55:00,59.7,47.5,29.88,SSW,202,0.0,2.7,64,0.00,,,0.00,VWS V14.01,2013-08-02 03:55:00,
2013-08-01 20:56:00,59.7,47.5,29.88,East,90,2.7,2.7,64,0.00,,,0.00,VWS V14.01,2013-08-02 03:56:00,
2013-08-01 20:57:00,59.7,47.5,29.88,SSW,202,3.1,3.1,64,0.00,,,0.00,VWS V14.01,2013-08-02 03:57:00,
2013-08-01 20:58:00,59.7,47.5,29.88,SSW,202,2.7,4.5,64,0.00,,,0.00,VWS V14.01,2013-08-02 03:58:00,
2013-08-01 20:59:00,59.7,47.5,29.88,East,90,3.1,3.1,64,0.00,,,0.00,VWS V14.01,2013-08-02 03:59:00,
2013-08-01 21:00:00,59.7,47.5,29.88,SSW,202,0.0,0.0,64,0.00,,,0.00,VWS V14.01,2013-08-02 04:00:00,
2013-08-01 21:01:00,59.7,47.5,29.88,East,90,0.0,3.1,64,0.00,,,0.00,VWS V14.01,2013-08-02 04:01:00,
2013-08-01 21:02:00,59.7,47.5,29.88,SE,135,0.0,4.0,64,0.00,,,0.00,VWS V14.01,2013-08-02 04:02:00,
2013-08-01 21:03:00,59.7,47.5,29.88,SW,225,0.0,2.7,64,0.00,,,0.00,VWS V14.01,2013-08-02 04:03:00,
2013-08-01 21:04:00,59.7,47.5,29.88,East,90,3.1,3.1,64,0.00,,,0.00,VWS V14.01,2013-08-02 04:04:00,
2013-08-01 21:05:00,59.7,47.5,29.88,East,90,0.0,3.1,64,0.00,,,0.00,VWS V14.01,2013-08-02 04:05:00,
2013-08-01 21:06:00,59.7,47.5,29.88,SSE,158,4.0,4.0,64,0.00,,,0.00,VWS V14.01,2013-08-02 04:06:00,
2013-08-01 21:07:00,59.5,47.4,29.88,SSW,202,0.0,0.0,64,0.00,,,0.00,VWS V14.01,2013-08-02 04:07:00,
2013-08-01 21:08:00,59.5,47.4,29.88,South,180,2.7,2.7,64,0.00,,,0.00,VWS V14.01,2013-08-02 04:08:00,
2013-08-01 21:09:00,59.5,47.4,29.88,South,180,0.0,2.7,64,0.00,,,0.00,VWS V14.01,2013-08-02 04:09:00,
2013-08-01 21:10:00,59.5,47.4,29.88,SSE,158,0.0,2.2,64,0.00,,,0.00,VWS V14.01,2013-08-02 04:10:00,
2013-08-01 21:11:00,59.5,47.4,29.88,SSE,158,0.0,0.0,64,0.00,,,0.00,VWS V14.01,2013-08-02 04:11:00,
2013-08-01 21:12:00,59.5,47.4,29.88,SSW,202,0.0,0.0,64,0.00,,,0.00,VWS V14.01,2013-08-02 04:12:00,
2013-08-01 21:13:00,59.5,47.4,29.88,SSW,202,0.0,0.0,64,0.00,,,0.00,VWS V14.01,2013-08-02 04:13:00,
2013-08-01 21:14:00,59.5,47.4,29.88,South,180,0.0,2.7,64,0.00,,,0.00,VWS V14.01,2013-08-02 04:14:00,
2013-08-01 21:15:00,59.5,47.4,29.88,South,180,0.0,0.0,64,0.00,,,0.00,VWS V14.01,2013-08-02 04:15:00,
2013-08-01 21:16:00,59.5,47.4,29.88,SSW,202,3.6,4.9,64,0.00,,,0.00,VWS V14.01,2013-08-02 04:16:00,
2013-08-01 21:17:00,59.7,47.5,29.88,ENE,68,0.0,0.0,64,0.00,,,0.00,VWS V14.01,2013-08-02 04:17:00,
2013-08-01 21:18:00,59.5,47.4,29.88,SSW,202,0.0,0.0,64,0.00,,,0.00,VWS V14.01,2013-08-02 04:18:00,
2013-08-01 21:19:00,59.5,47.4,29.88,South,180,0.0,0.0,64,0.00,,,0.00,VWS V14.01,2013-08-02 04:19:00,
2013-08-01 21:20:00,59.7,47.5,29.88,South,180,0.0,0.0,64,0.00,,,0.00,VWS V14.01,2013-08-02 04:20:00,
2013-08-01 21:21:00,59.7,47.5,29.88,ENE,68,0.0,0.0,64,0.00,,,0.00,VWS V14.01,2013-08-02 04:21:00,
2013-08-01 21:22:00,59.7,47.1,29.88,SSE,158,0.0,0.0,63,0.00,,,0.00,VWS V14.01,2013-08-02 04:22:00,
2013-08-01 21:23:00,59.7,47.5,29.88,ESE,112,0.0,0.0,64,0.00,,,0.00,VWS V14.01,2013-08-02 04:23:00,
2013-08-01 21:24:00,59.7,47.1,29.88,SSW,202,0.0,0.0,63,0.00,,,0.00,VWS V14.01,2013-08-02 04:24:00,
2013-08-01 21:25:00,59.7,47.1,29.88,South,180,3.6,5.4,63,0.00,,,0.00,VWS V14.01,2013-08-02 04:25:00,
2013-08-01 21:26:00,59.7,47.1,29.88,SSE,158,0.0,3.6,63,0.00,,,0.00,VWS V14.01,2013-08-02 04:26:00,
2013-08-01 21:27:00,59.7,47.1,29.88,SSW,202,0.0,0.0,63,0.00,,,0.00,VWS V14.01,2013-08-02 04:27:00,
2013-08-01 21:28:00,59.7,47.1,29.88,SSW,202,3.6,3.6,63,0.00,,,0.00,VWS V14.01,2013-08-02 04:28:00,
2013-08-01 21:29:00,59.7,47.1,29.88,SSW,202,0.0,3.6,63,0.00,,,0.00,VWS V14.01,2013-08-02 04:29:00,
2013-08-01 21:30:00,59.7,47.1,29.88,SSW,202,0.0,0.0,63,0.00,,,0.00,VWS V14.01,2013-08-02 04:30:00,
2013-08-01 21:31:00,59.7,47.1,29.88,SSW,202,0.0,0.0,63,0.00,,,0.00,VWS V14.01,2013-08-02 04:31:00,
2013-08-01 21:32:00,59.7,47.1,29.88,SSE,158,2.7,4.0,63,0.00,,,0.00,VWS V14.01,2013-08-02 04:32:00,
2013-08-01 21:33:00,59.7,47.1,29.88,SSW,202,0.0,0.0,63,0.00,,,0.00,VWS V14.01,2013-08-02 04:33:00,
2013-08-01 21:34:00,59.7,47.1,29.88,SSW,202,2.2,2.2,63,0.00,,,0.00,VWS V14.01,2013-08-02 04:34:00,
2013-08-01 21:35:00,59.7,47.1,29.88,SSW,202,0.0,2.2,63,0.00,,,0.00,VWS V14.01,2013-08-02 04:35:00,
2013-08-01 21:36:00,59.7,47.1,29.88,SSW,202,3.1,3.1,63,0.00,,,0.00,VWS V14.01,2013-08-02 04:36:00,
2013-08-01 21:37:00,59.7,47.1,29.88,SSE,158,2.7,4.0,63,0.00,,,0.00,VWS V14.01,2013-08-02 04:37:00,
2013-08-01 21:38:00,59.7,47.1,29.88,East,90,0.0,2.2,63,0.00,,,0.00,VWS V14.01,2013-08-02 04:38:00,
2013-08-01 21:39:00,59.7,47.1,29.88,SSW,202,0.0,3.1,63,0.00,,,0.00,VWS V14.01,2013-08-02 04:39:00,
2013-08-01 21:40:00,59.7,47.1,29.88,East,90,0.0,0.0,63,0.00,,,0.00,VWS V14.01,2013-08-02 04:40:00,
2013-08-01 21:41:00,59.7,47.1,29.88,East,90,3.1,3.1,63,0.00,,,0.00,VWS V14.01,2013-08-02 04:41:00,
2013-08-01 21:42:00,59.7,47.1,29.88,East,90,2.2,3.1,63,0.00,,,0.00,VWS V14.01,2013-08-02 04:42:00,
2013-08-01 21:43:00,59.7,47.1,29.88,South,180,0.0,3.6,63,0.00,,,0.00,VWS V14.01,2013-08-02 04:43:00,
2013-08-01 21:44:00,59.7,47.1,29.88,SE,135,0.0,3.1,63,0.00,,,0.00,VWS V14.01,2013-08-02 04:44:00,
2013-08-01 21:45:00,59.7,47.1,29.88,SE,135,0.0,0.0,63,0.00,,,0.00,VWS V14.01,2013-08-02 04:45:00,
2013-08-01 21:46:00,59.7,47.1,29.88,SSW,202,2.2,2.7,63,0.00,,,0.00,VWS V14.01,2013-08-02 04:46:00,
2013-08-01 21:47:00,59.7,47.1,29.88,SSE,158,3.6,3.6,63,0.00,,,0.00,VWS V14.01,2013-08-02 04:47:00,
2013-08-01 21:48:00,59.7,47.1,29.88,SSW,202,2.2,2.2,63,0.00,,,0.00,VWS V14.01,2013-08-02 04:48:00,
2013-08-01 21:49:00,59.7,47.1,29.88,SSW,202,0.0,0.0,63,0.00,,,0.00,VWS V14.01,2013-08-02 04:49:00,
2013-08-01 21:50:00,59.7,47.1,29.88,SW,225,0.0,0.0,63,0.00,,,0.00,VWS V14.01,2013-08-02 04:50:00,
2013-08-01 21:51:00,59.7,47.1,29.88,SSE,158,0.0,0.0,63,0.00,,,0.00,VWS V14.01,2013-08-02 04:51:00,
2013-08-01 21:52:00,59.7,47.1,29.88,SSW,202,0.0,0.0,63,0.00,,,0.00,VWS V14.01,2013-08-02 04:52:00,
2013-08-01 21:53:00,59.5,47.4,29.88,ESE,112,0.0,0.0,64,0.00,,,0.00,VWS V14.01,2013-08-02 04:53:00,
2013-08-01 21:54:00,59.7,47.5,29.88,SSW,202,0.0,2.2,64,0.00,,,0.00,VWS V14.01,2013-08-02 04:54:00,
2013-08-01 21:55:00,59.7,47.5,29.88,ESE,112,0.0,0.0,64,0.00,,,0.00,VWS V14.01,2013-08-02 04:55:00,
2013-08-01 21:56:00,59.7,47.5,29.88,ESE,112,0.0,0.0,64,0.00,,,0.00,VWS V14.01,2013-08-02 04:56:00,
2013-08-01 21:57:00,59.7,47.5,29.88,ESE,112,0.0,0.0,64,0.00,,,0.00,VWS V14.01,2013-08-02 04:57:00,
2013-08-01 21:58:00,59.5,47.4,29.88,ESE,112,0.0,0.0,64,0.00,,,0.00,VWS V14.01,2013-08-02 04:58:00,
2013-08-01 21:59:00,59.5,47.4,29.88,NNE,22,0.0,0.0,64,0.00,,,0.00,VWS V14.01,2013-08-02 04:59:00,
2013-08-01 22:00:00,59.5,47.4,29.88,ESE,112,0.0,0.0,64,0.00,,,0.00,VWS V14.01,2013-08-02 05:00:00,
2013-08-01 22:01:00,59.5,47.4,29.88,SSE,158,0.0,0.0,64,0.00,,,0.00,VWS V14.01,2013-08-02 05:01:00,
2013-08-01 22:02:00,59.5,47.4,29.88,SSE,158,0.0,0.0,64,0.00,,,0.00,VWS V14.01,2013-08-02 05:02:00,
2013-08-01 22:03:00,59.5,47.4,29.88,NNE,22,0.0,2.2,64,0.00,,,0.00,VWS V14.01,2013-08-02 05:03:00,
2013-08-01 22:04:00,59.5,47.8,29.88,ESE,112,0.0,0.0,65,0.00,,,0.00,VWS V14.01,2013-08-02 05:04:00,
2013-08-01 22:05:00,59.5,47.4,29.88,SE,135,0.0,2.7,64,0.00,,,0.00,VWS V14.01,2013-08-02 05:05:00,
2013-08-01 22:06:00,59.5,47.4,29.88,SSE,158,0.0,0.0,64,0.00,,,0.00,VWS V14.01,2013-08-02 05:06:00,
2013-08-01 22:07:00,59.5,47.4,29.88,SE,135,0.0,3.1,64,0.00,,,0.00,VWS V14.01,2013-08-02 05:07:00,
2013-08-01 22:08:00,59.7,48.0,29.88,SE,135,0.0,0.0,65,0.00,,,0.00,VWS V14.01,2013-08-02 05:08:00,
2013-08-01 22:09:00,59.5,47.8,29.88,SSE,158,2.7,2.7,65,0.00,,,0.00,VWS V14.01,2013-08-02 05:09:00,
2013-08-01 22:10:00,59.5,47.8,29.88,ESE,112,0.0,0.0,65,0.00,,,0.00,VWS V14.01,2013-08-02 05:10:00,
2013-08-01 22:11:00,59.5,47.8,29.88,ESE,112,0.0,0.0,65,0.00,,,0.00,VWS V14.01,2013-08-02 05:11:00,
2013-08-01 22:12:00,59.5,47.8,29.88,ESE,112,0.0,0.0,65,0.00,,,0.00,VWS V14.01,2013-08-02 05:12:00,
2013-08-01 22:13:00,59.5,47.8,29.88,ESE,112,0.0,0.0,65,0.00,,,0.00,VWS V14.01,2013-08-02 05:13:00,
2013-08-01 22:14:00,59.5,48.2,29.88,ESE,112,0.0,2.2,66,0.00,,,0.00,VWS V14.01,2013-08-02 05:14:00,
2013-08-01 22:15:00,59.5,47.8,29.88,SSE,158,0.0,2.7,65,0.00,,,0.00,VWS V14.01,2013-08-02 05:15:00,
2013-08-01 22:16:00,59.4,47.6,29.88,SSE,158,0.0,0.0,65,0.00,,,0.00,VWS V14.01,2013-08-02 05:16:00,
2013-08-01 22:17:00,59.4,47.6,29.88,SSE,158,0.0,0.0,65,0.00,,,0.00,VWS V14.01,2013-08-02 05:17:00,
2013-08-01 22:18:00,59.4,47.6,29.88,SSE,158,0.0,3.1,65,0.00,,,0.00,VWS V14.01,2013-08-02 05:18:00,
2013-08-01 22:19:00,59.5,48.2,29.88,ESE,112,2.2,3.1,66,0.00,,,0.00,VWS V14.01,2013-08-02 05:19:00,
2013-08-01 22:20:00,59.7,48.4,29.88,ESE,112,2.2,2.7,66,0.00,,,0.00,VWS V14.01,2013-08-02 05:20:00,
2013-08-01 22:21:00,59.5,48.2,29.88,ESE,112,2.2,2.2,66,0.00,,,0.00,VWS V14.01,2013-08-02 05:21:00,
2013-08-01 22:22:00,59.5,48.2,29.88,ESE,112,0.0,2.2,66,0.00,,,0.00,VWS V14.01,2013-08-02 05:22:00,
2013-08-01 22:23:00,59.5,48.2,29.88,ESE,112,3.6,4.9,66,0.00,,,0.00,VWS V14.01,2013-08-02 05:23:00,
2013-08-01 22:24:00,59.5,48.2,29.88,SSW,202,2.7,3.6,66,0.00,,,0.00,VWS V14.01,2013-08-02 05:24:00,
2013-08-01 22:25:00,59.5,48.2,29.88,SSW,202,4.0,4.9,66,0.00,,,0.00,VWS V14.01,2013-08-02 05:25:00,
2013-08-01 22:26:00,59.5,48.2,29.88,ESE,112,0.0,0.0,66,0.00,,,0.00,VWS V14.01,2013-08-02 05:26:00,
2013-08-01 22:27:00,59.5,48.2,29.88,ESE,112,0.0,3.1,66,0.00,,,0.00,VWS V14.01,2013-08-02 05:27:00,
2013-08-01 22:28:00,59.5,48.2,29.88,SSE,158,0.0,0.0,66,0.00,,,0.00,VWS V14.01,2013-08-02 05:28:00,
2013-08-01 22:29:00,59.5,48.2,29.88,SSW,202,2.7,2.7,66,0.00,,,0.00,VWS V14.01,2013-08-02 05:29:00,
2013-08-01 22:30:00,59.5,48.2,29.88,South,180,2.7,2.7,66,0.00,,,0.00,VWS V14.01,2013-08-02 05:30:00,
2013-08-01 22:31:00,59.5,48.2,29.88,South,180,2.7,4.9,66,0.00,,,0.00,VWS V14.01,2013-08-02 05:31:00,
2013-08-01 22:32:00,59.5,48.2,29.88,South,180,2.7,4.0,66,0.00,,,0.00,VWS V14.01,2013-08-02 05:32:00,
2013-08-01 22:33:00,59.5,48.2,29.88,South,180,3.1,3.1,66,0.00,,,0.00,VWS V14.01,2013-08-02 05:33:00,
2013-08-01 22:34:00,59.5,48.2,29.88,South,180,2.7,3.6,66,0.00,,,0.00,VWS V14.01,2013-08-02 05:34:00,
2013-08-01 22:35:00,59.5,48.2,29.88,SSE,158,2.7,2.7,66,0.00,,,0.00,VWS V14.01,2013-08-02 05:35:00,
2013-08-01 22:36:00,59.5,48.2,29.88,SSE,158,2.7,2.7,66,0.00,,,0.00,VWS V14.01,2013-08-02 05:36:00,
2013-08-01 22:37:00,59.5,48.2,29.88,ESE,112,0.0,2.7,66,0.00,,,0.00,VWS V14.01,2013-08-02 05:37:00,
2013-08-01 22:38:00,59.7,48.4,29.88,SSW,202,0.0,0.0,66,0.00,,,0.00,VWS V14.01,2013-08-02 05:38:00,
2013-08-01 22:39:00,59.5,48.2,29.88,ESE,112,0.0,2.2,66,0.00,,,0.00,VWS V14.01,2013-08-02 05:39:00,
2013-08-01 22:40:00,59.5,48.2,29.88,SSE,158,2.7,2.7,66,0.00,,,0.00,VWS V14.01,2013-08-02 05:40:00,
2013-08-01 22:41:00,59.5,48.2,29.88,SSE,158,0.0,0.0,66,0.00,,,0.00,VWS V14.01,2013-08-02 05:41:00,
2013-08-01 22:42:00,59.7,48.4,29.88,SSE,158,0.0,0.0,66,0.00,,,0.00,VWS V14.01,2013-08-02 05:42:00,
2013-08-01 22:43:00,59.5,48.2,29.88,SSE,158,0.0,0.0,66,0.00,,,0.00,VWS V14.01,2013-08-02 05:43:00,
2013-08-01 22:44:00,59.5,48.2,29.88,SSE,158,0.0,0.0,66,0.00,,,0.00,VWS V14.01,2013-08-02 05:44:00,
2013-08-01 22:45:00,59.5,48.2,29.88,ESE,112,0.0,0.0,66,0.00,,,0.00,VWS V14.01,2013-08-02 05:45:00,
2013-08-01 22:46:00,59.5,47.8,29.88,SSW,202,0.0,0.0,65,0.00,,,0.00,VWS V14.01,2013-08-02 05:46:00,
2013-08-01 22:47:00,59.7,48.4,29.88,ESE,112,0.0,0.0,66,0.00,,,0.00,VWS V14.01,2013-08-02 05:47:00,
2013-08-01 22:48:00,59.5,48.2,29.88,ESE,112,0.0,0.0,66,0.00,,,0.00,VWS V14.01,2013-08-02 05:48:00,
2013-08-01 22:49:00,59.5,47.8,29.88,SSW,202,0.0,0.0,65,0.00,,,0.00,VWS V14.01,2013-08-02 05:49:00,
2013-08-01 22:50:00,59.5,47.8,29.88,SSW,202,0.0,0.0,65,0.00,,,0.00,VWS V14.01,2013-08-02 05:50:00,
2013-08-01 22:51:00,59.5,47.8,29.88,ESE,112,0.0,0.0,65,0.00,,,0.00,VWS V14.01,2013-08-02 05:51:00,
2013-08-01 22:52:00,59.5,47.8,29.88,South,180,0.0,2.7,65,0.00,,,0.00,VWS V14.01,2013-08-02 05:52:00,
2013-08-01 22:53:00,59.5,47.8,29.88,South,180,0.0,0.0,65,0.00,,,0.00,VWS V14.01,2013-08-02 05:53:00,
2013-08-01 22:54:00,59.5,47.8,29.88,South,180,0.0,0.0,65,0.00,,,0.00,VWS V14.01,2013-08-02 05:54:00,
2013-08-01 22:55:00,59.5,47.8,29.88,ESE,112,0.0,2.2,65,0.00,,,0.00,VWS V14.01,2013-08-02 05:55:00,
2013-08-01 22:56:00,59.4,47.6,29.88,SSW,202,0.0,0.0,65,0.00,,,0.00,VWS V14.01,2013-08-02 05:56:00,
2013-08-01 22:57:00,59.4,47.6,29.88,SSW,202,0.0,0.0,65,0.00,,,0.00,VWS V14.01,2013-08-02 05:57:00,
2013-08-01 22:58:00,59.5,47.8,29.88,SSW,202,0.0,0.0,65,0.00,,,0.00,VWS V14.01,2013-08-02 05:58:00,
2013-08-01 22:59:00,59.4,47.6,29.88,SW,225,0.0,0.0,65,0.00,,,0.00,VWS V14.01,2013-08-02 05:59:00,
2013-08-01 23:00:00,59.4,47.6,29.88,East,90,0.0,0.0,65,0.00,,,0.00,VWS V14.01,2013-08-02 06:00:00,
2013-08-01 23:01:00,59.4,47.6,29.88,SSW,202,0.0,0.0,65,0.00,,,0.00,VWS V14.01,2013-08-02 06:01:00,
2013-08-01 23:02:00,59.4,47.6,29.88,NW,315,0.0,0.0,65,0.00,,,0.00,VWS V14.01,2013-08-02 06:02:00,
2013-08-01 23:03:00,59.4,47.6,29.88,WNW,292,0.0,0.0,65,0.00,,,0.00,VWS V14.01,2013-08-02 06:03:00,
2013-08-01 23:04:00,59.4,47.6,29.88,SSW,202,0.0,0.0,65,0.00,,,0.00,VWS V14.01,2013-08-02 06:04:00,
2013-08-01 23:05:00,59.4,47.6,29.88,West,270,0.0,0.0,65,0.00,,,0.00,VWS V14.01,2013-08-02 06:05:00,
2013-08-01 23:06:00,59.4,47.6,29.88,WSW,248,0.0,0.0,65,0.00,,,0.00,VWS V14.01,2013-08-02 06:06:00,
2013-08-01 23:07:00,59.2,47.4,29.88,WNW,292,0.0,0.0,65,0.00,,,0.00,VWS V14.01,2013-08-02 06:07:00,
2013-08-01 23:11:00,59.2,47.4,29.88,SSW,202,0.0,0.0,65,0.00,,,0.00,VWS V14.01,2013-08-02 06:11:00,
2013-08-01 23:12:00,59.0,47.7,29.88,WSW,248,0.0,0.0,66,0.00,,,0.00,VWS V14.01,2013-08-02 06:12:00,
2013-08-01 23:13:00,59.2,47.4,29.88,WSW,248,2.7,3.1,65,0.00,,,0.00,VWS V14.01,2013-08-02 06:13:00,
2013-08-01 23:14:00,59.2,47.4,29.88,SSW,202,0.0,3.1,65,0.00,,,0.00,VWS V14.01,2013-08-02 06:14:00,
2013-08-01 23:15:00,59.2,47.4,29.88,SW,225,0.0,0.0,65,0.00,,,0.00,VWS V14.01,2013-08-02 06:15:00,
2013-08-01 23:16:00,59.0,47.7,29.88,WSW,248,0.0,0.0,66,0.00,,,0.00,VWS V14.01,2013-08-02 06:16:00,
2013-08-01 23:17:00,59.0,47.7,29.88,ENE,68,0.0,3.6,66,0.00,,,0.00,VWS V14.01,2013-08-02 06:17:00,
2013-08-01 23:18:00,59.2,47.8,29.88,West,270,2.7,4.5,66,0.00,,,0.00,VWS V14.01,2013-08-02 06:18:00,
2013-08-01 23:19:00,59.0,47.7,29.88,NNE,22,0.0,4.0,66,0.00,,,0.00,VWS V14.01,2013-08-02 06:19:00,
2013-08-01 23:20:00,59.0,47.7,29.88,South,180,3.6,3.6,66,0.00,,,0.00,VWS V14.01,2013-08-02 06:20:00,
2013-08-01 23:21:00,59.0,47.7,29.88,ENE,68,0.0,3.6,66,0.00,,,0.00,VWS V14.01,2013-08-02 06:21:00,
2013-08-01 23:22:00,58.8,47.9,29.88,SSE,158,0.0,0.0,67,0.00,,,0.00,VWS V14.01,2013-08-02 06:22:00,
2013-08-01 23:23:00,59.0,47.7,29.88,North,0,0.0,3.1,66,0.00,,,0.00,VWS V14.01,2013-08-02 06:23:00,
2013-08-01 23:24:00,59.0,47.7,29.88,SSW,202,0.0,0.0,66,0.00,,,0.00,VWS V14.01,2013-08-02 06:24:00,
2013-08-01 23:25:00,59.0,47.7,29.88,NNE,22,0.0,2.7,66,0.00,,,0.00,VWS V14.01,2013-08-02 06:25:00,
2013-08-01 23:26:00,58.8,47.9,29.88,SSE,158,0.0,0.0,67,0.00,,,0.00,VWS V14.01,2013-08-02 06:26:00,
2013-08-01 23:27:00,58.8,47.9,29.88,SSW,202,0.0,0.0,67,0.00,,,0.00,VWS V14.01,2013-08-02 06:27:00,
2013-08-01 23:28:00,58.8,47.9,29.88,ENE,68,2.7,2.7,67,0.00,,,0.00,VWS V14.01,2013-08-02 06:28:00,
2013-08-01 23:29:00,59.0,48.1,29.88,ESE,112,0.0,3.1,67,0.00,,,0.00,VWS V14.01,2013-08-02 06:29:00,
2013-08-01 23:30:00,59.0,48.1,29.88,SSW,202,0.0,0.0,67,0.00,,,0.00,VWS V14.01,2013-08-02 06:30:00,
2013-08-01 23:31:00,58.8,47.9,29.88,SSW,202,0.0,0.0,67,0.00,,,0.00,VWS V14.01,2013-08-02 06:31:00,
2013-08-01 23:32:00,58.8,47.9,29.88,ESE,112,0.0,2.2,67,0.00,,,0.00,VWS V14.01,2013-08-02 06:32:00,
2013-08-01 23:33:00,58.8,48.3,29.88,South,180,0.0,0.0,68,0.00,,,0.00,VWS V14.01,2013-08-02 06:33:00,
2013-08-01 23:34:00,58.8,47.9,29.88,ESE,112,0.0,0.0,67,0.00,,,0.00,VWS V14.01,2013-08-02 06:34:00,
2013-08-01 23:35:00,58.8,47.9,29.88,SSW,202,0.0,0.0,67,0.00,,,0.00,VWS V14.01,2013-08-02 06:35:00,
2013-08-01 23:36:00,58.8,48.3,29.88,South,180,0.0,0.0,68,0.00,,,0.00,VWS V14.01,2013-08-02 06:36:00,
2013-08-01 23:37:00,58.8,48.3,29.88,SSE,158,0.0,0.0,68,0.00,,,0.00,VWS V14.01,2013-08-02 06:37:00,
2013-08-01 23:38:00,58.8,48.3,29.88,ESE,112,0.0,2.7,68,0.00,,,0.00,VWS V14.01,2013-08-02 06:38:00,
2013-08-01 23:39:00,58.8,48.3,29.88,SSW,202,0.0,3.1,68,0.00,,,0.00,VWS V14.01,2013-08-02 06:39:00,
2013-08-01 23:40:00,58.8,48.3,29.88,SSW,202,0.0,0.0,68,0.00,,,0.00,VWS V14.01,2013-08-02 06:40:00,
2013-08-01 23:41:00,58.8,48.3,29.88,SE,135,2.7,2.7,68,0.00,,,0.00,VWS V14.01,2013-08-02 06:41:00,
2013-08-01 23:42:00,58.8,48.3,29.88,ESE,112,0.0,2.7,68,0.00,,,0.00,VWS V14.01,2013-08-02 06:42:00,
2013-08-01 23:43:00,58.8,48.3,29.88,SE,135,0.0,0.0,68,0.00,,,0.00,VWS V14.01,2013-08-02 06:43:00,
2013-08-01 23:44:00,58.8,48.3,29.88,SE,135,0.0,0.0,68,0.00,,,0.00,VWS V14.01,2013-08-02 06:44:00,
2013-08-01 23:45:00,58.8,48.3,29.88,SE,135,0.0,0.0,68,0.00,,,0.00,VWS V14.01,2013-08-02 06:45:00,
2013-08-01 23:46:00,58.8,48.3,29.88,SE,135,0.0,0.0,68,0.00,,,0.00,VWS V14.01,2013-08-02 06:46:00,
2013-08-01 23:47:00,58.8,48.3,29.88,SE,135,0.0,0.0,68,0.00,,,0.00,VWS V14.01,2013-08-02 06:47:00,
2013-08-01 23:48:00,58.8,48.7,29.88,South,180,0.0,0.0,69,0.00,,,0.00,VWS V14.01,2013-08-02 06:48:00,
2013-08-01 23:49:00,58.8,48.3,29.88,SSW,202,0.0,0.0,68,0.00,,,0.00,VWS V14.01,2013-08-02 06:49:00,
2013-08-01 23:50:00,58.8,48.3,29.88,South,180,0.0,0.0,68,0.00,,,0.00,VWS V14.01,2013-08-02 06:50:00,
2013-08-01 23:51:00,58.8,48.7,29.88,South,180,0.0,0.0,69,0.00,,,0.00,VWS V14.01,2013-08-02 06:51:00,
2013-08-01 23:52:00,58.8,48.7,29.88,South,180,0.0,0.0,69,0.00,,,0.00,VWS V14.01,2013-08-02 06:52:00,
2013-08-01 23:53:00,58.8,48.7,29.88,ESE,112,2.7,2.7,69,0.00,,,0.00,VWS V14.01,2013-08-02 06:53:00,
2013-08-01 23:54:00,58.6,48.5,29.88,South,180,0.0,0.0,69,0.00,,,0.00,VWS V14.01,2013-08-02 06:54:00,
2013-08-01 23:55:00,58.6,48.5,29.88,SE,135,0.0,0.0,69,0.00,,,0.00,VWS V14.01,2013-08-02 06:55:00,
2013-08-01 23:56:00,58.8,48.7,29.88,ESE,112,0.0,0.0,69,0.00,,,0.00,VWS V14.01,2013-08-02 06:56:00,
2013-08-01 23:57:00,58.8,48.7,29.88,ESE,112,2.7,2.7,69,0.00,,,0.00,VWS V14.01,2013-08-02 06:57:00,
2013-08-01 23:58:00,58.8,49.1,29.88,ESE,112,0.0,0.0,70,0.00,,,0.00,VWS V14.01,2013-08-02 06:58:00,
2013-08-01 23:59:00,58.8,48.7,29.88,ESE,112,0.0,0.0,69,0.00,,,0.00,VWS V14.01,2013-08-02 06:59:00,